Provisional Data: Portage Creek near Emporium, PA


Please select a monitoring station.
Please select start date.
Please select start date.

Toggle Unit: C/F Toggle Unit: C/F
Sample Time Temperature (C) Temperature (F) Specific Conductivity (mS/cm) pH   Turbidity (NTU+) DO (mg/L)
10/20/2020 12:00:00 AM 10.55 50.99 0.141 7.31 2.1 9.81
10/20/2020 12:15:00 AM 10.55 50.99 0.141 7.31 1.85 9.8
10/20/2020 12:30:00 AM 10.55 50.99 0.141 7.31 1.92 9.79
10/20/2020 12:45:00 AM 10.55 50.99 0.141 7.3 2.05 9.77
10/20/2020 1:00:00 AM 10.56 51.008 0.141 7.32 1.8 9.81
10/20/2020 1:15:00 AM 10.56 51.008 0.141 7.33 1.87 9.85
10/20/2020 1:30:00 AM 10.56 51.008 0.141 7.31 1.78 9.8
10/20/2020 1:45:00 AM 10.57 51.026 0.141 7.31 1.8 9.84
10/20/2020 2:00:00 AM 10.58 51.044 0.141 7.3 1.88 9.84
10/20/2020 2:15:00 AM 10.58 51.044 0.14 7.32 1.94 9.81
10/20/2020 2:30:00 AM 10.6 51.08 0.14 7.33 1.84 9.84
10/20/2020 2:45:00 AM 10.62 51.116 0.14 7.32 1.91 9.83
10/20/2020 3:00:00 AM 10.64 51.152 0.14 7.33 1.78 9.8
10/20/2020 3:15:00 AM 10.67 51.206 0.14 7.33 1.88 9.81
10/20/2020 3:30:00 AM 10.71 51.278 0.141 7.33 2.06 9.77
10/20/2020 3:45:00 AM 10.74 51.332 0.14 7.31 1.89 9.75
10/20/2020 4:00:00 AM 10.78 51.404 0.14 7.36 1.87 9.83
10/20/2020 4:15:00 AM 10.82 51.476 0.14 7.37 1.96 9.83
10/20/2020 4:30:00 AM 10.84 51.512 0.14 7.36 2.06 9.78
10/20/2020 4:45:00 AM 10.87 51.566 0.14 7.33 2.39 9.78
10/20/2020 5:00:00 AM 10.9 51.62 0.14 7.34 2.05 9.77
10/20/2020 5:15:00 AM 10.93 51.674 0.139 7.35 2.01 9.8
10/20/2020 5:30:00 AM 10.96 51.728 0.139 7.35 1.96 9.82
10/20/2020 5:45:00 AM 10.99 51.782 0.139 7.35 2.19 9.83
10/20/2020 6:00:00 AM 11.01 51.818 0.137 7.35 2.43 9.78
10/20/2020 6:15:00 AM 11.03 51.854 0.137 7.35 2.13 9.7
10/20/2020 6:30:00 AM 11.06 51.908 0.135 7.37 2.13 9.89
10/20/2020 6:45:00 AM 11.07 51.926 0.135 7.37 2.3 9.93
10/20/2020 7:00:00 AM 11.07 51.926 0.134 7.35 3.51 9.9
10/20/2020 7:15:00 AM 11.08 51.944 0.134 7.36 2.62 9.88
10/20/2020 7:30:00 AM 11.08 51.944 0.134 7.37 3.72 9.92
10/20/2020 7:45:00 AM 11.08 51.944 0.134 7.36 3.18 9.84
10/20/2020 8:00:00 AM 11.07 51.926 0.134 7.34 3.67 9.84
10/20/2020 8:15:00 AM 11.06 51.908 0.134 7.34 3.07 9.86
10/20/2020 8:30:00 AM 11.06 51.908 0.134 7.35 3.09 10
10/20/2020 8:45:00 AM 11.05 51.89 0.133 7.35 2.94 9.96
10/20/2020 9:00:00 AM 11.05 51.89 0.133 7.34 10.56 9.92
10/20/2020 9:15:00 AM 11.05 51.89 0.132 7.36 4.95 9.99
10/20/2020 9:30:00 AM 11.05 51.89 0.132 7.34 3.34 9.9
10/20/2020 9:45:00 AM 11.07 51.926 0.13 7.36 3.04 10.08
10/20/2020 10:00:00 AM 11.08 51.944 0.13 7.36 3.13 10.08
10/20/2020 10:15:00 AM 11.12 52.016 0.129 7.36 3.05 10.19
10/20/2020 10:30:00 AM 11.16 52.088 0.128 7.39 3.07 10.33
10/20/2020 10:45:00 AM 11.2 52.16 0.128 7.41 2.95 10.42
10/20/2020 11:00:00 AM 11.22 52.196 0.127 7.41 3.18 10.41
10/20/2020 11:15:00 AM 11.24 52.232 0.127 7.39 3.34 10.38
10/20/2020 11:30:00 AM 11.25 52.25 0.126 7.41 3.12 10.39
10/20/2020 11:45:00 AM 11.26 52.268 0.126 7.39 3.32 10.34
10/20/2020 12:00:00 PM 11.28 52.304 0.125 7.39 3.47 10.21
10/20/2020 12:15:00 PM 11.31 52.358 0.125 7.43 3.53 10.39
10/20/2020 12:30:00 PM 11.34 52.412 0.124 7.41 4.16 10.34
10/20/2020 12:45:00 PM 11.37 52.466 0.123 7.41 3.86 10.38
10/20/2020 1:00:00 PM 11.4 52.52 0.123 7.42 4.23 10.45
10/20/2020 1:15:00 PM 11.44 52.592 0.122 7.42 4.54 10.4
10/20/2020 1:30:00 PM 11.48 52.664 0.121 7.4 3.91 10.43
10/20/2020 1:45:00 PM 11.53 52.754 0.121 7.42 4.28 10.39
10/20/2020 2:00:00 PM 11.56 52.808 0.12 7.42 4.23 10.39
10/20/2020 2:15:00 PM 11.6 52.88 0.119 7.44 4.96 10.38
10/20/2020 2:30:00 PM 11.63 52.934 0.118 7.43 4.31 10.37
10/20/2020 2:45:00 PM 11.66 52.988 0.118 7.43 4.37 10.34
10/20/2020 3:00:00 PM 11.71 53.078 0.117 7.48 5.59 10.48
10/20/2020 3:15:00 PM 11.72 53.096 0.117 7.47 5.53 10.41
10/20/2020 3:30:00 PM 11.75 53.15 0.116 7.47 6.84 10.42
10/20/2020 3:45:00 PM 11.78 53.204 0.116 7.46 5.58 10.39
10/20/2020 4:00:00 PM 11.8 53.24 0.115 7.46 7.62 10.37
10/20/2020 4:15:00 PM 11.83 53.294 0.115 7.47 10.47 10.37
10/20/2020 4:30:00 PM 11.84 53.312 0.114 7.46 6.57 10.34
10/20/2020 4:45:00 PM 11.86 53.348 0.114 7.48 6.52 10.43
10/20/2020 5:00:00 PM 11.87 53.366 0.114 7.48 6.98 10.44
10/20/2020 5:15:00 PM 11.88 53.384 0.114 7.49 6.06 10.44
10/20/2020 5:30:00 PM 11.89 53.402 0.113 7.47 8.9 10.4
10/20/2020 5:45:00 PM 11.89 53.402 0.113 7.47 6.32 10.37
10/20/2020 6:00:00 PM 11.89 53.402 0.113 7.48 6.27 10.38
10/20/2020 6:15:00 PM 11.88 53.384 0.113 7.44 7.11 10.26
10/20/2020 6:30:00 PM 11.88 53.384 0.112 7.46 6.85 10.37
10/20/2020 6:45:00 PM 11.87 53.366 0.112 7.46 6.49 10.36
10/20/2020 7:00:00 PM 11.86 53.348 0.111 7.46 6.06 10.35
10/20/2020 7:15:00 PM 11.85 53.33 0.111 7.44 6.03 10.31
10/20/2020 7:30:00 PM 11.83 53.294 0.111 7.45 11.7 10.35
10/20/2020 7:45:00 PM 11.82 53.276 0.111 7.45 6.2 10.36
10/20/2020 8:00:00 PM 11.81 53.258 0.11 7.45 5.56 10.38
10/20/2020 8:15:00 PM 11.79 53.222 0.11 7.45 6.34 10.38
10/20/2020 8:30:00 PM 11.78 53.204 0.11 7.45 5.48 10.36
10/20/2020 8:45:00 PM 11.76 53.168 0.11 7.45 6.13 10.39
10/20/2020 9:00:00 PM 11.74 53.132 0.11 7.45 6.03 10.4
10/20/2020 9:15:00 PM 11.73 53.114 0.11 7.45 5.18 10.41
10/20/2020 9:30:00 PM 11.72 53.096 0.11 7.44 5.45 10.38
10/20/2020 9:45:00 PM 11.7 53.06 0.11 7.45 5.3 10.41
10/20/2020 10:00:00 PM 11.69 53.042 0.11 7.45 4.84 10.39
10/20/2020 10:15:00 PM 11.67 53.006 0.11 7.44 5.05 10.39
10/20/2020 10:30:00 PM 11.66 52.988 0.11 7.43 4.61 10.37
10/20/2020 10:45:00 PM 11.64 52.952 0.11 7.44 4.91 10.41
10/20/2020 11:00:00 PM 11.63 52.934 0.11 7.43 5.1 10.37
10/20/2020 11:15:00 PM 11.62 52.916 0.11 7.43 4.53 10.38
10/20/2020 11:30:00 PM 11.61 52.898 0.11 7.44 4.85 10.43
10/20/2020 11:45:00 PM 11.59 52.862 0.11 7.44 7.83 10.45
10/21/2020 12:00:00 AM 11.58 52.844 0.11 7.44 5.65 10.44
10/21/2020 12:15:00 AM 11.58 52.844 0.11 7.43 4.31 10.4
10/21/2020 12:30:00 AM 11.56 52.808 0.11 7.43 4.97 10.43
10/21/2020 12:45:00 AM 11.56 52.808 0.11 7.43 5.1 10.37
10/21/2020 1:00:00 AM 11.55 52.79 0.11 7.44 4.22 10.45
10/21/2020 1:15:00 AM 11.54 52.772 0.11 7.44 4.29 10.45
10/21/2020 1:30:00 AM 11.53 52.754 0.109 7.44 4.53 10.47
10/21/2020 1:45:00 AM 11.53 52.754 0.109 7.42 4.15 10.41
10/21/2020 2:00:00 AM 11.52 52.736 0.109 7.43 4.23 10.44
10/21/2020 2:15:00 AM 11.51 52.718 0.109 7.43 4.33 10.45
10/21/2020 2:30:00 AM 11.5 52.7 0.109 7.43 4.47 10.45
10/21/2020 2:45:00 AM 11.49 52.682 0.109 7.44 4.41 10.47
10/21/2020 3:00:00 AM 11.49 52.682 0.109 7.43 4.05 10.43
10/21/2020 3:15:00 AM 11.48 52.664 0.109 7.43 3.9 10.42
10/21/2020 3:30:00 AM 11.48 52.664 0.109 7.43 3.93 10.45
10/21/2020 3:45:00 AM 11.47 52.646 0.108 7.42 4.01 10.44
10/21/2020 4:00:00 AM 11.46 52.628 0.108 7.43 3.79 10.45
10/21/2020 4:15:00 AM 11.45 52.61 0.108 7.42 3.61 10.43
10/21/2020 4:30:00 AM 11.44 52.592 0.108 7.42 3.83 10.44
10/21/2020 4:45:00 AM 11.44 52.592 0.108 7.42 3.69 10.43
10/21/2020 5:00:00 AM 11.43 52.574 0.108 7.42 3.68 10.46
10/21/2020 5:15:00 AM 11.43 52.574 0.108 7.42 3.97 10.41
10/21/2020 5:30:00 AM 11.42 52.556 0.108 7.42 7.31 10.43
10/21/2020 5:45:00 AM 11.41 52.538 0.108 7.42 4.66 10.44
10/21/2020 6:00:00 AM 11.41 52.538 0.108 7.42 3.67 10.43
10/21/2020 6:15:00 AM 11.4 52.52 0.108 7.41 3.45 10.42
10/21/2020 6:30:00 AM 11.38 52.484 0.108 7.41 4.89 10.41
10/21/2020 6:45:00 AM 11.36 52.448 0.108 7.4 3.29 10.41
10/21/2020 7:00:00 AM 11.35 52.43 0.108 7.39 3.95 10.34
10/21/2020 7:15:00 AM 11.33 52.394 0.108 7.41 5.03 10.45
10/21/2020 7:30:00 AM 11.32 52.376 0.108 7.4 5.66 10.42
10/21/2020 7:45:00 AM 11.32 52.376 0.108 7.4 3.85 10.44
10/21/2020 8:00:00 AM 11.3 52.34 0.108 7.41 4.36 10.45
10/21/2020 8:15:00 AM 11.3 52.34 0.108 7.41 4.99 10.45
10/21/2020 8:30:00 AM 11.31 52.358 0.108 7.41 3.89 10.45
10/21/2020 8:45:00 AM 11.32 52.376 0.107 7.43 4.5 10.56
10/21/2020 9:00:00 AM 11.33 52.394 0.107 7.43 4.11 10.55
10/21/2020 9:15:00 AM 11.35 52.43 0.107 7.43 3.78 10.48
10/21/2020 9:30:00 AM 11.38 52.484 0.107 7.44 3.53 10.59
10/21/2020 9:45:00 AM 11.41 52.538 0.107 7.45 3.37 10.62
10/21/2020 10:00:00 AM 11.45 52.61 0.107 7.46 3.26 10.64
10/21/2020 10:15:00 AM 11.49 52.682 0.107 7.45 3.85 10.56
10/21/2020 10:30:00 AM 11.56 52.808 0.107 7.46 3.53 10.58
10/21/2020 10:45:00 AM 11.68 53.024 0.107 7.46 3.93 10.54
10/21/2020 11:00:00 AM 11.84 53.312 0.108 7.45 3.39 10.52
10/21/2020 11:15:00 AM 12.01 53.618 0.108 7.46 3.14 10.48
10/21/2020 11:30:00 AM 12.11 53.798 0.108 7.43 3.07 10.36
10/21/2020 11:45:00 AM 12.31 54.158 0.108 7.45 3.56 10.39
10/21/2020 12:00:00 PM 12.48 54.464 0.108 7.45 3.49 10.32
10/21/2020 12:15:00 PM 12.71 54.878 0.108 7.48 5.2 10.39
10/21/2020 12:30:00 PM 12.9 55.22 0.108 7.5 3.34 10.43
10/21/2020 12:45:00 PM 13 55.4 0.109 7.46 3.27 10.27
10/21/2020 1:00:00 PM 13.22 55.796 0.11 7.47 3.75 10.24
10/21/2020 1:15:00 PM 13.42 56.156 0.109 7.46 4.54 10.17
10/21/2020 1:30:00 PM 13.71 56.678 0.11 7.5 3.4 10.15
10/21/2020 1:45:00 PM 13.88 56.984 0.111 7.47 4.43 10.11
10/21/2020 2:00:00 PM 13.91 57.038 0.111 7.38 5.75 9.78
10/21/2020 2:15:00 PM 14.24 57.632 0.111 7.41 5.44 9.92
10/21/2020 2:30:00 PM 14.47 58.046 0.111 7.39 3.63 9.8
10/21/2020 2:45:00 PM 14.59 58.262 0.11 7.4 3.28 9.64
10/21/2020 3:00:00 PM 14.78 58.604 0.111 7.41 3.18 9.63
10/21/2020 3:15:00 PM 14.86 58.748 0.112 7.39 4.05 9.53
10/21/2020 3:30:00 PM 14.95 58.91 0.111 7.37 3.42 9.41
10/21/2020 3:45:00 PM 15.03 59.054 0.111 7.39 3.21 9.42
10/21/2020 4:00:00 PM 15.09 59.162 0.111 7.4 4.76 9.36
10/21/2020 4:15:00 PM 15.12 59.216 0.111 7.37 3.6 9.22
10/21/2020 4:30:00 PM 15.13 59.234 0.112 7.34 6.66 9.23
10/21/2020 4:45:00 PM 15.23 59.414 0.111 7.41 3.68 9.4
10/21/2020 5:00:00 PM 15.26 59.468 0.11 7.44 3.08 9.48
10/21/2020 5:15:00 PM 15.23 59.414 0.111 7.41 3.04 9.37
10/21/2020 5:30:00 PM 15.18 59.324 0.112 7.38 3.5 9.25
10/21/2020 5:45:00 PM 15.16 59.288 0.111 7.39 3.41 9.27
10/21/2020 6:00:00 PM 15.12 59.216 0.112 7.35 3.62 9.19
10/21/2020 6:15:00 PM 15.1 59.18 0.111 7.37 4.07 9.31
10/21/2020 6:30:00 PM 15.04 59.072 0.111 7.4 4.03 9.32
10/21/2020 6:45:00 PM 14.98 58.964 0.11 7.41 2.98 9.42
10/21/2020 7:00:00 PM 14.9 58.82 0.111 7.37 4.16 9.3
10/21/2020 7:15:00 PM 14.85 58.73 0.111 7.35 5.78 9.21
10/21/2020 7:30:00 PM 14.77 58.586 0.111 7.38 3.2 9.38
10/21/2020 7:45:00 PM 14.73 58.514 0.111 7.36 3.28 9.27
10/21/2020 8:00:00 PM 14.69 58.442 0.112 7.33 3.39 9.18
10/21/2020 8:15:00 PM 14.65 58.37 0.111 7.36 3.44 9.38
10/21/2020 8:30:00 PM 14.61 58.298 0.112 7.35 3.19 9.42
10/21/2020 8:45:00 PM 14.57 58.226 0.112 7.34 3.63 9.38
10/21/2020 9:00:00 PM 14.54 58.172 0.112 7.35 3.35 9.39
10/21/2020 9:15:00 PM 14.49 58.082 0.112 7.34 4.99 9.44
10/21/2020 9:30:00 PM 14.45 58.01 0.112 7.32 3.2 9.43
10/21/2020 9:45:00 PM 14.39 57.902 0.112 7.31 3.33 9.41
10/21/2020 10:00:00 PM 14.34 57.812 0.112 7.32 3.47 9.38
10/21/2020 10:15:00 PM 14.29 57.722 0.112 7.3 2.78 9.31
10/21/2020 10:30:00 PM 14.26 57.668 0.112 7.3 2.76 9.25
10/21/2020 10:45:00 PM 14.21 57.578 0.112 7.31 3.03 9.36
10/21/2020 11:00:00 PM 14.18 57.524 0.112 7.3 2.86 9.35
10/21/2020 11:15:00 PM 14.15 57.47 0.112 7.3 3.03 9.39
10/21/2020 11:30:00 PM 14.11 57.398 0.112 7.32 3.15 9.54
10/21/2020 11:45:00 PM 14.09 57.362 0.112 7.31 2.8 9.55
10/22/2020 12:00:00 AM 14.07 57.326 0.112 7.3 2.94 9.51
10/22/2020 12:15:00 AM 14.05 57.29 0.113 7.3 2.78 9.49
10/22/2020 12:30:00 AM 14.04 57.272 0.112 7.32 2.89 9.55
10/22/2020 12:45:00 AM 14.02 57.236 0.113 7.31 2.77 9.55
10/22/2020 1:00:00 AM 14.01 57.218 0.112 7.32 2.6 9.51
10/22/2020 1:15:00 AM 13.99 57.182 0.113 7.32 2.85 9.53
10/22/2020 1:30:00 AM 13.98 57.164 0.113 7.33 2.78 9.59
10/22/2020 1:45:00 AM 13.97 57.146 0.113 7.33 2.84 9.59
10/22/2020 2:00:00 AM 13.95 57.11 0.113 7.34 3.24 9.54
10/22/2020 2:15:00 AM 13.94 57.092 0.113 7.33 9.75 9.47
10/22/2020 2:30:00 AM 13.93 57.074 0.113 7.35 2.68 9.62
10/22/2020 2:45:00 AM 13.91 57.038 0.113 7.36 6.14 9.69
10/22/2020 3:00:00 AM 13.9 57.02 0.113 7.34 2.54 9.64
10/22/2020 3:15:00 AM 13.89 57.002 0.113 7.36 2.56 9.66
10/22/2020 3:30:00 AM 13.88 56.984 0.113 7.36 2.6 9.66
10/22/2020 3:45:00 AM 13.87 56.966 0.114 7.31 2.91 9.56
10/22/2020 4:00:00 AM 13.86 56.948 0.114 7.33 2.62 9.55
10/22/2020 4:15:00 AM 13.85 56.93 0.113 7.34 2.71 9.63
10/22/2020 4:30:00 AM 13.83 56.894 0.114 7.34 3.02 9.58
10/22/2020 4:45:00 AM 13.82 56.876 0.114 7.31 2.6 9.57
10/22/2020 5:00:00 AM 13.81 56.858 0.115 7.26 2.67 9.37
10/22/2020 5:15:00 AM 13.8 56.84 0.115 7.25 2.64 9.33
10/22/2020 5:30:00 AM 13.79 56.822 0.115 7.26 3.06 9.39
10/22/2020 5:45:00 AM 13.77 56.786 0.117 7.2 3.67 9.16
10/22/2020 6:00:00 AM 13.76 56.768 0.117 7.21 4.08 9.22
10/22/2020 6:15:00 AM 13.75 56.75 0.116 7.25 3.66 9.37
10/22/2020 6:30:00 AM 13.74 56.732 0.116 7.24 2.51 9.32
10/22/2020 6:45:00 AM 13.73 56.714 0.116 7.27 2.63 9.39
10/22/2020 7:00:00 AM 13.72 56.696 0.116 7.27 3.13 9.43
10/22/2020 7:15:00 AM 13.71 56.678 0.115 7.27 2.98 9.39
10/22/2020 7:30:00 AM 13.7 56.66 0.115 7.28 2.4 9.46
10/22/2020 7:45:00 AM 13.69 56.642 0.115 7.26 3.07 9.37
10/22/2020 8:00:00 AM 13.68 56.624 0.116 7.26 3.96 9.37
10/22/2020 8:15:00 AM 13.68 56.624 0.116 7.24 2.87 9.34
10/22/2020 8:30:00 AM 13.68 56.624 0.116 7.22 3.95 9.35
10/22/2020 8:45:00 AM 13.68 56.624 0.117 7.18 5.65 9.18
10/22/2020 9:00:00 AM 13.69 56.642 0.116 7.22 3.13 9.18
10/22/2020 9:15:00 AM 13.71 56.678 0.116 7.23 2.67 9.22
10/22/2020 9:30:00 AM 13.74 56.732 0.116 7.23 2.44 9.25
10/22/2020 9:45:00 AM 13.78 56.804 0.116 7.21 2.66 9.23
10/22/2020 10:00:00 AM 13.83 56.894 0.116 7.26 3.08 9.28
10/22/2020 10:15:00 AM 13.88 56.984 0.116 7.26 3.13 9.36
10/22/2020 10:30:00 AM 13.94 57.092 0.116 7.26 2.81 9.37
10/22/2020 10:45:00 AM 14.03 57.254 0.116 7.28 2.73 9.47
10/22/2020 11:00:00 AM 14.17 57.506 0.115 7.32 2.88 9.47
10/22/2020 11:15:00 AM 14.26 57.668 0.116 7.28 2.54 9.45
10/22/2020 11:30:00 AM 14.4 57.92 0.116 7.28 4.01 9.41
10/22/2020 11:45:00 AM 14.53 58.154 0.117 7.25 2.8 9.39
10/22/2020 12:00:00 PM 14.73 58.514 0.116 7.31 2.57 9.38
10/22/2020 12:15:00 PM 14.91 58.838 0.115 7.33 2.46 9.38
10/22/2020 12:30:00 PM 15.11 59.198 0.116 7.32 2.72 9.26
10/22/2020 12:45:00 PM 15.45 59.81 0.115 7.37 2.41 9.53
10/22/2020 1:00:00 PM 15.66 60.188 0.115 7.36 2.81 9.43
10/22/2020 1:15:00 PM 15.86 60.548 0.115 7.36 2.49 9.28
10/22/2020 1:30:00 PM 16.18 61.124 0.115 7.37 2.6 9.28
10/22/2020 1:45:00 PM 16.41 61.538 0.115 7.37 2.78 9.23
10/22/2020 2:00:00 PM 16.58 61.844 0.116 7.35 2.45 9.08
10/22/2020 2:15:00 PM 16.84 62.312 0.116 7.34 3.24 8.9
10/22/2020 2:30:00 PM 17.03 62.654 0.116 7.33 4.86 8.81
10/22/2020 2:45:00 PM 17.21 62.978 0.116 7.3 4.71 8.7
10/22/2020 3:00:00 PM 17.42 63.356 0.116 7.33 3.85 8.7
10/22/2020 3:15:00 PM 17.59 63.662 0.116 7.34 2.83 8.63
10/22/2020 3:30:00 PM 17.78 64.004 0.116 7.36 2.51 8.66
10/22/2020 3:45:00 PM 17.99 64.382 0.116 7.36 2.69 8.6
10/22/2020 4:00:00 PM 17.96 64.328 0.117 7.3 3.01 8.34
10/22/2020 4:15:00 PM 18.07 64.526 0.117 7.32 3.32 8.32
10/22/2020 4:30:00 PM 18.13 64.634 0.117 7.36 3.01 8.34
10/22/2020 4:45:00 PM 18.05 64.49 0.118 7.3 3.53 8.09
10/22/2020 5:00:00 PM 18.03 64.454 0.118 7.28 3.47 8.01
10/22/2020 5:15:00 PM 18.05 64.49 0.117 7.34 3.42 8.17
10/22/2020 5:30:00 PM 17.97 64.346 0.119 7.32 3.21 8.11
10/22/2020 5:45:00 PM 17.88 64.184 0.119 7.29 3.16 8.1
10/22/2020 6:00:00 PM 17.82 64.076 0.119 7.29 4.26 8.09
10/22/2020 6:15:00 PM 17.76 63.968 0.119 7.31 3.34 8.14
10/22/2020 6:30:00 PM 17.69 63.842 0.119 7.29 6.34 8.06
10/22/2020 6:45:00 PM 17.61 63.698 0.12 7.27 5.54 8.01
10/22/2020 7:00:00 PM 17.52 63.536 0.119 7.34 4.1 8.21
10/22/2020 7:15:00 PM 17.45 63.41 0.119 7.31 3.47 8.2
10/22/2020 7:30:00 PM 17.36 63.248 0.12 7.27 3.27 8.13
10/22/2020 7:45:00 PM 17.26 63.068 0.12 7.26 3.84 8.08
10/22/2020 8:00:00 PM 17.16 62.888 0.119 7.29 4.92 8.23
10/22/2020 8:15:00 PM 17.09 62.762 0.119 7.27 3.13 8.18
10/22/2020 8:30:00 PM 16.95 62.51 0.12 7.26 3.1 8.25
10/22/2020 8:45:00 PM 16.83 62.294 0.119 7.29 2.63 8.34
10/22/2020 9:00:00 PM 16.69 62.042 0.119 7.3 3.24 8.4
10/22/2020 9:15:00 PM 16.6 61.88 0.119 7.29 2.84 8.42
10/22/2020 9:30:00 PM 16.42 61.556 0.119 7.34 2.5 8.57
10/22/2020 9:45:00 PM 16.25 61.25 0.118 7.38 2.61 8.89
10/22/2020 10:00:00 PM 16.13 61.034 0.118 7.38 2.5 8.93
10/22/2020 10:15:00 PM 16.04 60.872 0.119 7.35 2.56 8.82
10/22/2020 10:30:00 PM 15.91 60.638 0.119 7.36 2.81 8.84
10/22/2020 10:45:00 PM 15.8 60.44 0.119 7.36 2.55 8.91
10/22/2020 11:00:00 PM 15.69 60.242 0.119 7.36 2.69 8.88
10/22/2020 11:15:00 PM 15.57 60.026 0.119 7.37 2.72 8.99
10/22/2020 11:30:00 PM 15.45 59.81 0.119 7.37 2.55 9.02
10/22/2020 11:45:00 PM 15.34 59.612 0.119 7.37 2.63 9.09
10/23/2020 12:00:00 AM 15.25 59.45 0.119 7.37 2.66 9.07
10/23/2020 12:15:00 AM 15.15 59.27 0.119 7.37 2.51 9.08
10/23/2020 12:30:00 AM 15.07 59.126 0.12 7.35 2.43 9.06
10/23/2020 12:45:00 AM 14.96 58.928 0.119 7.37 2.46 9.15
10/23/2020 1:00:00 AM 14.88 58.784 0.12 7.37 2.56 9.14
10/23/2020 1:15:00 AM 14.78 58.604 0.12 7.37 2.44 9.16
10/23/2020 1:30:00 AM 14.73 58.514 0.12 7.34 2.5 9.12
10/23/2020 1:45:00 AM 14.64 58.352 0.12 7.35 3.55 9.14
10/23/2020 2:00:00 AM 14.55 58.19 0.12 7.36 2.83 9.16
10/23/2020 2:15:00 AM 14.48 58.064 0.12 7.35 2.82 9.15
10/23/2020 2:30:00 AM 14.36 57.848 0.12 7.36 4.71 9.25
10/23/2020 2:45:00 AM 14.28 57.704 0.12 7.37 2.84 9.27
10/23/2020 3:00:00 AM 14.21 57.578 0.121 7.35 2.8 9.25
10/23/2020 3:15:00 AM 14.12 57.416 0.12 7.36 2.74 9.31
10/23/2020 3:30:00 AM 14.02 57.236 0.12 7.37 2.5 9.38
10/23/2020 3:45:00 AM 13.94 57.092 0.121 7.38 2.55 9.44
10/23/2020 4:00:00 AM 13.9 57.02 0.12 7.37 2.51 9.37
10/23/2020 4:15:00 AM 13.83 56.894 0.121 7.38 2.47 9.39
10/23/2020 4:30:00 AM 13.77 56.786 0.121 7.38 2.88 9.44
10/23/2020 4:45:00 AM 13.71 56.678 0.121 7.39 2.48 9.5
10/23/2020 5:00:00 AM 13.67 56.606 0.121 7.38 2.33 9.44
10/23/2020 5:15:00 AM 13.63 56.534 0.121 7.36 5.11 9.43
10/23/2020 5:30:00 AM 13.59 56.462 0.121 7.37 2.53 9.48
10/23/2020 5:45:00 AM 13.56 56.408 0.121 7.35 2.58 9.43
10/23/2020 6:00:00 AM 13.53 56.354 0.122 7.35 2.29 9.43
10/23/2020 6:15:00 AM 13.45 56.21 0.122 7.36 2.36 9.47
10/23/2020 6:30:00 AM 13.39 56.102 0.122 7.36 3.14 9.5
10/23/2020 6:45:00 AM 13.31 55.958 0.121 7.39 2.32 9.61
10/23/2020 7:00:00 AM 13.25 55.85 0.122 7.38 2.5 9.58
10/23/2020 7:15:00 AM 13.18 55.724 0.121 7.38 2.41 9.63
10/23/2020 7:30:00 AM 13.11 55.598 0.122 7.38 2.26 9.62
10/23/2020 7:45:00 AM 13.05 55.49 0.122 7.37 2.24 9.65
10/23/2020 8:00:00 AM 12.99 55.382 0.122 7.39 2.37 9.7
10/23/2020 8:15:00 AM 12.92 55.256 0.121 7.4 2.55 9.77
10/23/2020 8:30:00 AM 12.89 55.202 0.122 7.4 2.24 9.8
10/23/2020 8:45:00 AM 12.87 55.166 0.122 7.38 2.35 9.77
10/23/2020 9:00:00 AM 12.83 55.094 0.122 7.41 2.2 9.88
10/23/2020 9:15:00 AM 12.86 55.148 0.122 7.4 2.31 9.85
10/23/2020 9:30:00 AM 12.89 55.202 0.122 7.38 4.65 9.83
10/23/2020 9:45:00 AM 12.93 55.274 0.123 7.39 2.77 9.83
10/23/2020 10:00:00 AM 12.97 55.346 0.124 7.34 2.36 9.63
10/23/2020 10:15:00 AM 13.02 55.436 0.124 7.39 2.14 9.79
10/23/2020 10:30:00 AM 13.07 55.526 0.124 7.36 2.16 9.68
10/23/2020 10:45:00 AM 13.15 55.67 0.125 7.31 2.33 9.42
10/23/2020 11:00:00 AM 13.2 55.76 0.125 7.29 2.42 9.29
10/23/2020 11:15:00 AM 13.28 55.904 0.124 7.28 2.33 9.31
10/23/2020 11:30:00 AM 13.4 56.12 0.124 7.3 2.25 9.4
10/23/2020 11:45:00 AM 13.59 56.462 0.123 7.29 2.6 9.48
10/23/2020 12:00:00 PM 13.81 56.858 0.122 7.35 2.22 9.71
10/23/2020 12:15:00 PM 13.95 57.11 0.122 7.34 2.17 9.65
10/23/2020 12:30:00 PM 14.28 57.704 0.122 7.38 2.18 9.72
10/23/2020 12:45:00 PM 14.56 58.208 0.122 7.41 2.14 9.79
10/23/2020 1:00:00 PM 14.79 58.622 0.121 7.45 2.01 9.76
10/23/2020 1:15:00 PM 15.05 59.09 0.121 7.47 1.98 9.79
10/23/2020 1:30:00 PM 15.22 59.396 0.122 7.44 2.15 9.62
10/23/2020 1:45:00 PM 15.48 59.864 0.121 7.48 2.42 9.66
10/23/2020 2:00:00 PM 15.75 60.35 0.121 7.49 2.51 9.62
10/23/2020 2:15:00 PM 15.98 60.764 0.121 7.48 2.21 9.58
10/23/2020 2:30:00 PM 16.23 61.214 0.121 7.47 2.24 9.4
10/23/2020 2:45:00 PM 16.49 61.682 0.121 7.44 2.25 9.31
10/23/2020 3:00:00 PM 16.78 62.204 0.121 7.47 2.01 9.32
10/23/2020 3:15:00 PM 17 62.6 0.122 7.47 2.01 9.19
10/23/2020 3:30:00 PM 17.24 63.032 0.122 7.49 2.01 9.15
10/23/2020 3:45:00 PM 17.35 63.23 0.122 7.46 2.15 9.01
10/23/2020 4:00:00 PM 17.42 63.356 0.122 7.44 2.21 8.86
10/23/2020 4:15:00 PM 17.58 63.644 0.122 7.44 5.1 8.81
10/23/2020 4:30:00 PM 17.51 63.518 0.122 7.39 2.23 8.59
10/23/2020 4:45:00 PM 17.5 63.5 0.123 7.35 2.33 8.45
10/23/2020 5:00:00 PM 17.44 63.392 0.125 7.31 2.54 8.19
10/23/2020 5:15:00 PM 17.44 63.392 0.124 7.31 2.39 8.14
10/23/2020 5:30:00 PM 17.38 63.284 0.124 7.27 2.38 7.94
10/23/2020 5:45:00 PM 17.3 63.14 0.125 7.25 2.92 7.87
10/23/2020 6:00:00 PM 17.31 63.158 0.124 7.32 2.17 8.15
10/23/2020 6:15:00 PM 17.25 63.05 0.125 7.3 2.51 8.04
10/23/2020 6:30:00 PM 17.19 62.942 0.125 7.29 2.89 8.01
10/23/2020 6:45:00 PM 17.1 62.78 0.126 7.26 2.73 7.89
10/23/2020 7:00:00 PM 17.07 62.726 0.124 7.31 5.69 8.17
10/23/2020 7:15:00 PM 17.02 62.636 0.125 7.29 9.19 8.06
10/23/2020 7:30:00 PM 16.96 62.528 0.126 7.3 3.36 8.11
10/23/2020 7:45:00 PM 16.91 62.438 0.126 7.27 3.42 7.95
10/23/2020 8:00:00 PM 16.86 62.348 0.127 7.23 3.88 7.82
10/23/2020 8:15:00 PM 16.81 62.258 0.126 7.26 3.11 7.91
10/23/2020 8:30:00 PM 16.76 62.168 0.127 7.26 3.68 7.91
10/23/2020 8:45:00 PM 16.71 62.078 0.126 7.27 2.36 8.03
10/23/2020 9:00:00 PM 16.67 62.006 0.126 7.24 2.71 7.99
10/23/2020 9:15:00 PM 16.61 61.898 0.126 7.27 2.59 8.13
10/23/2020 9:30:00 PM 16.57 61.826 0.127 7.24 2.72 7.97
10/23/2020 9:45:00 PM 16.51 61.718 0.127 7.24 2.54 7.93
10/23/2020 10:00:00 PM 16.45 61.61 0.126 7.25 2.2 8
10/23/2020 10:15:00 PM 16.4 61.52 0.126 7.28 3.04 8.2
10/23/2020 10:30:00 PM 16.36 61.448 0.127 7.23 2.53 8.05
10/23/2020 10:45:00 PM 16.32 61.376 0.127 7.26 2.75 8.1
10/23/2020 11:00:00 PM 16.26 61.268 0.127 7.25 2.49 8.12
10/23/2020 11:15:00 PM 16.18 61.124 0.127 7.27 2.4 8.18
10/23/2020 11:30:00 PM 16.13 61.034 0.127 7.27 2.5 8.23
10/23/2020 11:45:00 PM 16.08 60.944 0.128 7.22 5.95 8.01
10/24/2020 12:00:00 AM 16.02 60.836 0.128 7.26 2.69 8.19
10/24/2020 12:15:00 AM 15.97 60.746 0.129 7.24 3.75 8.16
10/24/2020 12:30:00 AM 15.92 60.656 0.127 7.28 2.44 8.34
10/24/2020 12:45:00 AM 15.89 60.602 0.128 7.26 2.27 8.23
10/24/2020 1:00:00 AM 15.83 60.494 0.127 7.33 2.34 8.53
10/24/2020 1:15:00 AM 15.82 60.476 0.127 7.28 2.48 8.33
10/24/2020 1:30:00 AM 15.78 60.404 0.127 7.26 3.22 8.24
10/24/2020 1:45:00 AM 15.75 60.35 0.127 7.28 2.4 8.4
10/24/2020 2:00:00 AM 15.71 60.278 0.127 7.27 2.69 8.35
10/24/2020 2:15:00 AM 15.68 60.224 0.127 7.28 2.82 8.39
10/24/2020 2:30:00 AM 15.63 60.134 0.128 7.27 23.13 8.39
10/24/2020 2:45:00 AM 15.6 60.08 0.128 7.26 2.63 8.4
10/24/2020 3:00:00 AM 15.56 60.008 0.128 7.25 3.02 8.33
10/24/2020 3:15:00 AM 15.53 59.954 0.127 7.25 2.59 8.31
10/24/2020 3:30:00 AM 15.49 59.882 0.127 7.26 2.34 8.4
10/24/2020 3:45:00 AM 15.45 59.81 0.128 7.26 2.44 8.35
10/24/2020 4:00:00 AM 15.42 59.756 0.128 7.24 2.34 8.31
10/24/2020 4:15:00 AM 15.38 59.684 0.127 7.26 2.39 8.38
10/24/2020 4:30:00 AM 15.35 59.63 0.128 7.24 2.46 8.36
10/24/2020 4:45:00 AM 15.32 59.576 0.128 7.24 2.66 8.32
10/24/2020 5:00:00 AM 15.29 59.522 0.128 7.25 3.01 8.36
10/24/2020 5:15:00 AM 15.26 59.468 0.128 7.25 2.41 8.44
10/24/2020 5:30:00 AM 15.23 59.414 0.128 7.27 2.54 8.47
10/24/2020 5:45:00 AM 15.19 59.342 0.128 7.27 2.26 8.51
10/24/2020 6:00:00 AM 15.12 59.216 0.127 7.29 2.22 8.66
10/24/2020 6:15:00 AM 15.08 59.144 0.127 7.29 2.67 8.62
10/24/2020 6:30:00 AM 15 59 0.128 7.28 2.51 8.59
10/24/2020 6:45:00 AM 14.93 58.874 0.128 7.28 2.24 8.6
10/24/2020 7:00:00 AM 14.86 58.748 0.128 7.31 2.62 8.68
10/24/2020 7:15:00 AM 14.82 58.676 0.128 7.29 2.46 8.58
10/24/2020 7:30:00 AM 14.77 58.586 0.128 7.27 2.57 8.56
10/24/2020 7:45:00 AM 14.65 58.37 0.128 7.33 2.32 8.83
10/24/2020 8:00:00 AM 14.59 58.262 0.128 7.29 3.85 8.74
10/24/2020 8:15:00 AM 14.53 58.154 0.129 7.29 2.26 8.77
10/24/2020 8:30:00 AM 14.45 58.01 0.128 7.32 2.21 8.85
10/24/2020 8:45:00 AM 14.4 57.92 0.128 7.34 2.14 8.91
10/24/2020 9:00:00 AM 14.34 57.812 0.128 7.36 2.04 9.04
10/24/2020 9:15:00 AM 14.3 57.74 0.128 7.36 2.11 9.06
10/24/2020 9:30:00 AM 14.25 57.65 0.128 7.37 2.08 9.13
10/24/2020 9:45:00 AM 14.24 57.632 0.129 7.34 2.39 9.01
10/24/2020 10:00:00 AM 14.17 57.506 0.128 7.36 2.04 9.15
10/24/2020 10:15:00 AM 14.12 57.416 0.128 7.36 2.07 9.18
10/24/2020 10:30:00 AM 14.06 57.308 0.128 7.36 2.11 9.23
10/24/2020 10:45:00 AM 14.02 57.236 0.128 7.39 2.12 9.33
10/24/2020 11:00:00 AM 14.01 57.218 0.128 7.36 2.21 9.29
10/24/2020 11:15:00 AM 13.96 57.128 0.127 7.43 2.23 9.52
10/24/2020 11:30:00 AM 13.95 57.11 0.128 7.42 2.14 9.5
10/24/2020 11:45:00 AM 13.94 57.092 0.128 7.42 2.15 9.5
10/24/2020 12:00:00 PM 13.95 57.11 0.128 7.37 2.31 9.34
10/24/2020 12:15:00 PM 13.94 57.092 0.128 7.36 2.46 9.35
10/24/2020 12:30:00 PM 13.95 57.11 0.128 7.34 2.15 9.33
10/24/2020 12:45:00 PM 13.95 57.11 0.128 7.34 2.34 9.45
10/24/2020 1:00:00 PM 13.96 57.128 0.128 7.38 2.39 9.45
10/24/2020 1:15:00 PM 13.98 57.164 0.128 7.41 3.02 9.64
10/24/2020 1:30:00 PM 14.01 57.218 0.127 7.46 2.13 9.75
10/24/2020 1:45:00 PM 14.04 57.272 0.128 7.45 2.26 9.63
10/24/2020 2:00:00 PM 14.08 57.344 0.127 7.45 2.26 9.72
10/24/2020 2:15:00 PM 14.13 57.434 0.127 7.45 2.15 9.7
10/24/2020 2:30:00 PM 14.14 57.452 0.128 7.44 2.34 9.63
10/24/2020 2:45:00 PM 14.15 57.47 0.128 7.36 2.09 9.29
10/24/2020 3:00:00 PM 14.15 57.47 0.128 7.38 2.2 9.34
10/24/2020 3:15:00 PM 14.14 57.452 0.127 7.38 2.54 9.41
10/24/2020 3:30:00 PM 14.12 57.416 0.128 7.34 2.5 9.24
10/24/2020 3:45:00 PM 14.1 57.38 0.128 7.39 2.3 9.39
10/24/2020 4:00:00 PM 14.08 57.344 0.127 7.36 3.68 9.12
10/24/2020 4:15:00 PM 14.06 57.308 0.127 7.4 2.26 9.49
10/24/2020 4:30:00 PM 14.06 57.308 0.127 7.37 2.86 9.35
10/24/2020 4:45:00 PM 14.03 57.254 0.127 7.34 2.77 9.12
10/24/2020 5:00:00 PM 13.97 57.146 0.127 7.35 2.43 9.25
10/24/2020 5:15:00 PM 13.92 57.056 0.127 7.37 2.31 9.26
10/24/2020 5:30:00 PM 13.8 56.84 0.126 7.44 2.15 9.56
10/24/2020 5:45:00 PM 13.69 56.642 0.126 7.45 2.2 9.59
10/24/2020 6:00:00 PM 13.53 56.354 0.126 7.47 2.7 9.65
10/24/2020 6:15:00 PM 13.31 55.958 0.127 7.48 2.68 9.72
10/24/2020 6:30:00 PM 13.17 55.706 0.126 7.47 2.4 9.68
10/24/2020 6:45:00 PM 13 55.4 0.126 7.45 2.84 9.64
10/24/2020 7:00:00 PM 12.88 55.184 0.126 7.43 4.86 9.6
10/24/2020 7:15:00 PM 12.75 54.95 0.127 7.43 4.43 9.61
10/24/2020 7:30:00 PM 12.67 54.806 0.127 7.42 2.74 9.6
10/24/2020 7:45:00 PM 12.6 54.68 0.127 7.41 2.42 9.6
10/24/2020 8:00:00 PM 12.52 54.536 0.127 7.39 2.66 9.58
10/24/2020 8:15:00 PM 12.48 54.464 0.127 7.4 4.63 9.57
10/24/2020 8:30:00 PM 12.43 54.374 0.127 7.39 2.79 9.58
10/24/2020 8:45:00 PM 12.38 54.284 0.127 7.39 2.23 9.61
10/24/2020 9:00:00 PM 12.33 54.194 0.127 7.4 2.27 9.63
10/24/2020 9:15:00 PM 12.3 54.14 0.128 7.39 2.46 9.64
10/24/2020 9:30:00 PM 12.22 53.996 0.128 7.39 2.83 9.63
10/24/2020 9:45:00 PM 12.19 53.942 0.128 7.38 3.04 9.65
10/24/2020 10:00:00 PM 12.14 53.852 0.128 7.36 3.15 9.6
10/24/2020 10:15:00 PM 12.08 53.744 0.128 7.37 2.32 9.65
10/24/2020 10:30:00 PM 12.01 53.618 0.128 7.39 2.22 9.7
10/24/2020 10:45:00 PM 11.95 53.51 0.128 7.38 3.03 9.68
10/24/2020 11:00:00 PM 11.9 53.42 0.128 7.38 2.3 9.67
10/24/2020 11:15:00 PM 11.81 53.258 0.128 7.4 5.74 9.8
10/24/2020 11:30:00 PM 11.76 53.168 0.128 7.4 2.32 9.83
10/24/2020 11:45:00 PM 11.7 53.06 0.128 7.38 2.52 9.79
10/25/2020 12:00:00 AM 11.64 52.952 0.128 7.39 2.71 9.83
10/25/2020 12:15:00 AM 11.53 52.754 0.128 7.4 2.42 9.94
10/25/2020 12:30:00 AM 11.5 52.7 0.128 7.4 2.29 9.92
10/25/2020 12:45:00 AM 11.45 52.61 0.128 7.39 2.28 9.9
10/25/2020 1:00:00 AM 11.38 52.484 0.128 7.4 2.21 9.95
10/25/2020 1:15:00 AM 11.3 52.34 0.128 7.4 2.36 10
10/25/2020 1:30:00 AM 11.24 52.232 0.128 7.4 2.17 10.01
10/25/2020 1:45:00 AM 11.18 52.124 0.128 7.42 2.09 10.09
10/25/2020 2:00:00 AM 11.11 51.998 0.128 7.42 2.25 10.13
10/25/2020 2:15:00 AM 11.08 51.944 0.129 7.4 2.13 10.03
10/25/2020 2:30:00 AM 11.02 51.836 0.129 7.4 2.17 10
10/25/2020 2:45:00 AM 10.94 51.692 0.129 7.4 2.28 10.06
10/25/2020 3:00:00 AM 10.86 51.548 0.129 7.41 2.21 10.12
10/25/2020 3:15:00 AM 10.78 51.404 0.129 7.41 2.17 10.14
10/25/2020 3:30:00 AM 10.7 51.26 0.129 7.41 2.12 10.17
10/25/2020 3:45:00 AM 10.6 51.08 0.129 7.41 2.28 10.19
10/25/2020 4:00:00 AM 10.5 50.9 0.129 7.41 2.46 10.23
10/25/2020 4:15:00 AM 10.43 50.774 0.129 7.41 2.68 10.23
10/25/2020 4:30:00 AM 10.26 50.468 0.129 7.42 2.89 10.35
10/25/2020 4:45:00 AM 10.18 50.324 0.129 7.42 4.42 10.38
10/25/2020 5:00:00 AM 10.11 50.198 0.129 7.43 2.17 10.39
10/25/2020 5:15:00 AM 9.97 49.946 0.128 7.44 2.32 10.45
10/25/2020 5:30:00 AM 9.89 49.802 0.128 7.44 2.09 10.5
10/25/2020 5:45:00 AM 9.82 49.676 0.129 7.43 2.74 10.48
10/25/2020 6:00:00 AM 9.7 49.46 0.129 7.43 2.13 10.54
10/25/2020 6:15:00 AM 9.62 49.316 0.129 7.42 2.17 10.51
10/25/2020 6:30:00 AM 9.49 49.082 0.129 7.43 2.18 10.59
10/25/2020 6:45:00 AM 9.41 48.938 0.129 7.44 1.95 10.63
10/25/2020 7:00:00 AM 9.34 48.812 0.129 7.42 2.08 10.6
10/25/2020 7:15:00 AM 9.27 48.686 0.13 7.42 2.48 10.62
10/25/2020 7:30:00 AM 9.16 48.488 0.13 7.42 1.99 10.63
10/25/2020 7:45:00 AM 9.04 48.272 0.129 7.42 1.96 10.7
10/25/2020 8:00:00 AM 8.96 48.128 0.13 7.43 1.99 10.76
10/25/2020 8:15:00 AM 8.89 48.002 0.13 7.4 2 10.78
10/25/2020 8:30:00 AM 8.84 47.912 0.13 7.39 1.99 10.8
10/25/2020 8:45:00 AM 8.77 47.786 0.129 7.4 1.94 10.87
10/25/2020 9:00:00 AM 8.71 47.678 0.129 7.42 1.95 10.98
10/25/2020 9:15:00 AM 8.69 47.642 0.13 7.41 1.92 11.03
10/25/2020 9:30:00 AM 8.69 47.642 0.129 7.44 1.84 11.09
10/25/2020 9:45:00 AM 8.67 47.606 0.129 7.46 2.01 11.16
10/25/2020 10:00:00 AM 8.69 47.642 0.13 7.44 1.89 11.12
10/25/2020 10:15:00 AM 8.71 47.678 0.13 7.45 1.84 11.15
10/25/2020 10:30:00 AM 8.73 47.714 0.129 7.48 1.89 11.19
10/25/2020 10:45:00 AM 8.76 47.768 0.129 7.49 1.9 11.27
10/25/2020 11:00:00 AM 8.83 47.894 0.129 7.49 1.93 11.3
10/25/2020 11:15:00 AM 8.92 48.056 0.129 7.51 1.91 11.36
10/25/2020 11:30:00 AM 9.01 48.218 0.129 7.5 2.05 11.33
10/25/2020 11:45:00 AM 9.12 48.416 0.129 7.51 1.85 11.31
10/25/2020 12:00:00 PM 9.23 48.614 0.129 7.53 1.92 11.29
10/25/2020 12:15:00 PM 9.37 48.866 0.129 7.53 1.91 11.36
10/25/2020 12:30:00 PM 9.57 49.226 0.129 7.54 1.88 11.37
10/25/2020 12:45:00 PM 9.72 49.496 0.129 7.55 1.87 11.34
10/25/2020 1:00:00 PM 9.89 49.802 0.13 7.53 2.11 11.14
10/25/2020 1:15:00 PM 10.05 50.09 0.129 7.56 1.81 11.24
10/25/2020 1:30:00 PM 10.17 50.306 0.129 7.56 1.83 11.25
10/25/2020 1:45:00 PM 10.33 50.594 0.129 7.56 2.19 11.19
10/25/2020 2:00:00 PM 10.45 50.81 0.129 7.53 1.85 11.04
10/25/2020 2:15:00 PM 10.51 50.918 0.13 7.54 2.1 11.05
10/25/2020 2:30:00 PM 10.77 51.386 0.13 7.55 2.08 11.04
10/25/2020 2:45:00 PM 10.98 51.764 0.129 7.58 1.87 10.98
10/25/2020 3:00:00 PM 11.09 51.962 0.129 7.58 1.84 11.02
10/25/2020 3:15:00 PM 11.26 52.268 0.129 7.6 1.85 10.96
10/25/2020 3:30:00 PM 11.36 52.448 0.129 7.59 1.89 10.86
10/25/2020 3:45:00 PM 11.52 52.736 0.129 7.58 4.65 10.79
10/25/2020 4:00:00 PM 11.58 52.844 0.129 7.59 1.95 10.68
10/25/2020 4:15:00 PM 11.57 52.826 0.129 7.54 2.04 10.52
10/25/2020 4:30:00 PM 11.62 52.916 0.129 7.58 1.87 10.53
10/25/2020 4:45:00 PM 11.62 52.916 0.13 7.53 1.92 10.45
10/25/2020 5:00:00 PM 11.61 52.898 0.131 7.52 2.17 10.36
10/25/2020 5:15:00 PM 11.6 52.88 0.13 7.49 2.26 10.35
10/25/2020 5:30:00 PM 11.58 52.844 0.131 7.5 2.33 10.27
10/25/2020 5:45:00 PM 11.55 52.79 0.13 7.49 2.45 10.23
10/25/2020 6:00:00 PM 11.52 52.736 0.13 7.5 2.49 10.22
10/25/2020 6:15:00 PM 11.47 52.646 0.13 7.51 2.3 10.27
10/25/2020 6:30:00 PM 11.45 52.61 0.131 7.45 8.44 9.96
10/25/2020 6:45:00 PM 11.4 52.52 0.13 7.49 16 10.16
10/25/2020 7:00:00 PM 11.37 52.466 0.13 7.5 2.22 10.19
10/25/2020 7:15:00 PM 11.35 52.43 0.13 7.47 2.17 10.1
10/25/2020 7:30:00 PM 11.32 52.376 0.131 7.46 2.02 10.06
10/25/2020 7:45:00 PM 11.3 52.34 0.131 7.42 2.13 10.01
10/25/2020 8:00:00 PM 11.24 52.232 0.131 7.45 2.11 10.08
10/25/2020 8:15:00 PM 11.23 52.214 0.131 7.45 2.01 10.07
10/25/2020 8:30:00 PM 11.21 52.178 0.131 7.44 2.28 10.06
10/25/2020 8:45:00 PM 11.18 52.124 0.131 7.41 2.04 10.03
10/25/2020 9:00:00 PM 11.16 52.088 0.131 7.43 2.1 10.03
10/25/2020 9:15:00 PM 11.11 51.998 0.131 7.43 1.94 10.06
10/25/2020 9:30:00 PM 11.07 51.926 0.131 7.4 2.14 10
10/25/2020 9:45:00 PM 11.04 51.872 0.131 7.39 2.55 9.96
10/25/2020 10:00:00 PM 10.96 51.728 0.131 7.42 2.06 10.08
10/25/2020 10:15:00 PM 10.9 51.62 0.131 7.42 2.07 10.09
10/25/2020 10:30:00 PM 10.85 51.53 0.131 7.42 2.05 10.08
10/25/2020 10:45:00 PM 10.79 51.422 0.131 7.41 2.11 10.11
10/25/2020 11:00:00 PM 10.74 51.332 0.131 7.43 2.05 10.15
10/25/2020 11:15:00 PM 10.69 51.242 0.131 7.41 2.09 10.13
10/25/2020 11:30:00 PM 10.63 51.134 0.131 7.42 2.09 10.2
10/25/2020 11:45:00 PM 10.59 51.062 0.131 7.41 2.38 10.17
10/26/2020 12:00:00 AM 10.56 51.008 0.131 7.41 2.04 10.12
10/26/2020 12:15:00 AM 10.54 50.972 0.131 7.4 2.28 10.14
10/26/2020 12:30:00 AM 10.49 50.882 0.131 7.4 2.18 10.13
10/26/2020 12:45:00 AM 10.44 50.792 0.131 7.39 2.13 10.18
10/26/2020 1:00:00 AM 10.39 50.702 0.131 7.41 2.01 10.22
10/26/2020 1:15:00 AM 10.33 50.594 0.131 7.45 2.16 10.36
10/26/2020 1:30:00 AM 10.34 50.612 0.132 7.41 2.59 10.25
10/26/2020 1:45:00 AM 10.28 50.504 0.132 7.41 2.05 10.26
10/26/2020 2:00:00 AM 10.22 50.396 0.131 7.42 2.05 10.33
10/26/2020 2:15:00 AM 10.2 50.36 0.132 7.41 2.14 10.3
10/26/2020 2:30:00 AM 10.15 50.27 0.131 7.42 2.11 10.3
10/26/2020 2:45:00 AM 10.12 50.216 0.131 7.4 2.1 10.31
10/26/2020 3:00:00 AM 10.08 50.144 0.131 7.39 2.18 10.31
10/26/2020 3:15:00 AM 10.03 50.054 0.131 7.4 2.1 10.28
10/26/2020 3:30:00 AM 9.97 49.946 0.131 7.41 2.12 10.38
10/26/2020 3:45:00 AM 9.95 49.91 0.132 7.41 2 10.39
10/26/2020 4:00:00 AM 9.92 49.856 0.131 7.41 1.99 10.4
10/26/2020 4:15:00 AM 9.91 49.838 0.132 7.4 1.98 10.36
10/26/2020 4:30:00 AM 9.89 49.802 0.132 7.38 2.11 10.36
10/26/2020 4:45:00 AM 9.87 49.766 0.132 7.39 2.08 10.32
10/26/2020 5:00:00 AM 9.83 49.694 0.132 7.41 2 10.42
10/26/2020 5:15:00 AM 9.82 49.676 0.132 7.41 1.99 10.44
10/26/2020 5:30:00 AM 9.79 49.622 0.132 7.41 1.98 10.44
10/26/2020 5:45:00 AM 9.79 49.622 0.132 7.38 2.05 10.38
10/26/2020 6:00:00 AM 9.76 49.568 0.132 7.39 2.23 10.37
10/26/2020 6:15:00 AM 9.76 49.568 0.134 7.39 2.19 10.4
10/26/2020 6:30:00 AM 9.72 49.496 0.132 7.39 2.39 10.42
10/26/2020 6:45:00 AM 9.72 49.496 0.132 7.38 2.02 10.39
10/26/2020 7:00:00 AM 9.71 49.478 0.132 7.36 1.96 10.36
10/26/2020 7:15:00 AM 9.7 49.46 0.132 7.37 1.93 10.36
10/26/2020 7:30:00 AM 9.69 49.442 0.132 7.38 1.94 10.38
10/26/2020 7:45:00 AM 9.67 49.406 0.132 7.4 1.91 10.44
10/26/2020 8:00:00 AM 9.68 49.424 0.132 7.39 2.02 10.4
10/26/2020 8:15:00 AM 9.68 49.424 0.132 7.4 1.88 10.38
10/26/2020 8:30:00 AM 9.67 49.406 0.131 7.4 1.92 10.4
10/26/2020 8:45:00 AM 9.68 49.424 0.131 7.39 1.94 10.38
10/26/2020 9:00:00 AM 9.67 49.406 0.131 7.42 1.94 10.48
10/26/2020 9:15:00 AM 9.67 49.406 0.131 7.42 2.16 10.5
10/26/2020 9:30:00 AM 9.69 49.442 0.131 7.4 1.87 10.47
10/26/2020 9:45:00 AM 9.7 49.46 0.131 7.41 2.05 10.49
10/26/2020 10:00:00 AM 9.72 49.496 0.131 7.4 1.86 10.51
10/26/2020 10:15:00 AM 9.75 49.55 0.132 7.39 1.97 10.49
10/26/2020 10:30:00 AM 9.77 49.586 0.132 7.38 1.98 10.41
10/26/2020 10:45:00 AM 9.8 49.64 0.133 7.36 2.06 10.3
10/26/2020 11:00:00 AM 9.84 49.712 0.133 7.33 5.36 10.23
10/26/2020 11:15:00 AM 9.87 49.766 0.132 7.38 2.22 10.48
10/26/2020 11:30:00 AM 9.92 49.856 0.132 7.39 4.13 10.54
10/26/2020 11:45:00 AM 9.95 49.91 0.133 7.39 2.3 10.42
10/26/2020 12:00:00 PM 10 50 0.132 7.37 2.38 10.45
10/26/2020 12:15:00 PM 10.07 50.126 0.134 7.35 2.02 10.47
10/26/2020 12:30:00 PM 10.11 50.198 0.135 7.34 2.08 10.41
10/26/2020 12:45:00 PM 10.19 50.342 0.133 7.34 2.14 10.4
10/26/2020 1:00:00 PM 10.21 50.378 0.133 7.38 2.44 10.5
10/26/2020 1:15:00 PM 10.25 50.45 0.133 7.39 2.14 10.4
10/26/2020 1:30:00 PM 10.31 50.558 0.133 7.39 2.15 10.35
10/26/2020 1:45:00 PM 10.36 50.648 0.133 7.42 1.9 10.49
10/26/2020 2:00:00 PM 10.41 50.738 0.133 7.42 1.95 10.38
10/26/2020 2:15:00 PM 10.44 50.792 0.133 7.39 1.98 10.31
10/26/2020 2:30:00 PM 10.48 50.864 0.133 7.4 1.99 10.28
10/26/2020 2:45:00 PM 10.52 50.936 0.133 7.41 2.22 10.34
10/26/2020 3:00:00 PM 10.57 51.026 0.133 7.41 2.18 10.33
10/26/2020 3:15:00 PM 10.63 51.134 0.134 7.38 2.09 10.35
10/26/2020 3:30:00 PM 10.66 51.188 0.135 7.36 2.24 10.18
10/26/2020 3:45:00 PM 10.7 51.26 0.135 7.35 5.54 10.11
10/26/2020 4:00:00 PM 10.75 51.35 0.135 7.4 2.31 10.18
10/26/2020 4:15:00 PM 10.77 51.386 0.135 7.36 2.6 10.1
10/26/2020 4:30:00 PM 10.81 51.458 0.135 7.39 2.97 10.16
10/26/2020 4:45:00 PM 10.81 51.458 0.137 7.35 3.11 9.95
10/26/2020 5:00:00 PM 10.86 51.548 0.134 7.4 2.28 10.15
10/26/2020 5:15:00 PM 10.87 51.566 0.135 7.42 2.3 10.13
10/26/2020 5:30:00 PM 10.9 51.62 0.134 7.4 2.65 10.1
10/26/2020 5:45:00 PM 10.91 51.638 0.135 7.38 2.32 10
10/26/2020 6:00:00 PM 10.93 51.674 0.134 7.37 2.2 9.92
10/26/2020 6:15:00 PM 10.96 51.728 0.134 7.34 2.37 9.9
10/26/2020 6:30:00 PM 10.97 51.746 0.134 7.34 1.93 9.88
10/26/2020 6:45:00 PM 10.99 51.782 0.133 7.36 2.2 9.95
10/26/2020 7:00:00 PM 11 51.8 0.133 7.36 5.32 9.92
10/26/2020 7:15:00 PM 11.01 51.818 0.133 7.35 6.4 9.87
10/26/2020 7:30:00 PM 11.02 51.836 0.134 7.35 2.87 9.88
10/26/2020 7:45:00 PM 11.03 51.854 0.135 7.33 2.33 9.76
10/26/2020 8:00:00 PM 11.03 51.854 0.134 7.34 2.69 9.78
10/26/2020 8:15:00 PM 11.04 51.872 0.134 7.33 2.1 9.73
10/26/2020 8:30:00 PM 11.05 51.89 0.135 7.34 2.06 9.79
10/26/2020 8:45:00 PM 11.06 51.908 0.134 7.36 2.14 9.85
10/26/2020 9:00:00 PM 11.06 51.908 0.134 7.32 2.18 9.67
10/26/2020 9:15:00 PM 11.07 51.926 0.134 7.32 2.39 9.71
10/26/2020 9:30:00 PM 11.07 51.926 0.134 7.32 2.26 9.73
10/26/2020 9:45:00 PM 11.07 51.926 0.134 7.33 2.51 9.79
10/26/2020 10:00:00 PM 11.07 51.926 0.133 7.35 2.01 9.82
10/26/2020 10:15:00 PM 11.07 51.926 0.133 7.32 6.08 9.75
10/26/2020 10:30:00 PM 11.07 51.926 0.133 7.34 2.28 9.79
10/26/2020 10:45:00 PM 11.07 51.926 0.134 7.32 2.2 9.72
10/26/2020 11:00:00 PM 11.06 51.908 0.134 7.34 2.05 9.81
10/26/2020 11:15:00 PM 11.05 51.89 0.135 7.32 2.08 9.77
10/26/2020 11:30:00 PM 11.03 51.854 0.136 7.32 1.98 9.77
10/26/2020 11:45:00 PM 11.01 51.818 0.134 7.31 2.1 9.75
10/27/2020 12:00:00 AM 10.97 51.746 0.133 7.33 1.94 9.83
10/27/2020 12:15:00 AM 10.94 51.692 0.133 7.35 2.16 9.88
10/27/2020 12:30:00 AM 10.89 51.602 0.132 7.38 2.13 9.98
10/27/2020 12:45:00 AM 10.88 51.584 0.133 7.35 2.08 9.93
10/27/2020 1:00:00 AM 10.83 51.494 0.132 7.37 2.13 9.98
10/27/2020 1:15:00 AM 10.8 51.44 0.133 7.35 2 9.98
10/27/2020 1:30:00 AM 10.76 51.368 0.134 7.37 2.1 10.03
10/27/2020 1:45:00 AM 10.73 51.314 0.133 7.36 1.98 10.02
10/27/2020 2:00:00 AM 10.69 51.242 0.133 7.36 2.16 10.05
10/27/2020 2:15:00 AM 10.66 51.188 0.133 7.36 1.99 10.1
10/27/2020 2:30:00 AM 10.63 51.134 0.132 7.39 1.95 10.14
10/27/2020 2:45:00 AM 10.61 51.098 0.134 7.37 1.98 10.13
10/27/2020 3:00:00 AM 10.57 51.026 0.132 7.4 2.07 10.2
10/27/2020 3:15:00 AM 10.55 50.99 0.132 7.38 2.13 10.18
10/27/2020 3:30:00 AM 10.53 50.954 0.132 7.38 2.07 10.16
10/27/2020 3:45:00 AM 10.49 50.882 0.133 7.4 1.98 10.24
10/27/2020 4:00:00 AM 10.48 50.864 0.132 7.39 2.08 10.23
10/27/2020 4:15:00 AM 10.45 50.81 0.132 7.4 2.15 10.22
10/27/2020 4:30:00 AM 10.43 50.774 0.132 7.39 2.02 10.23
10/27/2020 4:45:00 AM 10.41 50.738 0.132 7.38 2.22 10.23
10/27/2020 5:00:00 AM 10.37 50.666 0.132 7.4 2.1 10.26
10/27/2020 5:15:00 AM 10.35 50.63 0.131 7.37 2 10.24
10/27/2020 5:30:00 AM 10.33 50.594 0.133 7.35 2.2 10.24
10/27/2020 5:45:00 AM 10.32 50.576 0.133 7.35 2.18 10.17
10/27/2020 6:00:00 AM 10.26 50.468 0.131 7.4 2.04 10.31
10/27/2020 6:15:00 AM 10.24 50.432 0.131 7.39 1.96 10.33
10/27/2020 6:30:00 AM 10.21 50.378 0.131 7.4 3.7 10.37
10/27/2020 6:45:00 AM 10.19 50.342 0.131 7.41 2.08 10.4
10/27/2020 7:00:00 AM 10.17 50.306 0.131 7.39 1.95 10.35
10/27/2020 7:15:00 AM 10.15 50.27 0.132 7.38 5.72 10.3
10/27/2020 7:30:00 AM 10.13 50.234 0.131 7.38 2.05 10.3
10/27/2020 7:45:00 AM 10.12 50.216 0.131 7.38 2.02 10.28
10/27/2020 8:00:00 AM 10.09 50.162 0.131 7.39 2.14 10.34
10/27/2020 8:15:00 AM 10.05 50.09 0.131 7.4 3.67 10.42
10/27/2020 8:30:00 AM 10.03 50.054 0.131 7.42 2.45 10.5
10/27/2020 8:45:00 AM 10.04 50.072 0.131 7.42 2.05 10.52
10/27/2020 9:00:00 AM 10.03 50.054 0.131 7.43 2.56 10.53
10/27/2020 9:15:00 AM 10.04 50.072 0.131 7.41 1.98 10.52
10/27/2020 9:30:00 AM 10.07 50.126 0.131 7.41 2.01 10.46
10/27/2020 9:45:00 AM 10.09 50.162 0.132 7.4 1.96 10.53
10/27/2020 10:00:00 AM 10.11 50.198 0.132 7.43 2.12 10.57
10/27/2020 10:15:00 AM 10.13 50.234 0.131 7.41 2.05 10.59
10/27/2020 10:30:00 AM 10.16 50.288 0.131 7.42 2.11 10.55
10/27/2020 10:45:00 AM 10.21 50.378 0.132 7.39 2.65 10.52
10/27/2020 11:00:00 AM 10.24 50.432 0.132 7.43 2.05 10.66
10/27/2020 11:15:00 AM 10.3 50.54 0.132 7.43 2.2 10.6
10/27/2020 11:30:00 AM 10.38 50.684 0.131 7.46 2.01 10.88
10/27/2020 11:45:00 AM 10.41 50.738 0.133 7.38 2.29 10.59
10/27/2020 12:00:00 PM 10.47 50.846 0.133 7.37 2.48 10.52
10/27/2020 12:15:00 PM 10.55 50.99 0.132 7.35 2.79 10.41
10/27/2020 12:30:00 PM 10.59 51.062 0.133 7.36 2.5 10.53
10/27/2020 12:45:00 PM 10.65 51.17 0.132 7.48 2.18 10.76
10/27/2020 1:00:00 PM 10.69 51.242 0.131 7.46 2.09 10.78
10/27/2020 1:15:00 PM 10.73 51.314 0.131 7.48 2.11 10.74
10/27/2020 1:30:00 PM 10.77 51.386 0.13 7.45 2.19 10.69
10/27/2020 1:45:00 PM 10.81 51.458 0.133 7.48 2.14 10.74
10/27/2020 2:00:00 PM 10.84 51.512 0.132 7.45 2.68 10.61
10/27/2020 2:15:00 PM 10.86 51.548 0.132 7.39 8.14 10.32
10/27/2020 2:30:00 PM 10.9 51.62 0.131 7.4 2.64 10.36
10/27/2020 2:45:00 PM 10.94 51.692 0.129 7.44 3.22 10.41
10/27/2020 3:00:00 PM 10.95 51.71 0.13 7.45 2.13 10.55
10/27/2020 3:15:00 PM 10.98 51.764 0.131 7.42 2.27 10.46
10/27/2020 3:30:00 PM 11.02 51.836 0.131 7.43 2.69 10.48
10/27/2020 3:45:00 PM 11.01 51.818 0.132 7.45 2.21 10.41
10/27/2020 4:00:00 PM 11.03 51.854 0.131 7.4 2.39 10.35
10/27/2020 4:15:00 PM 11.06 51.908 0.13 7.46 2.69 10.48
10/27/2020 4:30:00 PM 11.05 51.89 0.13 7.41 2.27 10.32
10/27/2020 4:45:00 PM 11.05 51.89 0.132 7.37 2.76 10.11
10/27/2020 5:00:00 PM 11.04 51.872 0.133 7.34 2.93 10.05
10/27/2020 5:15:00 PM 11.04 51.872 0.134 7.32 2.71 9.95
10/27/2020 5:30:00 PM 11.02 51.836 0.132 7.34 2.88 9.92
10/27/2020 5:45:00 PM 11 51.8 0.132 7.35 2.38 9.98
10/27/2020 6:00:00 PM 10.99 51.782 0.131 7.38 2.32 10.06
10/27/2020 6:15:00 PM 10.96 51.728 0.13 7.38 2.41 10.05
10/27/2020 6:30:00 PM 10.93 51.674 0.133 7.3 2.46 9.82
10/27/2020 6:45:00 PM 10.87 51.566 0.129 7.43 14.46 10.26
10/27/2020 7:00:00 PM 10.87 51.566 0.129 7.36 9.54 10.03
10/27/2020 7:15:00 PM 10.85 51.53 0.13 7.36 2.38 10.11
10/27/2020 7:30:00 PM 10.8 51.44 0.129 7.38 2.52 10.17
10/27/2020 7:45:00 PM 10.8 51.44 0.13 7.31 11.25 9.81
10/27/2020 8:00:00 PM 10.75 51.35 0.129 7.36 2.96 10.02
10/27/2020 8:15:00 PM 10.69 51.242 0.129 7.4 2.55 10.19
10/27/2020 8:30:00 PM 10.66 51.188 0.129 7.42 2.75 10.27
10/27/2020 8:45:00 PM 10.61 51.098 0.129 7.43 2.12 10.33
10/27/2020 9:00:00 PM 10.59 51.062 0.129 7.42 2.29 10.3
10/27/2020 9:15:00 PM 10.55 50.99 0.129 7.41 2.46 10.28
10/27/2020 9:30:00 PM 10.49 50.882 0.129 7.42 2.2 10.26
10/27/2020 9:45:00 PM 10.46 50.828 0.129 7.41 2.1 10.27
10/27/2020 10:00:00 PM 10.41 50.738 0.129 7.41 2.14 10.3
10/27/2020 10:15:00 PM 10.36 50.648 0.129 7.41 2.22 10.33
10/27/2020 10:30:00 PM 10.33 50.594 0.129 7.4 2.1 10.31
10/27/2020 10:45:00 PM 10.27 50.486 0.129 7.41 2.11 10.36
10/27/2020 11:00:00 PM 10.24 50.432 0.129 7.42 2.22 10.36
10/27/2020 11:15:00 PM 10.2 50.36 0.129 7.4 2.84 10.28
10/27/2020 11:30:00 PM 10.17 50.306 0.129 7.4 2.68 10.31
10/27/2020 11:45:00 PM 10.12 50.216 0.129 7.41 2.17 10.39
10/28/2020 12:00:00 AM 10.1 50.18 0.129 7.41 2.19 10.39
10/28/2020 12:15:00 AM 10.08 50.144 0.129 7.4 2.02 10.39
10/28/2020 12:30:00 AM 10.06 50.108 0.129 7.38 2.12 10.38
10/28/2020 12:45:00 AM 10.03 50.054 0.128 7.39 2.05 10.41
10/28/2020 1:00:00 AM 10.01 50.018 0.128 7.37 2.09 10.39
10/28/2020 1:15:00 AM 9.99 49.982 0.128 7.38 2.69 10.33
10/28/2020 1:30:00 AM 9.96 49.928 0.128 7.37 2.08 10.34
10/28/2020 1:45:00 AM 9.95 49.91 0.129 7.37 2.1 10.34
10/28/2020 2:00:00 AM 9.93 49.874 0.129 7.37 2.07 10.39
10/28/2020 2:15:00 AM 9.89 49.802 0.128 7.39 2.21 10.46
10/28/2020 2:30:00 AM 9.87 49.766 0.128 7.39 2.02 10.46
10/28/2020 2:45:00 AM 9.86 49.748 0.128 7.38 2.04 10.42
10/28/2020 3:00:00 AM 9.85 49.73 0.128 7.36 2.37 10.35
10/28/2020 3:15:00 AM 9.8 49.64 0.128 7.39 2.73 10.48
10/28/2020 3:30:00 AM 9.78 49.604 0.128 7.38 2.09 10.54
10/28/2020 3:45:00 AM 9.77 49.586 0.128 7.38 2.11 10.48
10/28/2020 4:00:00 AM 9.77 49.586 0.129 7.36 2.05 10.41
10/28/2020 4:15:00 AM 9.71 49.478 0.128 7.41 2.12 10.6
10/28/2020 4:30:00 AM 9.72 49.496 0.128 7.38 2.11 10.46
10/28/2020 4:45:00 AM 9.71 49.478 0.129 7.37 2.06 10.36
10/28/2020 5:00:00 AM 9.7 49.46 0.129 7.36 2.23 10.4
10/28/2020 5:15:00 AM 9.68 49.424 0.129 7.35 2.48 10.37
10/28/2020 5:30:00 AM 9.66 49.388 0.129 7.35 2.56 10.35
10/28/2020 5:45:00 AM 9.64 49.352 0.128 7.36 2.34 10.36
10/28/2020 6:00:00 AM 9.6 49.28 0.128 7.38 2.37 10.51
10/28/2020 6:15:00 AM 9.61 49.298 0.128 7.34 3.7 10.37
10/28/2020 6:30:00 AM 9.6 49.28 0.129 7.33 3.07 10.3
10/28/2020 6:45:00 AM 9.59 49.262 0.129 7.33 2.32 10.33
10/28/2020 7:00:00 AM 9.57 49.226 0.128 7.35 2.34 10.34
10/28/2020 7:15:00 AM 9.57 49.226 0.128 7.35 2.07 10.36
10/28/2020 7:30:00 AM 9.57 49.226 0.129 7.31 2.18 10.21
10/28/2020 7:45:00 AM 9.53 49.154 0.128 7.35 2.11 10.47
10/28/2020 8:00:00 AM 9.56 49.208 0.129 7.35 4.15 10.34
10/28/2020 8:15:00 AM 9.54 49.172 0.129 7.34 2.4 10.26
10/28/2020 8:30:00 AM 9.53 49.154 0.129 7.35 2.55 10.29
10/28/2020 8:45:00 AM 9.52 49.136 0.129 7.34 2.28 10.38
10/28/2020 9:00:00 AM 9.52 49.136 0.129 7.37 2.18 10.46
10/28/2020 9:15:00 AM 9.51 49.118 0.129 7.39 2.15 10.53
10/28/2020 9:30:00 AM 9.52 49.136 0.129 7.39 2.98 10.56
10/28/2020 9:45:00 AM 9.53 49.154 0.129 7.39 2.58 10.58
10/28/2020 10:00:00 AM 9.56 49.208 0.129 7.37 2.16 10.54
10/28/2020 10:15:00 AM 9.59 49.262 0.13 7.37 2.23 10.59
10/28/2020 10:30:00 AM 9.62 49.316 0.13 7.39 1.99 10.67
10/28/2020 10:45:00 AM 9.67 49.406 0.13 7.42 2.1 10.75
10/28/2020 11:00:00 AM 9.71 49.478 0.13 7.39 2.14 10.67
10/28/2020 11:15:00 AM 9.77 49.586 0.13 7.41 2.12 10.75
10/28/2020 11:30:00 AM 9.8 49.64 0.13 7.44 3.71 10.79
10/28/2020 11:45:00 AM 9.87 49.766 0.13 7.45 2 10.75
10/28/2020 12:00:00 PM 9.93 49.874 0.131 7.46 1.98 10.77
10/28/2020 12:15:00 PM 10.02 50.036 0.13 7.49 3.03 10.92
10/28/2020 12:30:00 PM 10.11 50.198 0.129 7.5 1.97 10.99
10/28/2020 12:45:00 PM 10.15 50.27 0.129 7.48 2.17 10.85
10/28/2020 1:00:00 PM 10.19 50.342 0.131 7.44 1.96 10.77
10/28/2020 1:15:00 PM 10.26 50.468 0.132 7.41 2.11 10.51
10/28/2020 1:30:00 PM 10.3 50.54 0.13 7.43 2.18 10.59
10/28/2020 1:45:00 PM 10.34 50.612 0.13 7.44 2.19 10.56
10/28/2020 2:00:00 PM 10.43 50.774 0.13 7.47 2.21 10.66
10/28/2020 2:15:00 PM 10.47 50.846 0.132 7.36 2.43 10.49
10/28/2020 2:30:00 PM 10.53 50.954 0.131 7.38 2.17 10.46
10/28/2020 2:45:00 PM 10.66 51.188 0.129 7.46 1.99 10.55
10/28/2020 3:00:00 PM 10.75 51.35 0.129 7.5 2.1 10.7
10/28/2020 3:15:00 PM 10.78 51.404 0.129 7.5 2.07 10.61
10/28/2020 3:30:00 PM 10.88 51.584 0.128 7.51 2.19 10.69
10/28/2020 3:45:00 PM 10.91 51.638 0.127 7.53 2.08 10.63
10/28/2020 4:00:00 PM 10.93 51.674 0.128 7.52 2.21 10.57
10/28/2020 4:15:00 PM 10.98 51.764 0.128 7.52 2.14 10.6
10/28/2020 4:30:00 PM 11 51.8 0.128 7.53 1.96 10.56
10/28/2020 4:45:00 PM 11 51.8 0.13 7.49 2.16 10.51
10/28/2020 5:00:00 PM 11.02 51.836 0.129 7.45 2.37 10.4
10/28/2020 5:15:00 PM 11.03 51.854 0.128 7.46 2.19 10.39
10/28/2020 5:30:00 PM 11.03 51.854 0.13 7.47 1.97 10.4
10/28/2020 5:45:00 PM 11.02 51.836 0.13 7.47 2.05 10.39
10/28/2020 6:00:00 PM 10.99 51.782 0.13 7.47 2.16 10.37
10/28/2020 6:15:00 PM 10.93 51.674 0.129 7.49 2.41 10.46
10/28/2020 6:30:00 PM 10.88 51.584 0.128 7.49 2.26 10.46
10/28/2020 6:45:00 PM 10.83 51.494 0.129 7.47 2.63 10.36
10/28/2020 7:00:00 PM 10.76 51.368 0.129 7.46 2.1 10.3
10/28/2020 7:15:00 PM 10.7 51.26 0.129 7.46 45.84 10.2
10/28/2020 7:30:00 PM 10.64 51.152 0.128 7.48 3.13 10.39
10/28/2020 7:45:00 PM 10.59 51.062 0.128 7.45 2.21 10.38
10/28/2020 8:00:00 PM 10.53 50.954 0.128 7.43 2.16 10.31
10/28/2020 8:15:00 PM 10.46 50.828 0.128 7.44 2.33 10.34
10/28/2020 8:30:00 PM 10.4 50.72 0.128 7.45 2.05 10.36
10/28/2020 8:45:00 PM 10.36 50.648 0.128 7.43 2.2 10.31
10/28/2020 9:00:00 PM 10.3 50.54 0.128 7.42 2.1 10.33
10/28/2020 9:15:00 PM 10.23 50.414 0.128 7.43 2.16 10.41
10/28/2020 9:30:00 PM 10.19 50.342 0.129 7.39 2.23 10.34
10/28/2020 9:45:00 PM 10.13 50.234 0.128 7.4 2.15 10.39
10/28/2020 10:00:00 PM 10.07 50.126 0.128 7.41 2.18 10.44
10/28/2020 10:15:00 PM 10.04 50.072 0.128 7.38 2.21 10.43
10/28/2020 10:30:00 PM 9.96 49.928 0.127 7.4 2.92 10.4
10/28/2020 10:45:00 PM 9.93 49.874 0.127 7.39 2.1 10.36
10/28/2020 11:00:00 PM 9.86 49.748 0.127 7.38 2.19 10.36
10/28/2020 11:15:00 PM 9.81 49.658 0.127 7.38 2.16 10.42
10/28/2020 11:30:00 PM 9.73 49.514 0.127 7.38 2.17 10.45
10/28/2020 11:45:00 PM 9.69 49.442 0.127 7.39 2.2 10.5
10/29/2020 12:00:00 AM 9.61 49.298 0.127 7.4 2.32 10.56
10/29/2020 12:15:00 AM 9.55 49.19 0.127 7.4 2.35 10.6
10/29/2020 12:30:00 AM 9.5 49.1 0.127 7.4 2.23 10.61
10/29/2020 12:45:00 AM 9.47 49.046 0.127 7.39 2.26 10.6
10/29/2020 1:00:00 AM 9.39 48.902 0.127 7.4 3.91 10.59
10/29/2020 1:15:00 AM 9.38 48.884 0.128 7.38 2.67 10.63
10/29/2020 1:30:00 AM 9.32 48.776 0.127 7.39 2.26 10.64
10/29/2020 1:45:00 AM 9.28 48.704 0.127 7.39 2.19 10.66
10/29/2020 2:00:00 AM 9.21 48.578 0.127 7.4 2.45 10.74
10/29/2020 2:15:00 AM 9.2 48.56 0.127 7.4 2.19 10.71
10/29/2020 2:30:00 AM 9.16 48.488 0.127 7.4 2.18 10.73
10/29/2020 2:45:00 AM 9.13 48.434 0.127 7.41 2.18 10.76
10/29/2020 3:00:00 AM 9.12 48.416 0.128 7.38 2.28 10.71
10/29/2020 3:15:00 AM 9.07 48.326 0.127 7.4 2.15 10.73
10/29/2020 3:30:00 AM 9.06 48.308 0.128 7.39 2.16 10.73
10/29/2020 3:45:00 AM 9.04 48.272 0.128 7.39 2.12 10.72
10/29/2020 4:00:00 AM 9.01 48.218 0.128 7.38 2.18 10.74
10/29/2020 4:15:00 AM 8.97 48.146 0.127 7.4 2.12 10.74
10/29/2020 4:30:00 AM 8.97 48.146 0.128 7.39 2.12 10.76
10/29/2020 4:45:00 AM 8.95 48.11 0.128 7.39 2.16 10.73
10/29/2020 5:00:00 AM 8.93 48.074 0.128 7.36 2.4 10.71
10/29/2020 5:15:00 AM 8.9 48.02 0.128 7.38 2.46 10.76
10/29/2020 5:30:00 AM 8.88 47.984 0.128 7.4 2.24 10.81
10/29/2020 5:45:00 AM 8.87 47.966 0.128 7.39 2.12 10.8
10/29/2020 6:00:00 AM 8.85 47.93 0.128 7.37 2.05 10.75
10/29/2020 6:15:00 AM 8.81 47.858 0.128 7.38 2.1 10.76
10/29/2020 6:30:00 AM 8.8 47.84 0.127 7.37 2.16 10.77
10/29/2020 6:45:00 AM 8.79 47.822 0.128 7.35 2.32 10.7
10/29/2020 7:00:00 AM 8.76 47.768 0.127 7.34 2.23 10.76
10/29/2020 7:15:00 AM 8.7 47.66 0.126 7.4 2.28 10.86
10/29/2020 7:30:00 AM 8.69 47.642 0.126 7.38 2.11 10.89
10/29/2020 7:45:00 AM 8.71 47.678 0.128 7.3 2.08 10.81
10/29/2020 8:00:00 AM 8.71 47.678 0.128 7.34 2.48 10.74
10/29/2020 8:15:00 AM 8.69 47.642 0.128 7.34 2.28 10.73
10/29/2020 8:30:00 AM 8.67 47.606 0.125 7.35 2.27 10.74
10/29/2020 8:45:00 AM 8.64 47.552 0.124 7.37 2.4 10.82
10/29/2020 9:00:00 AM 8.61 47.498 0.123 7.38 2.48 10.87
10/29/2020 9:15:00 AM 8.59 47.462 0.123 7.4 2.45 10.91
10/29/2020 9:30:00 AM 8.58 47.444 0.122 7.41 2.6 10.95
10/29/2020 9:45:00 AM 8.58 47.444 0.122 7.4 2.68 10.91
10/29/2020 10:00:00 AM 8.57 47.426 0.121 7.41 2.65 10.95
10/29/2020 10:15:00 AM 8.56 47.408 0.122 7.41 2.93 11.03
10/29/2020 10:30:00 AM 8.57 47.426 0.122 7.4 2.99 11.03
10/29/2020 10:45:00 AM 8.59 47.462 0.123 7.37 3.42 10.97
10/29/2020 11:00:00 AM 8.58 47.444 0.121 7.44 5.9 11.06
10/29/2020 11:15:00 AM 8.57 47.426 0.12 7.48 3.63 11.19
10/29/2020 11:30:00 AM 8.6 47.48 0.121 7.45 3.82 11.1
10/29/2020 11:45:00 AM 8.6 47.48 0.12 7.45 3.54 11.16
10/29/2020 12:00:00 PM 8.6 47.48 0.118 7.48 3.37 11.26
10/29/2020 12:15:00 PM 8.63 47.534 0.119 7.44 3.53 11.26
10/29/2020 12:30:00 PM 8.65 47.57 0.119 7.45 3.54 11.22
10/29/2020 12:45:00 PM 8.68 47.624 0.12 7.47 3.54 11.17
10/29/2020 1:00:00 PM 8.71 47.678 0.12 7.49 3.89 11.23
10/29/2020 1:15:00 PM 8.73 47.714 0.122 7.37 4.11 10.9
10/29/2020 1:30:00 PM 8.76 47.768 0.122 7.37 4.32 10.86
10/29/2020 1:45:00 PM 8.81 47.858 0.12 7.38 4.56 10.91
10/29/2020 2:00:00 PM 8.84 47.912 0.119 7.39 4.98 10.89
10/29/2020 2:15:00 PM 8.88 47.984 0.118 7.41 4.74 10.92
10/29/2020 2:30:00 PM 8.91 48.038 0.117 7.42 5.28 10.91
10/29/2020 2:45:00 PM 8.93 48.074 0.117 7.4 6.13 10.89
10/29/2020 3:00:00 PM 8.94 48.092 0.115 7.4 6.8 10.84
10/29/2020 3:15:00 PM 8.94 48.092 0.114 7.39 11.71 10.81
10/29/2020 3:30:00 PM 8.93 48.074 0.112 7.41 10.46 10.92
10/29/2020 3:45:00 PM 8.92 48.056 0.111 7.42 15.38 10.98
10/29/2020 4:00:00 PM 8.91 48.038 0.11 7.46 24.15 11.07
10/29/2020 4:15:00 PM 8.91 48.038 0.108 7.46 27.09 11.08
10/29/2020 4:30:00 PM 8.95 48.11 0.106 7.47 30.23 11.13
10/29/2020 4:45:00 PM 8.99 48.182 0.105 7.48 32.12 11.18
10/29/2020 5:00:00 PM 9.02 48.236 0.105 7.45 35.72 11.12
10/29/2020 5:15:00 PM 9.04 48.272 0.104 7.4 60.59 11.04
10/29/2020 5:30:00 PM 9.06 48.308 0.101 7.42 43.5 11.09
10/29/2020 5:45:00 PM 9.09 48.362 0.098 7.41 69.27 11.11
10/29/2020 6:00:00 PM 9.1 48.38 0.096 7.38 70.42 11.02
10/29/2020 6:15:00 PM 9.11 48.398 0.095 7.38 46.32 11.06
10/29/2020 6:30:00 PM 9.11 48.398 0.095 7.35 67.4 10.95
10/29/2020 6:45:00 PM 9.1 48.38 0.094 7.34 47.03 10.96
10/29/2020 7:00:00 PM 9.09 48.362 0.094 7.33 78.31 10.93
10/29/2020 7:15:00 PM 9.08 48.344 0.093 7.35 53.17 11.04
10/29/2020 7:30:00 PM 9.06 48.308 0.092 7.35 59.48 11.09
10/29/2020 7:45:00 PM 9.07 48.326 0.092 7.3 51.77 10.93
10/29/2020 8:00:00 PM 9.06 48.308 0.091 7.3 55.84 10.97
10/29/2020 8:15:00 PM 9.05 48.29 0.091 7.29 54.4 10.97
10/29/2020 8:30:00 PM 9.04 48.272 0.09 7.29 53.26 11.01
10/29/2020 8:45:00 PM 9.04 48.272 0.09 7.27 45.52 10.95
10/29/2020 9:00:00 PM 9.04 48.272 0.09 7.28 43.47 11.01
10/29/2020 9:15:00 PM 9.04 48.272 0.089 7.27 44.2 10.99
10/29/2020 9:30:00 PM 9.05 48.29 0.089 7.27 45.92 11
10/29/2020 9:45:00 PM 9.05 48.29 0.089 7.26 40.78 11.01
10/29/2020 10:00:00 PM 9.05 48.29 0.088 7.26 39.13 11.01
10/29/2020 10:15:00 PM 9.04 48.272 0.088 7.26 39.94 11.01
10/29/2020 10:30:00 PM 9.05 48.29 0.087 7.26 39.52 11.04
10/29/2020 10:45:00 PM 9.05 48.29 0.087 7.26 38.06 11.04
10/29/2020 11:00:00 PM 9.05 48.29 0.087 7.26 34.07 11.06
10/29/2020 11:15:00 PM 9.05 48.29 0.087 7.26 34.9 11.07
10/29/2020 11:30:00 PM 9.04 48.272 0.086 7.25 37.02 11.07
10/29/2020 11:45:00 PM 9.04 48.272 0.086 7.24 32.11 11.06
10/30/2020 12:00:00 AM 9.03 48.254 0.086 7.24 28.39 11.07
10/30/2020 12:15:00 AM 9.02 48.236 0.086 7.24 29.02 11.05
10/30/2020 12:30:00 AM 9.01 48.218 0.085 7.24 22.19 11.07
10/30/2020 12:45:00 AM 9 48.2 0.085 7.23 28.09 11.04
10/30/2020 1:00:00 AM 8.99 48.182 0.085 7.23 25.72 11.04
10/30/2020 1:15:00 AM 8.98 48.164 0.084 7.23 27.05 11.02
10/30/2020 1:30:00 AM 8.96 48.128 0.084 7.24 26.11 11.09
10/30/2020 1:45:00 AM 8.94 48.092 0.084 7.24 23.23 11.07
10/30/2020 2:00:00 AM 8.92 48.056 0.083 7.24 23.97 11.06
10/30/2020 2:15:00 AM 8.9 48.02 0.083 7.23 32.97 11.09
10/30/2020 2:30:00 AM 8.88 47.984 0.083 7.23 25.48 11.11
10/30/2020 2:45:00 AM 8.86 47.948 0.083 7.24 20.2 11.11
10/30/2020 3:00:00 AM 8.84 47.912 0.083 7.23 20.34 11.11
10/30/2020 3:15:00 AM 8.83 47.894 0.084 7.23 20.19 11.1
10/30/2020 3:30:00 AM 8.8 47.84 0.084 7.23 20.52 11.1
10/30/2020 3:45:00 AM 8.78 47.804 0.083 7.22 20.98 11.1
10/30/2020 4:00:00 AM 8.74 47.732 0.083 7.23 18.23 11.15
10/30/2020 4:15:00 AM 8.71 47.678 0.083 7.24 19.45 11.14
10/30/2020 4:30:00 AM 8.68 47.624 0.083 7.24 18.19 11.16
10/30/2020 4:45:00 AM 8.65 47.57 0.083 7.24 16.64 11.18
10/30/2020 5:00:00 AM 8.63 47.534 0.083 7.25 18.4 11.22
10/30/2020 5:15:00 AM 8.6 47.48 0.083 7.24 17.51 11.23
10/30/2020 5:30:00 AM 8.58 47.444 0.083 7.24 17.06 11.23
10/30/2020 5:45:00 AM 8.56 47.408 0.083 7.24 15.55 11.23
10/30/2020 6:00:00 AM 8.53 47.354 0.083 7.24 13.91 11.25
10/30/2020 6:15:00 AM 8.52 47.336 0.083 7.24 15.18 11.24
10/30/2020 6:30:00 AM 8.5 47.3 0.083 7.23 15.62 11.24
10/30/2020 6:45:00 AM 8.48 47.264 0.083 7.23 15.37 11.25
10/30/2020 7:00:00 AM 8.46 47.228 0.083 7.24 14.95 11.27
10/30/2020 7:15:00 AM 8.44 47.192 0.083 7.23 14.04 11.27
10/30/2020 7:30:00 AM 8.43 47.174 0.084 7.23 16.15 11.27
10/30/2020 7:45:00 AM 8.41 47.138 0.083 7.24 15.62 11.29
10/30/2020 8:00:00 AM 8.39 47.102 0.083 7.24 14.54 11.3
10/30/2020 8:15:00 AM 8.37 47.066 0.083 7.24 14.68 11.33
10/30/2020 8:30:00 AM 8.36 47.048 0.083 7.24 14.92 11.34
10/30/2020 8:45:00 AM 8.35 47.03 0.083 7.24 15.36 11.37
10/30/2020 9:00:00 AM 8.34 47.012 0.083 7.24 15.2 11.36
10/30/2020 9:15:00 AM 8.34 47.012 0.084 7.23 14.48 11.34
10/30/2020 9:30:00 AM 8.33 46.994 0.084 7.23 14.17 11.38
10/30/2020 9:45:00 AM 8.33 46.994 0.084 7.24 16.12 11.38
10/30/2020 10:00:00 AM 8.33 46.994 0.083 7.25 14.37 11.4
10/30/2020 10:15:00 AM 8.34 47.012 0.084 7.24 13.51 11.4
10/30/2020 10:30:00 AM 8.34 47.012 0.083 7.25 13.47 11.45
10/30/2020 10:45:00 AM 8.35 47.03 0.083 7.25 13.5 11.45
10/30/2020 11:00:00 AM 8.36 47.048 0.083 7.25 14.16 11.44
10/30/2020 11:15:00 AM 8.37 47.066 0.084 7.25 12.47 11.46
10/30/2020 11:30:00 AM 8.38 47.084 0.084 7.25 12.21 11.45
10/30/2020 11:45:00 AM 8.39 47.102 0.083 7.25 13.2 11.43
10/30/2020 12:00:00 PM 8.4 47.12 0.084 7.26 12.39 11.45
10/30/2020 12:15:00 PM 8.41 47.138 0.083 7.26 12.8 11.47
10/30/2020 12:30:00 PM 8.44 47.192 0.083 7.26 11.73 11.46
10/30/2020 12:45:00 PM 8.48 47.264 0.083 7.27 12.16 11.48
10/30/2020 1:00:00 PM 8.49 47.282 0.083 7.27 12.62 11.48
10/30/2020 1:15:00 PM 8.49 47.282 0.083 7.27 13.83 11.47
10/30/2020 1:30:00 PM 8.49 47.282 0.083 7.27 13.34 11.47
10/30/2020 1:45:00 PM 8.53 47.354 0.083 7.28 11.51 11.5
10/30/2020 2:00:00 PM 8.58 47.444 0.083 7.28 12.21 11.47
10/30/2020 2:15:00 PM 8.61 47.498 0.083 7.28 11.2 11.49
10/30/2020 2:30:00 PM 8.62 47.516 0.083 7.29 13.15 11.51
10/30/2020 2:45:00 PM 8.66 47.588 0.083 7.3 11.55 11.52
10/30/2020 3:00:00 PM 8.68 47.624 0.083 7.3 11.33 11.51
10/30/2020 3:15:00 PM 8.69 47.642 0.083 7.29 11.02 11.49
10/30/2020 3:30:00 PM 8.68 47.624 0.084 7.29 11.02 11.48
10/30/2020 3:45:00 PM 8.68 47.624 0.083 7.3 10.94 11.49
10/30/2020 4:00:00 PM 8.69 47.642 0.084 7.3 11.01 11.47
10/30/2020 4:15:00 PM 8.7 47.66 0.084 7.3 11.1 11.47
10/30/2020 4:30:00 PM 8.69 47.642 0.084 7.3 11.8 11.49
10/30/2020 4:45:00 PM 8.69 47.642 0.084 7.3 11.48 11.49
10/30/2020 5:00:00 PM 8.68 47.624 0.084 7.29 11.4 11.46
10/30/2020 5:15:00 PM 8.67 47.606 0.084 7.29 10.95 11.46
10/30/2020 5:30:00 PM 8.65 47.57 0.084 7.29 11.49 11.46
10/30/2020 5:45:00 PM 8.63 47.534 0.084 7.29 10.71 11.46
10/30/2020 6:00:00 PM 8.6 47.48 0.084 7.29 12.75 11.45
10/30/2020 6:15:00 PM 8.58 47.444 0.084 7.29 11.67 11.43
10/30/2020 6:30:00 PM 8.55 47.39 0.084 7.28 10.58 11.41
10/30/2020 6:45:00 PM 8.52 47.336 0.084 7.28 10.93 11.43
10/30/2020 7:00:00 PM 8.49 47.282 0.084 7.27 20.65 11.42
10/30/2020 7:15:00 PM 8.45 47.21 0.084 7.27 13.92 11.43
10/30/2020 7:30:00 PM 8.42 47.156 0.084 7.27 10.02 11.44
10/30/2020 7:45:00 PM 8.39 47.102 0.084 7.27 9.28 11.43
10/30/2020 8:00:00 PM 8.36 47.048 0.085 7.27 9.78 11.45
10/30/2020 8:15:00 PM 8.32 46.976 0.085 7.27 9.89 11.43
10/30/2020 8:30:00 PM 8.29 46.922 0.085 7.27 9.46 11.47
10/30/2020 8:45:00 PM 8.25 46.85 0.085 7.27 9.18 11.47
10/30/2020 9:00:00 PM 8.22 46.796 0.085 7.27 11.54 11.47
10/30/2020 9:15:00 PM 8.19 46.742 0.085 7.27 9.74 11.49
10/30/2020 9:30:00 PM 8.15 46.67 0.085 7.27 8.91 11.51
10/30/2020 9:45:00 PM 8.12 46.616 0.085 7.27 9.11 11.52
10/30/2020 10:00:00 PM 8.09 46.562 0.085 7.27 8.69 11.54
10/30/2020 10:15:00 PM 8.06 46.508 0.085 7.27 8.89 11.55
10/30/2020 10:30:00 PM 8.03 46.454 0.085 7.27 8.76 11.58
10/30/2020 10:45:00 PM 8 46.4 0.085 7.27 9.19 11.59
10/30/2020 11:00:00 PM 7.98 46.364 0.085 7.27 9.12 11.6
10/30/2020 11:15:00 PM 7.95 46.31 0.085 7.27 8.57 11.61
10/30/2020 11:30:00 PM 7.92 46.256 0.086 7.27 8.3 11.62
10/30/2020 11:45:00 PM 7.89 46.202 0.086 7.27 7.97 11.63
10/31/2020 12:00:00 AM 7.87 46.166 0.086 7.27 8.25 11.64
10/31/2020 12:15:00 AM 7.84 46.112 0.086 7.27 8.5 11.64
10/31/2020 12:30:00 AM 7.81 46.058 0.086 7.27 8.11 11.65
10/31/2020 12:45:00 AM 7.78 46.004 0.086 7.27 8.11 11.65
10/31/2020 1:00:00 AM 7.76 45.968 0.086 7.27 9.04 11.66
10/31/2020 1:15:00 AM 7.73 45.914 0.086 7.27 8.14 11.67
10/31/2020 1:30:00 AM 7.7 45.86 0.086 7.27 8.04 11.68
10/31/2020 1:45:00 AM 7.67 45.806 0.086 7.27 8.11 11.71
10/31/2020 2:00:00 AM 7.64 45.752 0.086 7.27 7.76 11.71
10/31/2020 2:15:00 AM 7.61 45.698 0.086 7.27 7.86 11.73
10/31/2020 2:30:00 AM 7.58 45.644 0.086 7.28 7.79 11.76
10/31/2020 2:45:00 AM 7.55 45.59 0.086 7.28 7.45 11.76
10/31/2020 3:00:00 AM 7.52 45.536 0.087 7.28 7.77 11.76
10/31/2020 3:15:00 AM 7.49 45.482 0.087 7.28 7.67 11.76
10/31/2020 3:30:00 AM 7.45 45.41 0.087 7.28 7.24 11.78
10/31/2020 3:45:00 AM 7.42 45.356 0.087 7.28 7.29 11.78
10/31/2020 4:00:00 AM 7.38 45.284 0.087 7.28 7.54 11.81
10/31/2020 4:15:00 AM 7.34 45.212 0.087 7.28 7.26 11.85
10/31/2020 4:30:00 AM 7.31 45.158 0.087 7.28 7.21 11.83
10/31/2020 4:45:00 AM 7.27 45.086 0.087 7.28 7.24 11.83
10/31/2020 5:00:00 AM 7.22 44.996 0.087 7.28 7.21 11.86
10/31/2020 5:15:00 AM 7.16 44.888 0.087 7.28 7 11.87
10/31/2020 5:30:00 AM 7.1 44.78 0.088 7.29 7.3 11.9
10/31/2020 5:45:00 AM 7.04 44.672 0.088 7.29 7.19 11.91
10/31/2020 6:00:00 AM 6.97 44.546 0.088 7.28 7.04 11.92
10/31/2020 6:15:00 AM 6.91 44.438 0.088 7.29 6.86 11.95
10/31/2020 6:30:00 AM 6.85 44.33 0.088 7.29 6.73 11.97
10/31/2020 6:45:00 AM 6.77 44.186 0.088 7.29 6.92 12
10/31/2020 7:00:00 AM 6.71 44.078 0.088 7.29 7.02 12
10/31/2020 7:15:00 AM 6.65 43.97 0.088 7.29 6.85 12.04
10/31/2020 7:30:00 AM 6.6 43.88 0.088 7.29 6.56 12.04
10/31/2020 7:45:00 AM 6.57 43.826 0.088 7.28 6.67 12.07
10/31/2020 8:00:00 AM 6.53 43.754 0.089 7.27 6.52 12.09
10/31/2020 8:15:00 AM 6.49 43.682 0.089 7.26 6.48 12.14
10/31/2020 8:30:00 AM 6.47 43.646 0.089 7.27 6.44 12.18
10/31/2020 8:45:00 AM 6.46 43.628 0.089 7.27 6.12 12.2
10/31/2020 9:00:00 AM 6.46 43.628 0.089 7.28 6.14 12.25
10/31/2020 9:15:00 AM 6.47 43.646 0.089 7.29 6.22 12.26
10/31/2020 9:30:00 AM 6.49 43.682 0.089 7.3 6.14 12.3
10/31/2020 9:45:00 AM 6.5 43.7 0.089 7.31 6.47 12.32
10/31/2020 10:00:00 AM 6.52 43.736 0.089 7.31 5.84 12.31
10/31/2020 10:15:00 AM 6.56 43.808 0.089 7.33 5.83 12.33
10/31/2020 10:30:00 AM 6.63 43.934 0.089 7.33 5.9 12.35
10/31/2020 10:45:00 AM 6.73 44.114 0.089 7.34 5.85 12.37
10/31/2020 11:00:00 AM 6.81 44.258 0.089 7.35 6.53 12.35
10/31/2020 11:15:00 AM 6.88 44.384 0.089 7.35 5.71 12.34
10/31/2020 11:30:00 AM 6.94 44.492 0.089 7.36 5.63 12.31
10/31/2020 11:45:00 AM 7 44.6 0.089 7.36 6.21 12.29
10/31/2020 12:00:00 PM 7.08 44.744 0.089 7.37 5.92 12.3
10/31/2020 12:15:00 PM 7.17 44.906 0.089 7.37 5.74 12.27
10/31/2020 12:30:00 PM 7.25 45.05 0.089 7.38 5.63 12.24
10/31/2020 12:45:00 PM 7.32 45.176 0.089 7.38 6.01 12.22
10/31/2020 1:00:00 PM 7.39 45.302 0.089 7.37 16.01 12.18
10/31/2020 1:15:00 PM 7.44 45.392 0.089 7.38 6.03 12.18
10/31/2020 1:30:00 PM 7.49 45.482 0.089 7.38 5.55 12.17
10/31/2020 1:45:00 PM 7.53 45.554 0.089 7.39 5.98 12.14
10/31/2020 2:00:00 PM 7.58 45.644 0.089 7.39 5.74 12.13
10/31/2020 2:15:00 PM 7.63 45.734 0.09 7.39 5.45 12.11
10/31/2020 2:30:00 PM 7.7 45.86 0.09 7.39 5.68 12.07
10/31/2020 2:45:00 PM 7.78 46.004 0.09 7.39 5.58 12.05
10/31/2020 3:00:00 PM 7.87 46.166 0.09 7.39 5.51 12.02
10/31/2020 3:15:00 PM 7.91 46.238 0.09 7.39 5.89 12.01
10/31/2020 3:30:00 PM 7.95 46.31 0.09 7.39 5.72 11.97
10/31/2020 3:45:00 PM 8 46.4 0.09 7.4 5.92 11.95
10/31/2020 4:00:00 PM 8.01 46.418 0.09 7.41 5.29 11.96
10/31/2020 4:15:00 PM 8.02 46.436 0.09 7.41 5.25 11.92
10/31/2020 4:30:00 PM 8.01 46.418 0.09 7.4 5.57 11.88
10/31/2020 4:45:00 PM 7.97 46.346 0.09 7.4 5.24 11.86
10/31/2020 5:00:00 PM 7.91 46.238 0.091 7.4 5.55 11.85
10/31/2020 5:15:00 PM 7.86 46.148 0.091 7.39 5.17 11.84
10/31/2020 5:30:00 PM 7.81 46.058 0.091 7.38 5.53 11.8
10/31/2020 5:45:00 PM 7.77 45.986 0.091 7.38 6.12 11.76
10/31/2020 6:00:00 PM 7.71 45.878 0.091 7.37 5.44 11.77
10/31/2020 6:15:00 PM 7.66 45.788 0.091 7.37 5.74 11.77
10/31/2020 6:30:00 PM 7.61 45.698 0.091 7.36 8.74 11.76
10/31/2020 6:45:00 PM 7.55 45.59 0.091 7.36 5.16 11.74
10/31/2020 7:00:00 PM 7.49 45.482 0.092 7.35 5.53 11.74
10/31/2020 7:15:00 PM 7.43 45.374 0.092 7.35 5.94 11.72
10/31/2020 7:30:00 PM 7.37 45.266 0.092 7.34 5.14 11.74
10/31/2020 7:45:00 PM 7.32 45.176 0.092 7.34 5.12 11.73
10/31/2020 8:00:00 PM 7.26 45.068 0.092 7.33 5.89 11.74
10/31/2020 8:15:00 PM 7.2 44.96 0.092 7.33 5.54 11.75
10/31/2020 8:30:00 PM 7.14 44.852 0.092 7.33 5.02 11.78
10/31/2020 8:45:00 PM 7.07 44.726 0.093 7.33 5.3 11.79
10/31/2020 9:00:00 PM 7.01 44.618 0.093 7.33 5.52 11.81
10/31/2020 9:15:00 PM 6.95 44.51 0.093 7.32 5.14 11.81
10/31/2020 9:30:00 PM 6.88 44.384 0.093 7.32 4.97 11.85
10/31/2020 9:45:00 PM 6.81 44.258 0.093 7.32 5.74 11.86
10/31/2020 10:00:00 PM 6.74 44.132 0.093 7.32 4.93 11.88
10/31/2020 10:15:00 PM 6.65 43.97 0.093 7.32 5.18 11.9
10/31/2020 10:30:00 PM 6.58 43.844 0.094 7.32 5.71 11.93
10/31/2020 10:45:00 PM 6.5 43.7 0.094 7.32 4.85 11.95
10/31/2020 11:00:00 PM 6.42 43.556 0.094 7.32 5.54 11.98
10/31/2020 11:15:00 PM 6.34 43.412 0.094 7.32 5.1 12.02
10/31/2020 11:30:00 PM 6.27 43.286 0.094 7.33 5.04 12.05
10/31/2020 11:45:00 PM 6.2 43.16 0.094 7.32 6.29 12.07
11/1/2020 12:00:00 AM 6.13 43.034 0.094 7.32 4.75 12.08
11/1/2020 12:15:00 AM 6.06 42.908 0.094 7.32 4.65 12.1
11/1/2020 12:30:00 AM 6 42.8 0.094 7.32 4.77 12.11
11/1/2020 12:45:00 AM 5.93 42.674 0.094 7.32 4.9 12.14
11/1/2020 1:00:00 AM 5.86 42.548 0.094 7.32 4.5 12.17
11/1/2020 1:15:00 AM 5.79 42.422 0.094 7.32 5.8 12.18
11/1/2020 1:30:00 AM 5.74 42.332 0.095 7.32 8.95 12.2
11/1/2020 1:45:00 AM 5.68 42.224 0.095 7.3 4.63 12.25
11/1/2020 2:00:00 AM 5.63 42.134 0.095 7.3 9.82 12.21
11/1/2020 2:15:00 AM 5.58 42.044 0.095 7.3 4.87 12.26
11/1/2020 2:30:00 AM 5.52 41.936 0.095 7.29 4.99 12.28
11/1/2020 2:45:00 AM 5.47 41.846 0.095 7.3 4.51 12.29
11/1/2020 3:00:00 AM 5.44 41.792 0.095 7.29 4.62 12.27
11/1/2020 3:15:00 AM 5.4 41.72 0.095 7.3 4.48 12.31
11/1/2020 3:30:00 AM 5.35 41.63 0.095 7.3 4.44 12.33
11/1/2020 3:45:00 AM 5.16 41.288 0.095 7.3 4.57 12.36
11/1/2020 4:00:00 AM 5.14 41.252 0.096 7.3 4.41 12.38
11/1/2020 4:15:00 AM 5.11 41.198 0.096 7.31 4.31 12.4
11/1/2020 4:30:00 AM 5.08 41.144 0.096 7.31 4.48 12.4
11/1/2020 4:45:00 AM 5.05 41.09 0.096 7.31 4.3 12.41
11/1/2020 5:00:00 AM 5.02 41.036 0.096 7.31 4.2 12.41
11/1/2020 5:15:00 AM 4.99 40.982 0.096 7.31 4.26 12.43
11/1/2020 5:30:00 AM 4.96 40.928 0.096 7.31 4.35 12.43
11/1/2020 5:45:00 AM 4.94 40.892 0.096 7.31 4.22 12.45
11/1/2020 6:00:00 AM 4.91 40.838 0.096 7.31 4.18 12.42
11/1/2020 6:15:00 AM 4.88 40.784 0.096 7.31 4.1 12.45
11/1/2020 6:30:00 AM 4.85 40.73 0.097 7.31 4.09 12.44
11/1/2020 6:45:00 AM 4.82 40.676 0.097 7.31 4.16 12.46
11/1/2020 7:00:00 AM 4.79 40.622 0.097 7.31 4.13 12.47
11/1/2020 7:15:00 AM 4.78 40.604 0.097 7.31 4.5 12.49
11/1/2020 7:30:00 AM 4.78 40.604 0.097 7.32 4.38 12.52
11/1/2020 7:45:00 AM 4.8 40.64 0.097 7.32 4.16 12.53
11/1/2020 8:00:00 AM 4.83 40.694 0.097 7.33 3.94 12.53
11/1/2020 8:15:00 AM 4.86 40.748 0.097 7.33 3.98 12.5
11/1/2020 8:30:00 AM 4.9 40.82 0.097 7.34 3.86 12.54
11/1/2020 8:45:00 AM 4.94 40.892 0.097 7.34 3.9 12.54
11/1/2020 9:00:00 AM 4.98 40.964 0.097 7.35 3.9 12.54
11/1/2020 9:15:00 AM 5.03 41.054 0.097 7.36 3.75 12.53
11/1/2020 9:30:00 AM 5.08 41.144 0.097 7.36 3.87 12.54
11/1/2020 9:45:00 AM 5.14 41.252 0.097 7.37 3.87 12.54
11/1/2020 10:00:00 AM 5.2 41.36 0.097 7.37 3.85 12.52
11/1/2020 10:15:00 AM 5.29 41.522 0.097 7.38 3.88 12.51
11/1/2020 10:30:00 AM 5.37 41.666 0.097 7.38 5.25 12.5
11/1/2020 10:45:00 AM 5.46 41.828 0.097 7.39 3.93 12.49
11/1/2020 11:00:00 AM 5.54 41.972 0.097 7.39 3.89 12.46
11/1/2020 11:15:00 AM 5.63 42.134 0.097 7.4 3.76 12.43
11/1/2020 11:30:00 AM 5.73 42.314 0.097 7.4 3.77 12.4
11/1/2020 11:45:00 AM 5.81 42.458 0.097 7.4 3.64 12.37
11/1/2020 12:00:00 PM 5.88 42.584 0.097 7.4 8.49 12.32
11/1/2020 12:15:00 PM 5.97 42.746 0.097 7.4 8.29 12.29
11/1/2020 12:30:00 PM 6.1 42.98 0.096 7.41 4.04 12.29
11/1/2020 12:45:00 PM 6.17 43.106 0.096 7.41 3.67 12.24
11/1/2020 1:00:00 PM 6.21 43.178 0.096 7.4 3.61 12.14
11/1/2020 1:15:00 PM 6.28 43.304 0.096 7.39 3.67 12.1
11/1/2020 1:30:00 PM 6.35 43.43 0.096 7.4 4.9 12.09
11/1/2020 1:45:00 PM 6.5 43.7 0.096 7.4 4.48 12.08
11/1/2020 2:00:00 PM 6.62 43.916 0.096 7.39 5.51 12.03
11/1/2020 2:15:00 PM 6.66 43.988 0.096 7.4 4.75 11.98
11/1/2020 2:30:00 PM 6.66 43.988 0.096 7.41 6.03 11.97
11/1/2020 2:45:00 PM 6.63 43.934 0.096 7.4 4.54 11.97
11/1/2020 3:00:00 PM 6.65 43.97 0.096 7.4 4.25 11.99
11/1/2020 3:15:00 PM 6.71 44.078 0.096 7.41 4.75 12
11/1/2020 3:30:00 PM 6.77 44.186 0.096 7.41 4.34 11.99
11/1/2020 3:45:00 PM 6.82 44.276 0.096 7.41 4.59 11.98
11/1/2020 4:00:00 PM 6.83 44.294 0.096 7.41 4.83 11.96
11/1/2020 4:15:00 PM 6.81 44.258 0.096 7.4 4.84 11.92
11/1/2020 4:30:00 PM 6.77 44.186 0.096 7.41 4.5 11.91
11/1/2020 4:45:00 PM 6.72 44.096 0.096 7.4 4.89 11.92
11/1/2020 5:00:00 PM 6.69 44.042 0.096 7.39 4.96 11.87
11/1/2020 5:15:00 PM 6.67 44.006 0.096 7.38 4.8 11.84
11/1/2020 5:30:00 PM 6.63 43.934 0.096 7.38 5.63 11.81
11/1/2020 5:45:00 PM 6.6 43.88 0.096 7.37 5.21 11.81
11/1/2020 6:00:00 PM 6.56 43.808 0.096 7.37 4.85 11.82
11/1/2020 6:15:00 PM 6.52 43.736 0.096 7.37 4.68 11.81
11/1/2020 6:30:00 PM 6.48 43.664 0.096 7.36 6 11.79
11/1/2020 6:45:00 PM 6.4 43.52 0.096 7.36 4.57 11.83
11/1/2020 7:00:00 PM 6.34 43.412 0.096 7.35 4.57 11.84
11/1/2020 7:15:00 PM 6.26 43.268 0.096 7.34 5.05 11.85
11/1/2020 7:30:00 PM 6.16 43.088 0.096 7.35 4.5 11.89
11/1/2020 7:45:00 PM 6.07 42.926 0.096 7.35 4.5 11.92
11/1/2020 8:00:00 PM 5.99 42.782 0.096 7.34 4.74 11.93
11/1/2020 8:15:00 PM 5.93 42.674 0.096 7.35 4.74 11.96
11/1/2020 8:30:00 PM 5.89 42.602 0.096 7.34 4.43 11.98
11/1/2020 8:45:00 PM 5.84 42.512 0.096 7.35 4.5 12
11/1/2020 9:00:00 PM 5.78 42.404 0.096 7.34 4.3 12.03
11/1/2020 9:15:00 PM 5.72 42.296 0.096 7.35 4.32 12.08
11/1/2020 9:30:00 PM 5.69 42.242 0.096 7.34 4.61 12.04
11/1/2020 9:45:00 PM 5.64 42.152 0.096 7.35 4.25 12.1
11/1/2020 10:00:00 PM 5.6 42.08 0.096 7.35 4.4 12.13
11/1/2020 10:15:00 PM 5.56 42.008 0.096 7.34 4.37 12.12
11/1/2020 10:30:00 PM 5.52 41.936 0.096 7.34 4.38 12.15
11/1/2020 10:45:00 PM 5.47 41.846 0.096 7.35 4.53 12.17
11/1/2020 11:00:00 PM 5.43 41.774 0.096 7.35 4.45 12.19
11/1/2020 11:15:00 PM 5.38 41.684 0.096 7.35 4.15 12.2
11/1/2020 11:30:00 PM 5.34 41.612 0.096 7.34 5.31 12.19
11/1/2020 11:45:00 PM 5.29 41.522 0.096 7.35 4.2 12.23
11/2/2020 12:00:00 AM 5.26 41.468 0.096 7.35 4.34 12.26
11/2/2020 12:15:00 AM 5.22 41.396 0.096 7.35 4.3 12.25
11/2/2020 12:30:00 AM 5.19 41.342 0.096 7.35 4.51 12.28
11/2/2020 12:45:00 AM 5.15 41.27 0.096 7.35 4.28 12.29
11/2/2020 1:00:00 AM 5.12 41.216 0.096 7.35 4.26 12.3
11/2/2020 1:15:00 AM 5.09 41.162 0.096 7.34 4.12 12.31
11/2/2020 1:30:00 AM 5.06 41.108 0.096 7.34 4.29 12.32
11/2/2020 1:45:00 AM 5.01 41.018 0.096 7.35 4.2 12.34
11/2/2020 2:00:00 AM 4.95 40.91 0.096 7.35 4.26 12.33
11/2/2020 2:15:00 AM 4.9 40.82 0.096 7.35 4.17 12.37
11/2/2020 2:30:00 AM 4.87 40.766 0.096 7.34 4.19 12.36
11/2/2020 2:45:00 AM 4.84 40.712 0.096 7.35 4.04 12.4
11/2/2020 3:00:00 AM 4.82 40.676 0.096 7.34 4.13 12.39
11/2/2020 3:15:00 AM 4.81 40.658 0.096 7.35 4.06 12.41
11/2/2020 3:30:00 AM 4.8 40.64 0.096 7.35 4.1 12.42
11/2/2020 3:45:00 AM 4.78 40.604 0.096 7.34 4.09 12.42
11/2/2020 4:00:00 AM 4.74 40.532 0.096 7.34 4.09 12.44
11/2/2020 4:15:00 AM 4.72 40.496 0.096 7.34 4.49 12.45
11/2/2020 4:30:00 AM 4.69 40.442 0.096 7.35 4.25 12.46
11/2/2020 4:45:00 AM 4.67 40.406 0.096 7.34 4.17 12.47
11/2/2020 5:00:00 AM 4.65 40.37 0.096 7.35 4.05 12.49
11/2/2020 5:15:00 AM 4.63 40.334 0.096 7.34 4.04 12.49
11/2/2020 5:30:00 AM 4.61 40.298 0.096 7.34 3.94 12.5
11/2/2020 5:45:00 AM 4.59 40.262 0.096 7.35 4.14 12.52
11/2/2020 6:00:00 AM 4.56 40.208 0.096 7.35 4.11 12.52
11/2/2020 6:15:00 AM 4.55 40.19 0.096 7.34 4.19 12.52
11/2/2020 6:30:00 AM 4.5 40.1 0.096 7.34 3.95 12.55
11/2/2020 6:45:00 AM 4.46 40.028 0.096 7.34 4.11 12.55
11/2/2020 7:00:00 AM 4.42 39.956 0.096 7.34 4.16 12.57
11/2/2020 7:15:00 AM 4.4 39.92 0.096 7.35 4.12 12.59
11/2/2020 7:30:00 AM 4.38 39.884 0.096 7.36 3.99 12.66
11/2/2020 7:45:00 AM 4.36 39.848 0.097 7.35 4.03 12.66
11/2/2020 8:00:00 AM 4.34 39.812 0.096 7.36 4.1 12.71
11/2/2020 8:15:00 AM 4.34 39.812 0.096 7.37 4.02 12.75
11/2/2020 8:30:00 AM 4.34 39.812 0.096 7.37 4.1 12.79
11/2/2020 8:45:00 AM 4.36 39.848 0.096 7.38 3.95 12.83
11/2/2020 9:00:00 AM 4.37 39.866 0.096 7.38 4.17 12.85
11/2/2020 9:15:00 AM 4.39 39.902 0.096 7.39 4.06 12.88
11/2/2020 9:30:00 AM 4.41 39.938 0.096 7.39 4.03 12.9
11/2/2020 9:45:00 AM 4.43 39.974 0.096 7.39 3.94 12.9
11/2/2020 10:00:00 AM 4.49 40.082 0.096 7.39 4.09 12.91
11/2/2020 10:15:00 AM 4.55 40.19 0.096 7.4 4.83 12.92
11/2/2020 10:30:00 AM 4.6 40.28 0.096 7.4 4.06 12.93
11/2/2020 10:45:00 AM 4.67 40.406 0.096 7.41 3.96 12.93
11/2/2020 11:00:00 AM 4.79 40.622 0.096 7.4 3.98 12.9
11/2/2020 11:15:00 AM 4.89 40.802 0.096 7.41 3.95 12.86
11/2/2020 11:30:00 AM 5.02 41.036 0.096 7.42 3.95 12.85
11/2/2020 11:45:00 AM 5.16 41.288 0.096 7.41 3.95 12.81
11/2/2020 12:00:00 PM 5.26 41.468 0.096 7.41 3.96 12.76
11/2/2020 12:15:00 PM 5.32 41.576 0.096 7.41 3.95 12.7
11/2/2020 12:30:00 PM 5.36 41.648 0.096 7.41 3.93 12.66
11/2/2020 12:45:00 PM 5.41 41.738 0.096 7.41 3.86 12.63
11/2/2020 1:00:00 PM 5.46 41.828 0.096 7.42 3.89 12.63
11/2/2020 1:15:00 PM 5.51 41.918 0.096 7.41 3.89 12.6
11/2/2020 1:30:00 PM 5.53 41.954 0.096 7.42 3.99 12.59
11/2/2020 1:45:00 PM 5.52 41.936 0.096 7.41 4.08 12.57
11/2/2020 2:00:00 PM 5.54 41.972 0.097 7.41 3.88 12.56
11/2/2020 2:15:00 PM 5.53 41.954 0.096 7.42 4.13 12.57
11/2/2020 2:30:00 PM 5.51 41.918 0.096 7.41 3.92 12.55
11/2/2020 2:45:00 PM 5.52 41.936 0.096 7.42 3.9 12.57
11/2/2020 3:00:00 PM 5.54 41.972 0.096 7.42 3.86 12.56
11/2/2020 3:15:00 PM 5.55 41.99 0.097 7.42 4.12 12.54
11/2/2020 3:30:00 PM 5.55 41.99 0.097 7.42 3.94 12.56
11/2/2020 3:45:00 PM 5.55 41.99 0.097 7.42 4.01 12.57
11/2/2020 4:00:00 PM 5.54 41.972 0.097 7.43 3.86 12.56
11/2/2020 4:15:00 PM 5.52 41.936 0.097 7.43 3.96 12.54
11/2/2020 4:30:00 PM 5.48 41.864 0.097 7.42 3.98 12.54
11/2/2020 4:45:00 PM 5.45 41.81 0.097 7.41 4.01 12.51
11/2/2020 5:00:00 PM 5.4 41.72 0.097 7.42 3.84 12.47
11/2/2020 5:15:00 PM 5.36 41.648 0.097 7.41 3.8 12.45
11/2/2020 5:30:00 PM 5.32 41.576 0.098 7.4 3.93 12.4
11/2/2020 5:45:00 PM 5.27 41.486 0.098 7.39 3.98 12.39
11/2/2020 6:00:00 PM 5.23 41.414 0.098 7.39 3.82 12.37
11/2/2020 6:15:00 PM 5.21 41.378 0.098 7.38 6.98 12.34
11/2/2020 6:30:00 PM 5.17 41.306 0.098 7.38 4.31 12.36
11/2/2020 6:45:00 PM 5.15 41.27 0.098 7.37 3.89 12.35
11/2/2020 7:00:00 PM 5.12 41.216 0.098 7.36 3.99 12.32
11/2/2020 7:15:00 PM 5.1 41.18 0.098 7.36 3.88 12.32
11/2/2020 7:30:00 PM 5.07 41.126 0.098 7.36 3.92 12.33
11/2/2020 7:45:00 PM 5.03 41.054 0.099 7.36 3.86 12.34
11/2/2020 8:00:00 PM 4.99 40.982 0.099 7.35 3.77 12.35
11/2/2020 8:15:00 PM 4.96 40.928 0.099 7.36 3.93 12.36
11/2/2020 8:30:00 PM 4.92 40.856 0.099 7.36 4.02 12.38
11/2/2020 8:45:00 PM 4.88 40.784 0.099 7.36 3.79 12.39
11/2/2020 9:00:00 PM 4.84 40.712 0.099 7.35 3.9 12.39
11/2/2020 9:15:00 PM 4.8 40.64 0.099 7.35 4.14 12.4
11/2/2020 9:30:00 PM 4.76 40.568 0.1 7.35 3.96 12.41
11/2/2020 9:45:00 PM 4.73 40.514 0.1 7.34 3.95 12.42
11/2/2020 10:00:00 PM 4.7 40.46 0.1 7.35 3.96 12.41
11/2/2020 10:15:00 PM 4.67 40.406 0.1 7.35 3.9 12.43
11/2/2020 10:30:00 PM 4.64 40.352 0.1 7.34 3.92 12.44
11/2/2020 10:45:00 PM 4.61 40.298 0.1 7.33 3.89 12.44
11/2/2020 11:00:00 PM 4.56 40.208 0.1 7.35 3.86 12.48
11/2/2020 11:15:00 PM 4.53 40.154 0.1 7.35 3.92 12.49
11/2/2020 11:30:00 PM 4.5 40.1 0.1 7.34 3.92 12.49
11/2/2020 11:45:00 PM 4.48 40.064 0.1 7.34 3.8 12.51
11/3/2020 12:00:00 AM 4.47 40.046 0.1 7.35 3.81 12.51
11/3/2020 12:15:00 AM 4.46 40.028 0.1 7.34 3.72 12.52
11/3/2020 12:30:00 AM 4.42 39.956 0.1 7.34 3.8 12.52
11/3/2020 12:45:00 AM 4.38 39.884 0.1 7.34 3.62 12.56
11/3/2020 1:00:00 AM 4.34 39.812 0.1 7.35 3.79 12.56
11/3/2020 1:15:00 AM 4.3 39.74 0.1 7.35 3.74 12.59
11/3/2020 1:30:00 AM 4.27 39.686 0.1 7.35 4.12 12.61
11/3/2020 1:45:00 AM 4.23 39.614 0.1 7.35 3.65 12.62
11/3/2020 2:00:00 AM 4.2 39.56 0.1 7.36 3.82 12.63
11/3/2020 2:15:00 AM 4.17 39.506 0.1 7.36 3.92 12.64
11/3/2020 2:30:00 AM 4.14 39.452 0.101 7.35 4.3 12.59
11/3/2020 2:45:00 AM 4.1 39.38 0.1 7.36 4.13 12.64
11/3/2020 3:00:00 AM 4.07 39.326 0.1 7.35 4.08 12.65
11/3/2020 3:15:00 AM 4.04 39.272 0.1 7.35 4.07 12.66
11/3/2020 3:30:00 AM 4.01 39.218 0.1 7.35 3.98 12.68
11/3/2020 3:45:00 AM 3.98 39.164 0.101 7.34 4.97 12.69
11/3/2020 4:00:00 AM 3.95 39.11 0.101 7.34 4.1 12.69
11/3/2020 4:15:00 AM 3.91 39.038 0.1 7.34 3.99 12.72
11/3/2020 4:30:00 AM 3.88 38.984 0.101 7.33 4.21 12.71
11/3/2020 4:45:00 AM 3.84 38.912 0.101 7.33 3.92 12.72
11/3/2020 5:00:00 AM 3.81 38.858 0.101 7.33 3.89 12.73
11/3/2020 5:15:00 AM 3.79 38.822 0.101 7.34 3.92 12.74
11/3/2020 5:30:00 AM 3.75 38.75 0.101 7.34 3.73 12.77
11/3/2020 5:45:00 AM 3.72 38.696 0.101 7.34 3.79 12.8
11/3/2020 6:00:00 AM 3.7 38.66 0.101 7.33 3.72 12.78
11/3/2020 6:15:00 AM 3.67 38.606 0.101 7.32 3.74 12.79
11/3/2020 6:30:00 AM 3.63 38.534 0.101 7.32 3.91 12.83
11/3/2020 6:45:00 AM 3.6 38.48 0.101 7.32 3.71 12.85
11/3/2020 7:00:00 AM 3.58 38.444 0.101 7.31 3.73 12.87
11/3/2020 7:15:00 AM 3.56 38.408 0.101 7.32 3.99 12.88
11/3/2020 7:30:00 AM 3.55 38.39 0.101 7.32 3.69 12.92
11/3/2020 7:45:00 AM 3.54 38.372 0.101 7.33 3.75 12.95
11/3/2020 8:00:00 AM 3.53 38.354 0.101 7.34 3.66 12.99
11/3/2020 8:15:00 AM 3.53 38.354 0.101 7.35 3.53 13.06
11/3/2020 8:30:00 AM 3.54 38.372 0.101 7.36 3.61 13.09
11/3/2020 8:45:00 AM 3.57 38.426 0.101 7.37 3.61 13.11
11/3/2020 9:00:00 AM 3.63 38.534 0.101 7.37 3.53 13.12
11/3/2020 9:15:00 AM 3.7 38.66 0.101 7.38 3.57 13.16
11/3/2020 9:30:00 AM 3.79 38.822 0.101 7.38 3.65 13.15
11/3/2020 9:45:00 AM 3.92 39.056 0.101 7.39 3.56 13.17
11/3/2020 10:00:00 AM 4.05 39.29 0.101 7.39 3.58 13.13
11/3/2020 10:15:00 AM 4.19 39.542 0.101 7.4 3.71 13.1
11/3/2020 10:30:00 AM 4.36 39.848 0.101 7.4 3.56 13.08
11/3/2020 10:45:00 AM 4.51 40.118 0.1 7.41 3.66 13.06
11/3/2020 11:00:00 AM 4.65 40.37 0.1 7.41 3.6 13.02
11/3/2020 11:15:00 AM 4.84 40.712 0.1 7.41 3.8 12.98
11/3/2020 11:30:00 AM 5.03 41.054 0.1 7.42 3.72 12.94
11/3/2020 11:45:00 AM 5.25 41.45 0.1 7.42 4.22 12.86
11/3/2020 12:00:00 PM 5.44 41.792 0.1 7.42 3.65 12.81
11/3/2020 12:15:00 PM 5.66 42.188 0.101 7.42 3.58 12.74
11/3/2020 12:30:00 PM 5.92 42.656 0.101 7.41 4.14 12.65
11/3/2020 12:45:00 PM 6.2 43.16 0.1 7.42 3.98 12.57
11/3/2020 1:00:00 PM 6.49 43.682 0.1 7.43 3.73 12.47
11/3/2020 1:15:00 PM 6.79 44.222 0.1 7.44 3.65 12.4
11/3/2020 1:30:00 PM 7.01 44.618 0.1 7.44 3.7 12.31
11/3/2020 1:45:00 PM 7.26 45.068 0.1 7.45 3.75 12.24
11/3/2020 2:00:00 PM 7.46 45.428 0.099 7.46 3.71 12.18
11/3/2020 2:15:00 PM 7.61 45.698 0.099 7.47 3.66 12.13
11/3/2020 2:30:00 PM 7.76 45.968 0.099 7.48 3.99 12.07
11/3/2020 2:45:00 PM 7.83 46.094 0.1 7.46 4.78 11.98
11/3/2020 3:00:00 PM 7.87 46.166 0.1 7.46 4.57 11.97
11/3/2020 3:15:00 PM 7.88 46.184 0.1 7.45 3.99 11.91
11/3/2020 3:30:00 PM 7.84 46.112 0.1 7.46 3.84 11.89
11/3/2020 3:45:00 PM 7.76 45.968 0.1 7.45 3.93 11.85
11/3/2020 4:00:00 PM 7.69 45.842 0.1 7.46 3.86 11.87
11/3/2020 4:15:00 PM 7.6 45.68 0.1 7.46 4.11 11.89
11/3/2020 4:30:00 PM 7.52 45.536 0.101 7.45 3.92 11.86
11/3/2020 4:45:00 PM 7.44 45.392 0.101 7.44 3.8 11.82
11/3/2020 5:00:00 PM 7.34 45.212 0.101 7.41 3.97 11.75
11/3/2020 5:15:00 PM 7.24 45.032 0.101 7.42 3.86 11.8
11/3/2020 5:30:00 PM 7.15 44.87 0.101 7.42 4.13 11.8
11/3/2020 5:45:00 PM 7.07 44.726 0.101 7.4 4.18 11.77
11/3/2020 6:00:00 PM 6.99 44.582 0.101 7.38 3.88 11.73
11/3/2020 6:15:00 PM 6.93 44.474 0.101 7.37 5.53 11.73
11/3/2020 6:30:00 PM 6.87 44.366 0.102 7.36 4.6 11.72
11/3/2020 6:45:00 PM 6.81 44.258 0.102 7.37 4.15 11.76
11/3/2020 7:00:00 PM 6.76 44.168 0.102 7.37 3.97 11.77
11/3/2020 7:15:00 PM 6.7 44.06 0.101 7.37 3.97 11.79
11/3/2020 7:30:00 PM 6.66 43.988 0.102 7.36 3.96 11.79
11/3/2020 7:45:00 PM 6.61 43.898 0.102 7.36 3.83 11.81
11/3/2020 8:00:00 PM 6.56 43.808 0.102 7.36 3.83 11.83
11/3/2020 8:15:00 PM 6.51 43.718 0.102 7.36 4.01 11.84
11/3/2020 8:30:00 PM 6.45 43.61 0.102 7.36 3.87 11.87
11/3/2020 8:45:00 PM 6.41 43.538 0.102 7.35 3.92 11.85
11/3/2020 9:00:00 PM 6.35 43.43 0.102 7.35 3.83 11.87
11/3/2020 9:15:00 PM 6.29 43.322 0.102 7.35 3.83 11.9
11/3/2020 9:30:00 PM 6.24 43.232 0.102 7.35 3.79 11.91
11/3/2020 9:45:00 PM 6.18 43.124 0.103 7.34 3.85 11.93
11/3/2020 10:00:00 PM 6.12 43.016 0.103 7.34 3.86 11.99
11/3/2020 10:15:00 PM 6.06 42.908 0.103 7.35 3.73 12
11/3/2020 10:30:00 PM 6.01 42.818 0.103 7.34 4 12
11/3/2020 10:45:00 PM 5.94 42.692 0.103 7.34 3.76 12.03
11/3/2020 11:00:00 PM 5.87 42.566 0.103 7.35 3.88 12.07
11/3/2020 11:15:00 PM 5.8 42.44 0.103 7.34 3.95 12.08
11/3/2020 11:30:00 PM 5.73 42.314 0.103 7.34 3.76 12.13
11/3/2020 11:45:00 PM 5.65 42.17 0.103 7.34 3.71 12.16
11/4/2020 12:00:00 AM 5.58 42.044 0.103 7.34 3.78 12.19
11/4/2020 12:15:00 AM 5.51 41.918 0.103 7.34 3.79 12.2
11/4/2020 12:30:00 AM 5.42 41.756 0.103 7.34 3.98 12.26
11/4/2020 12:45:00 AM 5.34 41.612 0.104 7.34 4.3 12.29
11/4/2020 1:00:00 AM 5.27 41.486 0.104 7.34 4.31 12.3
11/4/2020 1:15:00 AM 5.18 41.324 0.104 7.35 3.91 12.37
11/4/2020 1:30:00 AM 5.11 41.198 0.104 7.35 3.86 12.4
11/4/2020 1:45:00 AM 5.04 41.072 0.104 7.34 3.77 12.39
11/4/2020 2:00:00 AM 4.97 40.946 0.104 7.34 3.7 12.43
11/4/2020 2:15:00 AM 4.9 40.82 0.104 7.33 3.81 12.43
11/4/2020 2:30:00 AM 4.83 40.694 0.104 7.33 3.75 12.47
11/4/2020 2:45:00 AM 4.76 40.568 0.104 7.33 3.74 12.51
11/4/2020 3:00:00 AM 4.69 40.442 0.104 7.33 3.76 12.54
11/4/2020 3:15:00 AM 4.62 40.316 0.104 7.33 3.75 12.56
11/4/2020 3:30:00 AM 4.56 40.208 0.104 7.34 3.72 12.59
11/4/2020 3:45:00 AM 4.49 40.082 0.104 7.33 3.63 12.63
11/4/2020 4:00:00 AM 4.43 39.974 0.104 7.33 3.7 12.64
11/4/2020 4:15:00 AM 4.38 39.884 0.104 7.32 3.77 12.65
11/4/2020 4:30:00 AM 4.32 39.776 0.104 7.32 3.72 12.68
11/4/2020 4:45:00 AM 4.27 39.686 0.104 7.33 3.74 12.69
11/4/2020 5:00:00 AM 4.2 39.56 0.104 7.33 4.2 12.72
11/4/2020 5:15:00 AM 4.15 39.47 0.104 7.33 4.05 12.75
11/4/2020 5:30:00 AM 4.11 39.398 0.104 7.33 4.51 12.78
11/4/2020 5:45:00 AM 4.05 39.29 0.104 7.33 3.93 12.8
11/4/2020 6:00:00 AM 4 39.2 0.105 7.33 3.63 12.83
11/4/2020 6:15:00 AM 3.95 39.11 0.104 7.33 3.59 12.88
11/4/2020 6:30:00 AM 3.92 39.056 0.105 7.33 3.61 12.89
11/4/2020 6:45:00 AM 3.88 38.984 0.105 7.34 3.63 12.91
11/4/2020 7:00:00 AM 3.85 38.93 0.105 7.33 3.6 12.91
11/4/2020 7:15:00 AM 3.82 38.876 0.105 7.33 3.56 12.95
11/4/2020 7:30:00 AM 3.79 38.822 0.105 7.33 3.54 12.97
11/4/2020 7:45:00 AM 3.78 38.804 0.105 7.33 3.58 13.01
11/4/2020 8:00:00 AM 3.76 38.768 0.105 7.35 3.65 13.08
11/4/2020 8:15:00 AM 3.75 38.75 0.104 7.36 3.66 13.14
11/4/2020 8:30:00 AM 3.73 38.714 0.104 7.36 3.55 13.16
11/4/2020 8:45:00 AM 3.73 38.714 0.105 7.36 3.67 13.18
11/4/2020 9:00:00 AM 3.71 38.678 0.104 7.37 3.62 13.23
11/4/2020 9:15:00 AM 3.76 38.768 0.104 7.38 3.44 13.25
11/4/2020 9:30:00 AM 3.85 38.93 0.105 7.37 3.58 13.24
11/4/2020 9:45:00 AM 3.98 39.164 0.104 7.39 3.46 13.28
11/4/2020 10:00:00 AM 4.11 39.398 0.104 7.39 3.52 13.26
11/4/2020 10:15:00 AM 4.25 39.65 0.104 7.4 3.52 13.25
11/4/2020 10:30:00 AM 4.42 39.956 0.104 7.4 3.6 13.23
11/4/2020 10:45:00 AM 4.59 40.262 0.104 7.4 3.47 13.19
11/4/2020 11:00:00 AM 4.77 40.586 0.104 7.4 3.62 13.1
11/4/2020 11:15:00 AM 4.98 40.964 0.104 7.41 3.54 13.1
11/4/2020 11:30:00 AM 5.19 41.342 0.104 7.42 3.5 13.06
11/4/2020 11:45:00 AM 5.46 41.828 0.104 7.44 3.51 13.03
11/4/2020 12:00:00 PM 5.72 42.296 0.104 7.43 3.48 12.95
11/4/2020 12:15:00 PM 5.99 42.782 0.104 7.44 3.37 12.86
11/4/2020 12:30:00 PM 6.25 43.25 0.104 7.43 3.58 12.74
11/4/2020 12:45:00 PM 6.58 43.844 0.104 7.42 3.49 12.67
11/4/2020 1:00:00 PM 6.92 44.456 0.103 7.44 3.47 12.56
11/4/2020 1:15:00 PM 7.26 45.068 0.104 7.44 3.63 12.43
11/4/2020 1:30:00 PM 7.61 45.698 0.104 7.44 3.64 12.28
11/4/2020 1:45:00 PM 7.99 46.382 0.104 7.44 3.5 12.19
11/4/2020 2:00:00 PM 8.32 46.976 0.104 7.47 3.68 12.07
11/4/2020 2:15:00 PM 8.59 47.462 0.104 7.46 3.56 11.96
11/4/2020 2:30:00 PM 8.83 47.894 0.104 7.47 3.68 11.9
11/4/2020 2:45:00 PM 8.96 48.128 0.104 7.46 3.98 11.79
11/4/2020 3:00:00 PM 9.04 48.272 0.104 7.48 6.04 11.77
11/4/2020 3:15:00 PM 9.04 48.272 0.103 7.49 3.7 11.75
11/4/2020 3:30:00 PM 8.99 48.182 0.104 7.47 3.74 11.69
11/4/2020 3:45:00 PM 8.94 48.092 0.104 7.48 4.12 11.66
11/4/2020 4:00:00 PM 8.88 47.984 0.103 7.47 3.66 11.61
11/4/2020 4:15:00 PM 8.78 47.804 0.104 7.47 4.11 11.58
11/4/2020 4:30:00 PM 8.67 47.606 0.104 7.46 3.57 11.57
11/4/2020 4:45:00 PM 8.56 47.408 0.104 7.46 3.62 11.56
11/4/2020 5:00:00 PM 8.45 47.21 0.104 7.44 3.89 11.51
11/4/2020 5:15:00 PM 8.33 46.994 0.104 7.44 3.87 11.53
11/4/2020 5:30:00 PM 8.24 46.832 0.104 7.42 3.93 11.5
11/4/2020 5:45:00 PM 8.13 46.634 0.104 7.4 3.97 11.47
11/4/2020 6:00:00 PM 8.01 46.418 0.104 7.4 3.79 11.47
11/4/2020 6:15:00 PM 7.93 46.274 0.104 7.4 3.74 11.51
11/4/2020 6:30:00 PM 7.83 46.094 0.104 7.39 3.67 11.53
11/4/2020 6:45:00 PM 7.75 45.95 0.105 7.39 3.74 11.55
11/4/2020 7:00:00 PM 7.68 45.824 0.105 7.37 9802.81 11.45
11/4/2020 7:15:00 PM 7.6 45.68 0.105 7.37 5.69 11.48
11/4/2020 7:30:00 PM 7.53 45.554 0.105 7.37 4.19 11.54
11/4/2020 7:45:00 PM 7.47 45.446 0.105 7.36 4.09 11.58
11/4/2020 8:00:00 PM 7.43 45.374 0.105 7.35 3.94 11.58
11/4/2020 8:15:00 PM 7.37 45.266 0.105 7.35 3.92 11.61
11/4/2020 8:30:00 PM 7.33 45.194 0.105 7.34 3.73 11.6
11/4/2020 8:45:00 PM 7.28 45.104 0.105 7.34 4.34 11.61
11/4/2020 9:00:00 PM 7.23 45.014 0.105 7.34 3.86 11.62
11/4/2020 9:15:00 PM 7.18 44.924 0.105 7.34 4.74 11.62
11/4/2020 9:30:00 PM 7.12 44.816 0.105 7.33 3.95 11.65
11/4/2020 9:45:00 PM 7.06 44.708 0.105 7.33 4.13 11.67
11/4/2020 10:00:00 PM 7 44.6 0.105 7.34 3.91 11.71
11/4/2020 10:15:00 PM 6.95 44.51 0.105 7.34 3.76 11.73
11/4/2020 10:30:00 PM 6.88 44.384 0.105 7.33 3.83 11.74
11/4/2020 10:45:00 PM 6.82 44.276 0.105 7.34 3.85 11.75
11/4/2020 11:00:00 PM 6.76 44.168 0.105 7.33 3.83 11.79
11/4/2020 11:15:00 PM 6.71 44.078 0.106 7.33 3.94 11.77
11/4/2020 11:30:00 PM 6.65 43.97 0.106 7.33 3.94 11.79
11/4/2020 11:45:00 PM 6.58 43.844 0.106 7.33 3.78 11.81
11/5/2020 12:00:00 AM 6.52 43.736 0.106 7.33 3.68 11.85
11/5/2020 12:15:00 AM 6.45 43.61 0.106 7.32 3.69 11.85
11/5/2020 12:30:00 AM 6.37 43.466 0.106 7.32 3.85 11.88
11/5/2020 12:45:00 AM 6.3 43.34 0.106 7.32 3.72 11.9
11/5/2020 1:00:00 AM 6.23 43.214 0.107 7.32 3.81 11.89
11/5/2020 1:15:00 AM 6.15 43.07 0.106 7.32 3.89 11.98
11/5/2020 1:30:00 AM 6.07 42.926 0.106 7.33 3.94 12.01
11/5/2020 1:45:00 AM 5.99 42.782 0.107 7.32 3.82 12.03
11/5/2020 2:00:00 AM 5.9 42.62 0.107 7.32 3.8 12.07
11/5/2020 2:15:00 AM 5.82 42.476 0.106 7.33 3.81 12.11
11/5/2020 2:30:00 AM 5.74 42.332 0.106 7.32 3.67 12.12
11/5/2020 2:45:00 AM 5.67 42.206 0.107 7.32 3.66 12.15
11/5/2020 3:00:00 AM 5.6 42.08 0.107 7.32 3.77 12.18
11/5/2020 3:15:00 AM 5.51 41.918 0.107 7.32 3.6 12.2
11/5/2020 3:30:00 AM 5.43 41.774 0.107 7.32 3.6 12.24
11/5/2020 3:45:00 AM 5.35 41.63 0.106 7.32 3.55 12.28
11/5/2020 4:00:00 AM 5.28 41.504 0.107 7.33 3.59 12.28
11/5/2020 4:15:00 AM 5.21 41.378 0.107 7.32 3.62 12.32
11/5/2020 4:30:00 AM 5.13 41.234 0.107 7.32 4.05 12.37
11/5/2020 4:45:00 AM 5.07 41.126 0.107 7.33 3.53 12.39
11/5/2020 5:00:00 AM 5.01 41.018 0.107 7.31 3.62 12.37
11/5/2020 5:15:00 AM 4.94 40.892 0.107 7.31 3.52 12.43
11/5/2020 5:30:00 AM 4.89 40.802 0.107 7.32 3.65 12.44
11/5/2020 5:45:00 AM 4.83 40.694 0.107 7.32 3.49 12.47
11/5/2020 6:00:00 AM 4.77 40.586 0.107 7.31 3.5 12.49
11/5/2020 6:15:00 AM 4.7 40.46 0.107 7.32 3.47 12.52
11/5/2020 6:30:00 AM 4.66 40.388 0.108 7.31 3.5 12.52
11/5/2020 6:45:00 AM 4.59 40.262 0.107 7.33 3.47 12.57
11/5/2020 7:00:00 AM 4.54 40.172 0.107 7.33 3.66 12.58
11/5/2020 7:15:00 AM 4.49 40.082 0.107 7.33 3.56 12.62
11/5/2020 7:30:00 AM 4.45 40.01 0.107 7.33 3.5 12.67
11/5/2020 7:45:00 AM 4.43 39.974 0.107 7.33 3.57 12.72
11/5/2020 8:00:00 AM 4.4 39.92 0.107 7.35 3.71 12.78
11/5/2020 8:15:00 AM 4.39 39.902 0.107 7.36 3.51 12.87
11/5/2020 8:30:00 AM 4.39 39.902 0.107 7.37 3.45 12.97
11/5/2020 8:45:00 AM 4.41 39.938 0.107 7.38 3.65 13.01
11/5/2020 9:00:00 AM 4.45 40.01 0.107 7.39 3.4 13.01
11/5/2020 9:15:00 AM 4.48 40.064 0.107 7.39 3.44 13.04
11/5/2020 9:30:00 AM 4.52 40.136 0.107 7.41 3.44 13.09
11/5/2020 9:45:00 AM 4.58 40.244 0.107 7.41 3.48 13.08
11/5/2020 10:00:00 AM 4.63 40.334 0.106 7.42 3.35 13.1
11/5/2020 10:15:00 AM 4.71 40.478 0.107 7.41 3.5 13.07
11/5/2020 10:30:00 AM 4.8 40.64 0.107 7.42 3.48 13.11
11/5/2020 10:45:00 AM 4.92 40.856 0.107 7.43 3.51 13.1
11/5/2020 11:00:00 AM 5.11 41.198 0.106 7.44 3.45 13.08
11/5/2020 11:15:00 AM 5.24 41.432 0.106 7.45 3.57 13.1
11/5/2020 11:30:00 AM 5.39 41.702 0.107 7.46 7.08 13.01
11/5/2020 11:45:00 AM 5.55 41.99 0.107 7.47 3.45 12.97
11/5/2020 12:00:00 PM 5.74 42.332 0.107 7.46 3.34 12.93
11/5/2020 12:15:00 PM 5.92 42.656 0.107 7.46 3.37 12.9
11/5/2020 12:30:00 PM 6.11 42.998 0.106 7.46 3.41 12.82
11/5/2020 12:45:00 PM 6.28 43.304 0.107 7.46 3.43 12.74
11/5/2020 1:00:00 PM 6.47 43.646 0.106 7.46 3.44 12.67
11/5/2020 1:15:00 PM 6.67 44.006 0.106 7.47 3.45 12.64
11/5/2020 1:30:00 PM 6.85 44.33 0.107 7.47 3.57 12.57
11/5/2020 1:45:00 PM 7.05 44.69 0.106 7.48 3.48 12.54
11/5/2020 2:00:00 PM 7.23 45.014 0.106 7.48 3.61 12.43
11/5/2020 2:15:00 PM 7.41 45.338 0.107 7.46 3.7 12.38
11/5/2020 2:30:00 PM 7.6 45.68 0.107 7.46 3.49 12.27
11/5/2020 2:45:00 PM 7.8 46.04 0.106 7.46 3.46 12.23
11/5/2020 3:00:00 PM 7.93 46.274 0.106 7.47 3.44 12.15
11/5/2020 3:15:00 PM 8.01 46.418 0.106 7.48 3.48 12.08
11/5/2020 3:30:00 PM 8.08 46.544 0.106 7.48 3.49 12.04
11/5/2020 3:45:00 PM 8.1 46.58 0.106 7.48 3.48 11.96
11/5/2020 4:00:00 PM 8.09 46.562 0.106 7.5 3.65 11.92
11/5/2020 4:15:00 PM 8.04 46.472 0.106 7.47 3.72 11.85
11/5/2020 4:30:00 PM 7.99 46.382 0.106 7.45 3.83 11.79
11/5/2020 4:45:00 PM 7.93 46.274 0.106 7.43 4.01 11.73
11/5/2020 5:00:00 PM 7.9 46.22 0.106 7.43 4 11.72
11/5/2020 5:15:00 PM 7.86 46.148 0.107 7.42 3.83 11.66
11/5/2020 5:30:00 PM 7.81 46.058 0.106 7.42 3.73 11.64
11/5/2020 5:45:00 PM 7.77 45.986 0.106 7.41 4.65 11.58
11/5/2020 6:00:00 PM 7.72 45.896 0.107 7.38 3.69 11.56
11/5/2020 6:15:00 PM 7.68 45.824 0.106 7.38 3.65 11.53
11/5/2020 6:30:00 PM 7.65 45.77 0.107 7.35 4.12 11.49
11/5/2020 6:45:00 PM 7.61 45.698 0.107 7.36 3.62 11.48
11/5/2020 7:00:00 PM 7.58 45.644 0.107 7.34 3.71 11.48
11/5/2020 7:15:00 PM 7.54 45.572 0.108 7.33 3.73 11.48
11/5/2020 7:30:00 PM 7.5 45.5 0.107 7.32 3.66 11.46
11/5/2020 7:45:00 PM 7.46 45.428 0.107 7.32 3.58 11.48
11/5/2020 8:00:00 PM 7.42 45.356 0.108 7.31 3.6 11.46
11/5/2020 8:15:00 PM 7.39 45.302 0.108 7.32 3.64 11.45
11/5/2020 8:30:00 PM 7.36 45.248 0.108 7.3 3.65 11.44
11/5/2020 8:45:00 PM 7.34 45.212 0.109 7.28 3.58 11.45
11/5/2020 9:00:00 PM 7.31 45.158 0.109 7.29 3.54 11.51
11/5/2020 9:15:00 PM 7.29 45.122 0.108 7.28 3.51 11.51
11/5/2020 9:30:00 PM 7.26 45.068 0.108 7.3 3.49 11.55
11/5/2020 9:45:00 PM 7.23 45.014 0.109 7.28 3.57 11.51
11/5/2020 10:00:00 PM 7.21 44.978 0.108 7.3 3.49 11.51
11/5/2020 10:15:00 PM 7.19 44.942 0.109 7.29 3.59 11.53
11/5/2020 10:30:00 PM 7.17 44.906 0.109 7.27 3.46 11.54
11/5/2020 10:45:00 PM 7.15 44.87 0.109 7.29 3.58 11.51
11/5/2020 11:00:00 PM 7.13 44.834 0.109 7.28 3.68 11.55
11/5/2020 11:15:00 PM 7.1 44.78 0.109 7.28 3.64 11.55
11/5/2020 11:30:00 PM 7.07 44.726 0.109 7.29 3.66 11.59
11/5/2020 11:45:00 PM 7.04 44.672 0.109 7.28 3.51 11.61
11/6/2020 12:00:00 AM 7.01 44.618 0.109 7.28 4.04 11.6
11/6/2020 12:15:00 AM 6.99 44.582 0.109 7.29 3.61 11.64
11/6/2020 12:30:00 AM 6.97 44.546 0.109 7.28 3.45 11.6
11/6/2020 12:45:00 AM 6.96 44.528 0.11 7.27 3.61 11.56
11/6/2020 1:00:00 AM 6.93 44.474 0.109 7.27 3.51 11.62
11/6/2020 1:15:00 AM 6.91 44.438 0.109 7.28 3.53 11.66
11/6/2020 1:30:00 AM 6.9 44.42 0.11 7.27 3.57 11.6
11/6/2020 1:45:00 AM 6.87 44.366 0.11 7.27 4.18 11.65
11/6/2020 2:00:00 AM 6.85 44.33 0.11 7.26 3.48 11.66
11/6/2020 2:15:00 AM 6.81 44.258 0.109 7.29 3.51 11.7
11/6/2020 2:30:00 AM 6.78 44.204 0.109 7.29 3.51 11.71
11/6/2020 2:45:00 AM 6.73 44.114 0.11 7.29 3.46 11.73
11/6/2020 3:00:00 AM 6.69 44.042 0.109 7.29 3.5 11.73
11/6/2020 3:15:00 AM 6.64 43.952 0.11 7.29 3.52 11.74
11/6/2020 3:30:00 AM 6.58 43.844 0.109 7.3 3.53 11.78
11/6/2020 3:45:00 AM 6.52 43.736 0.109 7.31 3.44 11.83
11/6/2020 4:00:00 AM 6.45 43.61 0.109 7.31 3.35 11.83
11/6/2020 4:15:00 AM 6.39 43.502 0.109 7.32 3.41 11.87
11/6/2020 4:30:00 AM 6.33 43.394 0.109 7.31 3.43 11.86
11/6/2020 4:45:00 AM 6.27 43.286 0.109 7.3 3.44 11.88
11/6/2020 5:00:00 AM 6.22 43.196 0.111 7.28 3.58 11.85
11/6/2020 5:15:00 AM 6.16 43.088 0.11 7.27 3.42 11.84
11/6/2020 5:30:00 AM 6.1 42.98 0.11 7.29 3.43 11.89
11/6/2020 5:45:00 AM 6.03 42.854 0.11 7.28 3.45 11.88
11/6/2020 6:00:00 AM 5.95 42.71 0.11 7.29 3.39 11.95
11/6/2020 6:15:00 AM 5.91 42.638 0.111 7.28 3.55 11.93
11/6/2020 6:30:00 AM 5.84 42.512 0.11 7.29 3.47 11.98
11/6/2020 6:45:00 AM 5.78 42.404 0.11 7.29 3.64 12.03
11/6/2020 7:00:00 AM 5.74 42.332 0.11 7.29 3.36 12.03
11/6/2020 7:15:00 AM 5.7 42.26 0.11 7.29 3.6 12.04
11/6/2020 7:30:00 AM 5.65 42.17 0.11 7.31 3.35 12.08
11/6/2020 7:45:00 AM 5.62 42.116 0.11 7.31 3.55 12.14
11/6/2020 8:00:00 AM 5.61 42.098 0.11 7.31 3.29 12.19
11/6/2020 8:15:00 AM 5.6 42.08 0.111 7.31 3.43 12.27
11/6/2020 8:30:00 AM 5.61 42.098 0.111 7.3 3.58 12.31
11/6/2020 8:45:00 AM 5.62 42.116 0.11 7.35 3.35 12.42
11/6/2020 9:00:00 AM 5.66 42.188 0.111 7.34 3.36 12.46
11/6/2020 9:15:00 AM 5.71 42.278 0.11 7.35 3.35 12.58
11/6/2020 9:30:00 AM 5.79 42.422 0.109 7.39 3.64 12.66
11/6/2020 9:45:00 AM 5.86 42.548 0.11 7.38 3.31 12.67
11/6/2020 10:00:00 AM 5.93 42.674 0.11 7.38 3.26 12.64
11/6/2020 10:15:00 AM 6.05 42.89 0.11 7.38 3.3 12.64
11/6/2020 10:30:00 AM 6.2 43.16 0.11 7.41 3.27 12.65
11/6/2020 10:45:00 AM 6.37 43.466 0.11 7.41 3.33 12.6
11/6/2020 11:00:00 AM 6.52 43.736 0.112 7.39 3.28 12.56
11/6/2020 11:15:00 AM 6.74 44.132 0.111 7.42 3.23 12.53
11/6/2020 11:30:00 AM 6.96 44.528 0.111 7.42 3.34 12.52
11/6/2020 11:45:00 AM 7.17 44.906 0.111 7.42 3.29 12.48
11/6/2020 12:00:00 PM 7.43 45.374 0.11 7.43 3.45 12.47
11/6/2020 12:15:00 PM 7.69 45.842 0.11 7.45 3.27 12.38
11/6/2020 12:30:00 PM 7.95 46.31 0.11 7.44 3.28 12.29
11/6/2020 12:45:00 PM 8.26 46.868 0.109 7.49 3.35 12.23
11/6/2020 1:00:00 PM 8.54 47.372 0.11 7.47 3.4 12.16
11/6/2020 1:15:00 PM 8.87 47.966 0.109 7.53 3.22 12.1
11/6/2020 1:30:00 PM 9.17 48.506 0.109 7.52 3.77 12
11/6/2020 1:45:00 PM 9.47 49.046 0.109 7.53 3.22 11.89
11/6/2020 2:00:00 PM 9.77 49.586 0.109 7.52 3.25 11.77
11/6/2020 2:15:00 PM 10.05 50.09 0.109 7.52 3.58 11.67
11/6/2020 2:30:00 PM 10.28 50.504 0.109 7.53 6.48 11.55
11/6/2020 2:45:00 PM 10.46 50.828 0.11 7.53 3.71 11.5
11/6/2020 3:00:00 PM 10.59 51.062 0.11 7.53 3.65 11.42
11/6/2020 3:15:00 PM 10.63 51.134 0.109 7.55 3.49 11.35
11/6/2020 3:30:00 PM 10.59 51.062 0.11 7.53 3.72 11.32
11/6/2020 3:45:00 PM 10.55 50.99 0.11 7.54 3.69 11.25
11/6/2020 4:00:00 PM 10.49 50.882 0.109 7.53 3.75 11.23
11/6/2020 4:15:00 PM 10.41 50.738 0.11 7.49 4.44 11.12
11/6/2020 4:30:00 PM 10.33 50.594 0.109 7.5 3.61 11.09
11/6/2020 4:45:00 PM 10.24 50.432 0.11 7.45 3.62 11
11/6/2020 5:00:00 PM 10.13 50.234 0.109 7.45 3.84 10.94
11/6/2020 5:15:00 PM 10.05 50.09 0.11 7.43 3.9 10.85
11/6/2020 5:30:00 PM 9.96 49.928 0.11 7.41 3.79 10.85
11/6/2020 5:45:00 PM 9.86 49.748 0.11 7.39 3.8 10.8
11/6/2020 6:00:00 PM 9.77 49.586 0.11 7.39 3.77 10.77
11/6/2020 6:15:00 PM 9.67 49.406 0.109 7.37 3.79 10.77
11/6/2020 6:30:00 PM 9.56 49.208 0.11 7.37 4.43 10.81
11/6/2020 6:45:00 PM 9.45 49.01 0.11 7.36 3.55 10.82
11/6/2020 7:00:00 PM 9.33 48.794 0.109 7.36 3.64 10.86
11/6/2020 7:15:00 PM 9.24 48.632 0.11 7.33 3.64 10.83
11/6/2020 7:30:00 PM 9.12 48.416 0.11 7.32 3.65 10.86
11/6/2020 7:45:00 PM 9.02 48.236 0.11 7.33 3.52 10.92
11/6/2020 8:00:00 PM 8.91 48.038 0.11 7.34 3.5 10.95
11/6/2020 8:15:00 PM 8.82 47.876 0.11 7.32 3.7 10.92
11/6/2020 8:30:00 PM 8.73 47.714 0.11 7.32 3.66 10.96
11/6/2020 8:45:00 PM 8.64 47.552 0.11 7.32 3.71 11.01
11/6/2020 9:00:00 PM 8.57 47.426 0.11 7.32 5.42 10.97
11/6/2020 9:15:00 PM 8.49 47.282 0.111 7.3 3.75 11.01
11/6/2020 9:30:00 PM 8.41 47.138 0.11 7.32 5.22 11.1
11/6/2020 9:45:00 PM 8.35 47.03 0.11 7.32 3.96 11.09
11/6/2020 10:00:00 PM 8.28 46.904 0.11 7.32 3.78 11.1
11/6/2020 10:15:00 PM 8.21 46.778 0.11 7.32 3.74 11.15
11/6/2020 10:30:00 PM 8.14 46.652 0.11 7.32 3.75 11.17
11/6/2020 10:45:00 PM 8.08 46.544 0.11 7.32 3.81 11.16
11/6/2020 11:00:00 PM 8.01 46.418 0.11 7.31 5.24 11.18
11/6/2020 11:15:00 PM 7.93 46.274 0.111 7.31 3.6 11.21
11/6/2020 11:30:00 PM 7.88 46.184 0.111 7.31 3.66 11.2
11/6/2020 11:45:00 PM 7.79 46.022 0.111 7.31 3.76 11.24
11/7/2020 12:00:00 AM 7.71 45.878 0.111 7.32 3.82 11.32
11/7/2020 12:15:00 AM 7.66 45.788 0.111 7.31 3.52 11.29
11/7/2020 12:30:00 AM 7.6 45.68 0.111 7.31 3.66 11.3
11/7/2020 12:45:00 AM 7.52 45.536 0.111 7.31 3.64 11.36
11/7/2020 1:00:00 AM 7.46 45.428 0.111 7.32 3.86 11.37
11/7/2020 1:15:00 AM 7.39 45.302 0.112 7.3 3.68 11.37
11/7/2020 1:30:00 AM 7.33 45.194 0.112 7.3 3.76 11.38
11/7/2020 1:45:00 AM 7.26 45.068 0.112 7.3 3.65 11.4
11/7/2020 2:00:00 AM 7.18 44.924 0.112 7.3 3.66 11.45
11/7/2020 2:15:00 AM 7.11 44.798 0.112 7.3 3.64 11.46
11/7/2020 2:30:00 AM 7.04 44.672 0.112 7.3 3.45 11.49
11/7/2020 2:45:00 AM 6.97 44.546 0.112 7.3 3.66 11.53
11/7/2020 3:00:00 AM 6.9 44.42 0.112 7.31 3.52 11.57
11/7/2020 3:15:00 AM 6.83 44.294 0.112 7.31 3.49 11.59
11/7/2020 3:30:00 AM 6.76 44.168 0.112 7.3 3.53 11.58
11/7/2020 3:45:00 AM 6.68 44.024 0.112 7.31 3.54 11.63
11/7/2020 4:00:00 AM 6.61 43.898 0.112 7.32 3.49 11.68
11/7/2020 4:15:00 AM 6.54 43.772 0.112 7.32 3.51 11.75
11/7/2020 4:30:00 AM 6.47 43.646 0.112 7.31 3.46 11.73
11/7/2020 4:45:00 AM 6.41 43.538 0.112 7.32 3.68 11.72
11/7/2020 5:00:00 AM 6.34 43.412 0.112 7.32 3.61 11.79
11/7/2020 5:15:00 AM 6.27 43.286 0.112 7.33 3.81 11.8
11/7/2020 5:30:00 AM 6.2 43.16 0.112 7.32 3.39 11.82
11/7/2020 5:45:00 AM 6.15 43.07 0.112 7.31 3.53 11.81
11/7/2020 6:00:00 AM 6.09 42.962 0.112 7.3 3.5 11.84
11/7/2020 6:15:00 AM 6.02 42.836 0.112 7.32 3.36 11.89
11/7/2020 6:30:00 AM 5.97 42.746 0.112 7.33 3.4 11.94
11/7/2020 6:45:00 AM 5.93 42.674 0.112 7.31 3.43 11.94
11/7/2020 7:00:00 AM 5.87 42.566 0.112 7.32 3.39 11.96
11/7/2020 7:15:00 AM 5.84 42.512 0.112 7.32 3.3 11.98
11/7/2020 7:30:00 AM 5.77 42.386 0.112 7.33 3.29 12.05
11/7/2020 7:45:00 AM 5.75 42.35 0.113 7.31 3.4 12.1
11/7/2020 8:00:00 AM 5.71 42.278 0.112 7.33 3.43 12.15
11/7/2020 8:15:00 AM 5.68 42.224 0.112 7.34 3.38 12.29
11/7/2020 8:30:00 AM 5.67 42.206 0.112 7.36 4.58 12.35
11/7/2020 8:45:00 AM 5.68 42.224 0.112 7.37 3.9 12.4
11/7/2020 9:00:00 AM 5.69 42.242 0.112 7.38 3.11 12.52
11/7/2020 9:15:00 AM 5.73 42.314 0.112 7.39 3.45 12.59
11/7/2020 9:30:00 AM 5.76 42.368 0.111 7.41 4.07 12.65
11/7/2020 9:45:00 AM 5.81 42.458 0.111 7.44 3.48 12.73
11/7/2020 10:00:00 AM 5.91 42.638 0.111 7.44 3.43 12.72
11/7/2020 10:15:00 AM 6.02 42.836 0.111 7.46 3.19 12.73
11/7/2020 10:30:00 AM 6.15 43.07 0.111 7.47 3.15 12.71
11/7/2020 10:45:00 AM 6.3 43.34 0.111 7.48 3.15 12.71
11/7/2020 11:00:00 AM 6.5 43.7 0.111 7.47 3.17 12.68
11/7/2020 11:15:00 AM 6.68 44.024 0.111 7.47 3.31 12.64
11/7/2020 11:30:00 AM 6.9 44.42 0.112 7.47 3.5 12.61
11/7/2020 11:45:00 AM 7.15 44.87 0.111 7.5 3.27 12.56
11/7/2020 12:00:00 PM 7.36 45.248 0.112 7.46 9.69 12.48
11/7/2020 12:15:00 PM 7.62 45.716 0.111 7.48 3.69 12.45
11/7/2020 12:30:00 PM 7.86 46.148 0.112 7.47 4.12 12.34
11/7/2020 12:45:00 PM 8.13 46.634 0.112 7.47 3.22 12.26
11/7/2020 1:00:00 PM 8.4 47.12 0.112 7.48 3.18 12.2
11/7/2020 1:15:00 PM 8.7 47.66 0.112 7.51 3.18 12.13
11/7/2020 1:30:00 PM 9.03 48.254 0.111 7.54 3.24 12.11
11/7/2020 1:45:00 PM 9.29 48.722 0.112 7.52 3.34 11.96
11/7/2020 2:00:00 PM 9.52 49.136 0.113 7.44 6.67 11.79
11/7/2020 2:15:00 PM 9.73 49.514 0.113 7.47 3.48 11.67
11/7/2020 2:30:00 PM 10.02 50.036 0.113 7.44 3.57 11.65
11/7/2020 2:45:00 PM 10.19 50.342 0.112 7.47 3.26 11.57
11/7/2020 3:00:00 PM 10.35 50.63 0.113 7.45 3.83 11.46
11/7/2020 3:15:00 PM 10.44 50.792 0.113 7.47 3.75 11.41
11/7/2020 3:30:00 PM 10.43 50.774 0.113 7.45 3.46 11.3
11/7/2020 3:45:00 PM 10.42 50.756 0.112 7.49 3.25 11.3
11/7/2020 4:00:00 PM 10.38 50.684 0.112 7.5 3.35 11.26
11/7/2020 4:15:00 PM 10.35 50.63 0.111 7.51 3.32 11.25
11/7/2020 4:30:00 PM 10.29 50.522 0.111 7.5 3.74 11.22
11/7/2020 4:45:00 PM 10.22 50.396 0.111 7.49 3.38 11.13
11/7/2020 5:00:00 PM 10.16 50.288 0.111 7.48 3.33 11.06
11/7/2020 5:15:00 PM 10.1 50.18 0.111 7.45 3.32 10.95
11/7/2020 5:30:00 PM 10.04 50.072 0.111 7.46 3.36 10.93
11/7/2020 5:45:00 PM 9.98 49.964 0.112 7.43 3.38 10.81
11/7/2020 6:00:00 PM 9.9 49.82 0.112 7.42 3.77 10.78
11/7/2020 6:15:00 PM 9.82 49.676 0.112 7.41 3.76 10.72
11/7/2020 6:30:00 PM 9.71 49.478 0.112 7.4 3.68 10.74
11/7/2020 6:45:00 PM 9.59 49.262 0.111 7.39 3.38 10.82
11/7/2020 7:00:00 PM 9.47 49.046 0.111 7.38 3.52 10.78
11/7/2020 7:15:00 PM 9.36 48.848 0.111 7.36 3.81 10.73
11/7/2020 7:30:00 PM 9.24 48.632 0.111 7.36 3.43 10.82
11/7/2020 7:45:00 PM 9.13 48.434 0.111 7.35 3.54 10.8
11/7/2020 8:00:00 PM 9 48.2 0.111 7.35 3.59 10.85
11/7/2020 8:15:00 PM 8.86 47.948 0.111 7.35 3.34 10.93
11/7/2020 8:30:00 PM 8.76 47.768 0.111 7.35 3.47 10.91
11/7/2020 8:45:00 PM 8.66 47.588 0.112 7.33 3.49 10.95
11/7/2020 9:00:00 PM 8.55 47.39 0.111 7.33 3.55 10.93
11/7/2020 9:15:00 PM 8.46 47.228 0.112 7.32 4.03 10.95
11/7/2020 9:30:00 PM 8.36 47.048 0.112 7.32 3.4 11.01
11/7/2020 9:45:00 PM 8.27 46.886 0.111 7.32 3.28 11.01
11/7/2020 10:00:00 PM 8.18 46.724 0.111 7.33 3.4 11.08
11/7/2020 10:15:00 PM 8.06 46.508 0.111 7.33 3.4 11.12
11/7/2020 10:30:00 PM 7.98 46.364 0.111 7.34 3.33 11.23
11/7/2020 10:45:00 PM 7.89 46.202 0.111 7.34 3.26 11.26
11/7/2020 11:00:00 PM 7.8 46.04 0.111 7.35 3.39 11.34
11/7/2020 11:15:00 PM 7.71 45.878 0.111 7.34 4.58 11.32
11/7/2020 11:30:00 PM 7.64 45.752 0.111 7.34 3.29 11.35
11/7/2020 11:45:00 PM 7.58 45.644 0.112 7.33 3.49 11.33
11/8/2020 12:00:00 AM 7.5 45.5 0.112 7.33 3.26 11.37
11/8/2020 12:15:00 AM 7.42 45.356 0.112 7.34 3.19 11.42
11/8/2020 12:30:00 AM 7.3 45.14 0.112 7.34 3.25 11.51
11/8/2020 12:45:00 AM 7.26 45.068 0.112 7.33 3.27 11.47
11/8/2020 1:00:00 AM 7.17 44.906 0.112 7.33 3.27 11.53
11/8/2020 1:15:00 AM 7.08 44.744 0.113 7.34 3.59 11.6
11/8/2020 1:30:00 AM 7.01 44.618 0.113 7.34 3.18 11.61
11/8/2020 1:45:00 AM 6.94 44.492 0.113 7.34 3.35 11.62
11/8/2020 2:00:00 AM 6.87 44.366 0.113 7.33 3.31 11.56
11/8/2020 2:15:00 AM 6.79 44.222 0.113 7.34 3.17 11.65
11/8/2020 2:30:00 AM 6.69 44.042 0.113 7.35 3.18 11.73
11/8/2020 2:45:00 AM 6.62 43.916 0.113 7.35 3.2 11.77
11/8/2020 3:00:00 AM 6.55 43.79 0.113 7.34 9.99 11.7
11/8/2020 3:15:00 AM 6.48 43.664 0.113 7.35 3.36 11.8
11/8/2020 3:30:00 AM 6.4 43.52 0.113 7.34 3.28 11.83
11/8/2020 3:45:00 AM 6.35 43.43 0.113 7.33 3.39 11.82
11/8/2020 4:00:00 AM 6.28 43.304 0.113 7.34 3.35 11.82
11/8/2020 4:15:00 AM 6.19 43.142 0.113 7.34 3.33 11.89
11/8/2020 4:30:00 AM 6.15 43.07 0.113 7.33 3.38 11.87
11/8/2020 4:45:00 AM 6.05 42.89 0.113 7.33 3.33 11.9
11/8/2020 5:00:00 AM 5.98 42.764 0.113 7.33 3.31 11.95
11/8/2020 5:15:00 AM 5.91 42.638 0.113 7.33 3.39 12
11/8/2020 5:30:00 AM 5.84 42.512 0.113 7.33 3.35 12
11/8/2020 5:45:00 AM 5.77 42.386 0.113 7.33 3.25 12.03
11/8/2020 6:00:00 AM 5.71 42.278 0.113 7.32 3.39 12.01
11/8/2020 6:15:00 AM 5.61 42.098 0.113 7.34 7.49 12.08
11/8/2020 6:30:00 AM 5.54 41.972 0.113 7.33 3.1 12.11
11/8/2020 6:45:00 AM 5.47 41.846 0.113 7.34 3.11 12.16
11/8/2020 7:00:00 AM 5.41 41.738 0.113 7.35 3.01 12.21
11/8/2020 7:15:00 AM 5.34 41.612 0.114 7.33 3.18 12.18
11/8/2020 7:30:00 AM 5.28 41.504 0.114 7.34 3.03 12.23
11/8/2020 7:45:00 AM 5.19 41.342 0.113 7.36 3.03 12.38
11/8/2020 8:00:00 AM 5.16 41.288 0.113 7.36 3.07 12.44
11/8/2020 8:15:00 AM 5.09 41.162 0.113 7.37 3.01 12.59
11/8/2020 8:30:00 AM 5.09 41.162 0.114 7.36 3.01 12.57
11/8/2020 8:45:00 AM 5.07 41.126 0.113 7.36 3.05 12.63
11/8/2020 9:00:00 AM 5.07 41.126 0.113 7.39 3.04 12.72
11/8/2020 9:15:00 AM 5.08 41.144 0.113 7.39 3.08 12.79
11/8/2020 9:30:00 AM 5.12 41.216 0.114 7.39 2.99 12.8
11/8/2020 9:45:00 AM 5.19 41.342 0.114 7.41 2.98 12.88
11/8/2020 10:00:00 AM 5.3 41.54 0.113 7.42 3.03 12.9
11/8/2020 10:15:00 AM 5.42 41.756 0.113 7.44 2.93 12.92
11/8/2020 10:30:00 AM 5.59 42.062 0.113 7.44 2.98 12.94
11/8/2020 10:45:00 AM 5.77 42.386 0.113 7.46 3.05 12.91
11/8/2020 11:00:00 AM 5.98 42.764 0.113 7.49 2.95 12.95
11/8/2020 11:15:00 AM 6.2 43.16 0.113 7.48 3.12 12.91
11/8/2020 11:30:00 AM 6.4 43.52 0.113 7.51 2.98 12.88
11/8/2020 11:45:00 AM 6.64 43.952 0.113 7.5 2.95 12.79
11/8/2020 12:00:00 PM 6.86 44.348 0.113 7.52 3.15 12.73
11/8/2020 12:15:00 PM 7.13 44.834 0.112 7.51 3.03 12.68
11/8/2020 12:30:00 PM 7.38 45.284 0.113 7.48 3.06 12.63
11/8/2020 12:45:00 PM 7.62 45.716 0.113 7.51 2.98 12.53
11/8/2020 1:00:00 PM 7.88 46.184 0.114 7.49 2.97 12.44
11/8/2020 1:15:00 PM 8.18 46.724 0.114 7.51 2.96 12.39
11/8/2020 1:30:00 PM 8.45 47.21 0.113 7.49 3.62 12.31
11/8/2020 1:45:00 PM 8.87 47.966 0.112 7.53 3.07 12.26
11/8/2020 2:00:00 PM 9.01 48.218 0.114 7.48 3.07 12.1
11/8/2020 2:15:00 PM 9.47 49.046 0.112 7.57 3.3 12.08
11/8/2020 2:30:00 PM 9.63 49.334 0.114 7.54 3.41 11.96
11/8/2020 2:45:00 PM 9.79 49.622 0.115 7.48 3.3 11.8
11/8/2020 3:00:00 PM 9.94 49.892 0.114 7.5 3.26 11.65
11/8/2020 3:15:00 PM 10.08 50.144 0.114 7.54 3.32 11.64
11/8/2020 3:30:00 PM 10.26 50.468 0.112 7.58 3.3 11.62
11/8/2020 3:45:00 PM 10.12 50.216 0.113 7.51 3.28 11.49
11/8/2020 4:00:00 PM 10.09 50.162 0.113 7.54 3.57 11.47
11/8/2020 4:15:00 PM 10 50 0.113 7.51 3.26 11.37
11/8/2020 4:30:00 PM 9.93 49.874 0.112 7.55 3.25 11.35
11/8/2020 4:45:00 PM 9.82 49.676 0.113 7.47 3.38 11.21
11/8/2020 5:00:00 PM 9.74 49.532 0.113 7.48 3.27 11.14
11/8/2020 5:15:00 PM 9.66 49.388 0.113 7.46 3.4 11.06
11/8/2020 5:30:00 PM 9.61 49.298 0.113 7.46 3.16 11
11/8/2020 5:45:00 PM 9.55 49.19 0.113 7.47 3.16 11.03
11/8/2020 6:00:00 PM 9.49 49.082 0.114 7.41 4.05 10.77
11/8/2020 6:15:00 PM 9.42 48.956 0.114 7.41 3.23 10.9
11/8/2020 6:30:00 PM 9.35 48.83 0.114 7.4 3.68 10.91
11/8/2020 6:45:00 PM 9.28 48.704 0.114 7.4 3.71 10.88
11/8/2020 7:00:00 PM 9.18 48.524 0.114 7.38 3.63 10.91
11/8/2020 7:15:00 PM 9.08 48.344 0.114 7.38 3.67 10.91
11/8/2020 7:30:00 PM 8.97 48.146 0.114 7.38 3.55 10.95
11/8/2020 7:45:00 PM 8.85 47.93 0.114 7.37 3.66 10.95
11/8/2020 8:00:00 PM 8.71 47.678 0.114 7.36 7.3 10.99
11/8/2020 8:15:00 PM 8.58 47.444 0.114 7.36 3.46 11.09
11/8/2020 8:30:00 PM 8.47 47.246 0.114 7.37 3.42 11.13
11/8/2020 8:45:00 PM 8.37 47.066 0.114 7.35 3.47 11.11
11/8/2020 9:00:00 PM 8.25 46.85 0.114 7.35 3.86 11.12
11/8/2020 9:15:00 PM 8.13 46.634 0.114 7.35 5.08 11.22
11/8/2020 9:30:00 PM 8.05 46.49 0.114 7.34 3.42 11.19
11/8/2020 9:45:00 PM 7.95 46.31 0.114 7.33 5.66 11.2
11/8/2020 10:00:00 PM 7.86 46.148 0.114 7.34 3.45 11.28
11/8/2020 10:15:00 PM 7.78 46.004 0.114 7.33 3.18 11.33
11/8/2020 10:30:00 PM 7.7 45.86 0.114 7.33 3.41 11.36
11/8/2020 10:45:00 PM 7.66 45.788 0.114 7.31 3.31 11.32
11/8/2020 11:00:00 PM 7.59 45.662 0.115 7.3 3.96 11.22
11/8/2020 11:15:00 PM 7.5 45.5 0.115 7.31 3.64 11.33
11/8/2020 11:30:00 PM 7.44 45.392 0.115 7.32 3.16 11.37
11/8/2020 11:45:00 PM 7.36 45.248 0.114 7.31 3.29 11.42
11/9/2020 12:00:00 AM 7.29 45.122 0.115 7.32 3.16 11.47
11/9/2020 12:15:00 AM 7.21 44.978 0.115 7.32 3.09 11.49
11/9/2020 12:30:00 AM 7.16 44.888 0.115 7.32 3.13 11.5
11/9/2020 12:45:00 AM 7.06 44.708 0.115 7.34 3.06 11.59
11/9/2020 1:00:00 AM 7 44.6 0.115 7.33 3.09 11.61
11/9/2020 1:15:00 AM 6.93 44.474 0.115 7.33 3.15 11.64
11/9/2020 1:30:00 AM 6.86 44.348 0.115 7.33 3.06 11.65
11/9/2020 1:45:00 AM 6.8 44.24 0.115 7.33 3.08 11.63
11/9/2020 2:00:00 AM 6.72 44.096 0.115 7.32 3.09 11.69
11/9/2020 2:15:00 AM 6.66 43.988 0.115 7.33 3.12 11.7
11/9/2020 2:30:00 AM 6.59 43.862 0.115 7.32 3.28 11.72
11/9/2020 2:45:00 AM 6.51 43.718 0.116 7.33 3.12 11.72
11/9/2020 3:00:00 AM 6.47 43.646 0.116 7.32 3.08 11.72
11/9/2020 3:15:00 AM 6.39 43.502 0.116 7.34 3.14 11.78
11/9/2020 3:30:00 AM 6.32 43.376 0.116 7.33 3.22 11.79
11/9/2020 3:45:00 AM 6.25 43.25 0.116 7.33 3.04 11.81
11/9/2020 4:00:00 AM 6.17 43.106 0.116 7.32 3.07 11.86
11/9/2020 4:15:00 AM 6.1 42.98 0.116 7.33 3.82 11.9
11/9/2020 4:30:00 AM 6.07 42.926 0.116 7.32 3.16 11.87
11/9/2020 4:45:00 AM 6.02 42.836 0.116 7.31 3.37 11.83
11/9/2020 5:00:00 AM 5.95 42.71 0.116 7.32 3.14 11.88
11/9/2020 5:15:00 AM 5.89 42.602 0.116 7.31 3.09 11.88
11/9/2020 5:30:00 AM 5.82 42.476 0.116 7.33 3.13 11.96
11/9/2020 5:45:00 AM 5.76 42.368 0.116 7.32 3.15 11.96
11/9/2020 6:00:00 AM 5.7 42.26 0.116 7.3 3.13 11.94
11/9/2020 6:15:00 AM 5.64 42.152 0.116 7.3 3.07 11.95
11/9/2020 6:30:00 AM 5.6 42.08 0.117 7.28 3.06 11.92
11/9/2020 6:45:00 AM 5.46 41.828 0.116 7.31 3.94 12.02
11/9/2020 7:00:00 AM 5.45 41.81 0.116 7.3 3.08 12.05
11/9/2020 7:15:00 AM 5.37 41.666 0.116 7.3 3.18 12.09
11/9/2020 7:30:00 AM 5.32 41.576 0.117 7.31 3.05 12.12
11/9/2020 7:45:00 AM 5.27 41.486 0.116 7.31 3.07 12.16
11/9/2020 8:00:00 AM 5.21 41.378 0.116 7.32 3.05 12.29
11/9/2020 8:15:00 AM 5.19 41.342 0.116 7.32 3.02 12.34
11/9/2020 8:30:00 AM 5.17 41.306 0.117 7.32 3.07 12.33
11/9/2020 8:45:00 AM 5.12 41.216 0.116 7.34 2.96 12.47
11/9/2020 9:00:00 AM 5.09 41.162 0.116 7.37 5.7 12.74
11/9/2020 9:15:00 AM 5.11 41.198 0.116 7.36 3.16 12.68
11/9/2020 9:30:00 AM 5.15 41.27 0.115 7.38 5.88 12.74
11/9/2020 9:45:00 AM 5.2 41.36 0.116 7.37 3.25 12.7
11/9/2020 10:00:00 AM 5.29 41.522 0.116 7.37 3.03 12.81
11/9/2020 10:15:00 AM 5.41 41.738 0.116 7.39 2.93 12.86
11/9/2020 10:30:00 AM 5.59 42.062 0.117 7.36 2.95 12.83
11/9/2020 10:45:00 AM 5.76 42.368 0.116 7.39 3.52 12.72
11/9/2020 11:00:00 AM 5.95 42.71 0.116 7.39 3.07 12.74
11/9/2020 11:15:00 AM 6.14 43.052 0.116 7.38 3.11 12.69
11/9/2020 11:30:00 AM 6.42 43.556 0.115 7.42 3.02 12.72
11/9/2020 11:45:00 AM 6.63 43.934 0.114 7.44 2.91 12.72
11/9/2020 12:00:00 PM 6.88 44.384 0.115 7.45 3.28 12.67
11/9/2020 12:15:00 PM 7.11 44.798 0.115 7.44 2.95 12.57
11/9/2020 12:30:00 PM 7.28 45.104 0.116 7.39 3.56 12.46
11/9/2020 12:45:00 PM 7.65 45.77 0.114 7.43 3.57 12.44
11/9/2020 1:00:00 PM 7.89 46.202 0.114 7.49 3.53 12.38
11/9/2020 1:15:00 PM 8.14 46.652 0.114 7.51 3.04 12.22
11/9/2020 1:30:00 PM 8.47 47.246 0.114 7.51 3.33 12.11
11/9/2020 1:45:00 PM 8.74 47.732 0.116 7.47 3.18 12.03
11/9/2020 2:00:00 PM 8.93 48.074 0.117 7.42 3.33 11.85
11/9/2020 2:15:00 PM 9.43 48.974 0.115 7.49 2.91 11.99
11/9/2020 2:30:00 PM 9.51 49.118 0.118 7.39 3.36 11.61
11/9/2020 2:45:00 PM 9.69 49.442 0.119 7.33 3.16 11.5
11/9/2020 3:00:00 PM 9.88 49.784 0.118 7.32 3.23 11.41
11/9/2020 3:15:00 PM 10.08 50.144 0.117 7.39 3.05 11.4
11/9/2020 3:30:00 PM 10.12 50.216 0.117 7.35 3.11 11.18
11/9/2020 3:45:00 PM 10.18 50.324 0.115 7.41 3.8 11.2
11/9/2020 4:00:00 PM 10.21 50.378 0.114 7.52 3.17 11.31
11/9/2020 4:15:00 PM 10.14 50.252 0.114 7.53 3.31 11.2
11/9/2020 4:30:00 PM 10.07 50.126 0.113 7.54 4.08 11.23
11/9/2020 4:45:00 PM 9.97 49.946 0.114 7.53 3.05 11.19
11/9/2020 5:00:00 PM 9.9 49.82 0.114 7.54 2.92 11.14
11/9/2020 5:15:00 PM 9.88 49.784 0.114 7.51 3.44 11.02
11/9/2020 5:30:00 PM 9.81 49.658 0.114 7.48 3.44 10.9
11/9/2020 5:45:00 PM 9.77 49.586 0.115 7.39 7.82 10.65
11/9/2020 6:00:00 PM 9.72 49.496 0.115 7.41 4.98 10.75
11/9/2020 6:15:00 PM 9.66 49.388 0.115 7.38 3.61 10.69
11/9/2020 6:30:00 PM 9.6 49.28 0.116 7.36 3.79 10.6
11/9/2020 6:45:00 PM 9.53 49.154 0.116 7.36 3.89 10.62
11/9/2020 7:00:00 PM 9.43 48.974 0.115 7.36 3.13 10.68
11/9/2020 7:15:00 PM 9.35 48.83 0.115 7.35 3.27 10.67
11/9/2020 7:30:00 PM 9.25 48.65 0.116 7.35 3.24 10.7
11/9/2020 7:45:00 PM 9.15 48.47 0.116 7.36 3.17 10.74
11/9/2020 8:00:00 PM 9.04 48.272 0.116 7.34 3.58 10.69
11/9/2020 8:15:00 PM 8.91 48.038 0.115 7.35 3.21 10.83
11/9/2020 8:30:00 PM 8.82 47.876 0.116 7.33 3.39 10.78
11/9/2020 8:45:00 PM 8.7 47.66 0.116 7.34 3.39 10.84
11/9/2020 9:00:00 PM 8.6 47.48 0.116 7.34 3.26 10.89
11/9/2020 9:15:00 PM 8.5 47.3 0.116 7.34 3.17 10.9
11/9/2020 9:30:00 PM 8.42 47.156 0.116 7.31 3.25 10.88
11/9/2020 9:45:00 PM 8.3 46.94 0.116 7.34 3.44 10.98
11/9/2020 10:00:00 PM 8.23 46.814 0.116 7.31 3.69 10.93
11/9/2020 10:15:00 PM 8.14 46.652 0.116 7.31 3.33 10.98
11/9/2020 10:30:00 PM 8.07 46.526 0.116 7.31 3.16 10.99
11/9/2020 10:45:00 PM 8.01 46.418 0.116 7.32 3.39 11
11/9/2020 11:00:00 PM 7.92 46.256 0.116 7.32 3.34 11.11
11/9/2020 11:15:00 PM 7.87 46.166 0.116 7.33 3.04 11.07
11/9/2020 11:30:00 PM 7.8 46.04 0.116 7.33 3.07 11.12
11/9/2020 11:45:00 PM 7.76 45.968 0.116 7.32 3.09 11.06
11/10/2020 12:00:00 AM 7.69 45.842 0.117 7.31 3.19 11.08
11/10/2020 12:15:00 AM 7.63 45.734 0.117 7.27 5.34 11.04
11/10/2020 12:30:00 AM 7.57 45.626 0.117 7.29 3.21 11.16
11/10/2020 12:45:00 AM 7.54 45.572 0.118 7.27 3.22 11.08
11/10/2020 1:00:00 AM 7.42 45.356 0.117 7.31 3.22 11.31
11/10/2020 1:15:00 AM 7.37 45.266 0.117 7.31 4.98 11.31
11/10/2020 1:30:00 AM 7.31 45.158 0.117 7.3 91.35 11.31
11/10/2020 1:45:00 AM 7.25 45.05 0.117 7.31 5.61 11.37
11/10/2020 2:00:00 AM 7.2 44.96 0.117 7.31 4.37 11.27
11/10/2020 2:15:00 AM 7.13 44.834 0.117 7.31 20.74 11.38
11/10/2020 2:30:00 AM 7.06 44.708 0.139 7.38 16.05 11.43
11/10/2020 2:45:00 AM 7.01 44.618 0.117 7.31 10.34 11.47
11/10/2020 3:00:00 AM 6.98 44.564 0.118 7.31 3.36 11.42
11/10/2020 3:15:00 AM 6.95 44.51 0.118 7.29 3.45 11.34
11/10/2020 3:30:00 AM 6.85 44.33 0.118 7.29 6.4 11.44
11/10/2020 3:45:00 AM 6.79 44.222 0.118 7.3 6.19 11.51
11/10/2020 4:00:00 AM 6.77 44.186 0.119 7.28 3.14 11.4
11/10/2020 4:15:00 AM 6.71 44.078 0.118 7.31 3.54 11.54
11/10/2020 4:30:00 AM 6.66 43.988 0.118 7.33 2.97 11.61
11/10/2020 4:45:00 AM 6.64 43.952 0.118 7.33 3.02 11.57
11/10/2020 5:00:00 AM 6.62 43.916 0.118 7.31 3.12 11.43
11/10/2020 5:15:00 AM 6.56 43.808 0.118 7.3 4.1 11.5
11/10/2020 5:30:00 AM 6.53 43.754 0.118 7.32 3.46 11.56
11/10/2020 5:45:00 AM 6.52 43.736 0.12 7.28 3.07 11.46
11/10/2020 6:00:00 AM 6.49 43.682 0.119 7.28 7.25 11.5
11/10/2020 6:15:00 AM 6.47 43.646 0.119 7.31 2.69 11.56
11/10/2020 6:30:00 AM 6.45 43.61 0.119 7.31 2.81 11.54
11/10/2020 6:45:00 AM 6.42 43.556 0.119 7.3 2.84 11.48
11/10/2020 7:00:00 AM 6.38 43.484 0.119 7.28 3.59 11.53
11/10/2020 7:15:00 AM 6.36 43.448 0.119 7.27 2.66 11.51
11/10/2020 7:30:00 AM 6.39 43.502 0.12 7.25 2.79 11.45
11/10/2020 7:45:00 AM 6.36 43.448 0.12 7.27 2.8 11.57
11/10/2020 8:00:00 AM 6.35 43.43 0.119 7.31 2.79 11.62
11/10/2020 8:15:00 AM 6.34 43.412 0.118 7.32 5.36 11.77
11/10/2020 8:30:00 AM 6.36 43.448 0.118 7.34 2.72 11.97
11/10/2020 8:45:00 AM 6.38 43.484 0.119 7.35 2.73 12.09
11/10/2020 9:00:00 AM 6.4 43.52 0.118 7.4 3.06 12.21
11/10/2020 9:15:00 AM 6.44 43.592 0.118 7.37 2.67 12.19
11/10/2020 9:30:00 AM 6.49 43.682 0.117 7.4 2.67 12.35
11/10/2020 9:45:00 AM 6.56 43.808 0.117 7.4 2.74 12.27
11/10/2020 10:00:00 AM 6.67 44.006 0.117 7.43 2.68 12.37
11/10/2020 10:15:00 AM 6.78 44.204 0.117 7.41 2.74 12.34
11/10/2020 10:30:00 AM 6.92 44.456 0.117 7.41 2.78 12.33
11/10/2020 10:45:00 AM 7.04 44.672 0.118 7.4 4.82 12.23
11/10/2020 11:00:00 AM 7.28 45.104 0.117 7.43 7.3 12.28
11/10/2020 11:15:00 AM 7.43 45.374 0.119 7.37 3.91 12.1
11/10/2020 11:30:00 AM 7.68 45.824 0.119 7.41 2.82 12.26
11/10/2020 11:45:00 AM 7.9 46.22 0.119 7.37 2.77 12.15
11/10/2020 12:00:00 PM 8.06 46.508 0.119 7.35 2.86 11.98
11/10/2020 12:15:00 PM 8.23 46.814 0.12 7.35 3.07 11.92
11/10/2020 12:30:00 PM 8.56 47.408 0.12 7.36 15.21 11.82
11/10/2020 12:45:00 PM 8.81 47.858 0.119 7.36 2.89 11.89
11/10/2020 1:00:00 PM 9.27 48.686 0.118 7.43 2.88 11.94
11/10/2020 1:15:00 PM 9.56 49.208 0.119 7.41 22.72 11.83
11/10/2020 1:30:00 PM 9.8 49.64 0.119 7.37 5.26 11.63
11/10/2020 1:45:00 PM 10.04 50.072 0.121 7.35 3.2 11.58
11/10/2020 2:00:00 PM 10.26 50.468 0.121 7.34 3.7 11.33
11/10/2020 2:15:00 PM 10.72 51.296 0.119 7.41 3.39 11.36
11/10/2020 2:30:00 PM 11 51.8 0.12 7.43 3.06 11.38
11/10/2020 2:45:00 PM 11 51.8 0.121 7.35 3.3 11.09
11/10/2020 3:00:00 PM 11.5 52.7 0.117 7.46 3.74 11.18
11/10/2020 3:15:00 PM 11.45 52.61 0.12 7.43 5.54 10.94
11/10/2020 3:30:00 PM 11.71 53.078 0.117 7.47 13.83 10.99
11/10/2020 3:45:00 PM 11.67 53.006 0.119 7.41 3.52 10.81
11/10/2020 4:00:00 PM 11.56 52.808 0.12 7.36 3.43 10.6
11/10/2020 4:15:00 PM 11.6 52.88 0.118 7.38 3.54 10.51
11/10/2020 4:30:00 PM 11.53 52.754 0.119 7.38 3.69 10.45
11/10/2020 4:45:00 PM 11.49 52.682 0.118 7.46 3.52 10.63
11/10/2020 5:00:00 PM 11.42 52.556 0.118 7.4 3.53 10.32
11/10/2020 5:15:00 PM 11.36 52.448 0.12 7.36 3.34 10.22
11/10/2020 5:30:00 PM 11.39 52.502 0.118 7.37 3.5 10.23
11/10/2020 5:45:00 PM 11.38 52.484 0.118 7.38 3.68 10.28
11/10/2020 6:00:00 PM 11.34 52.412 0.118 7.37 3.6 10.15
11/10/2020 6:15:00 PM 11.3 52.34 0.119 7.29 3.47 9.87
11/10/2020 6:30:00 PM 11.29 52.322 0.118 7.33 3.31 10
11/10/2020 6:45:00 PM 11.24 52.232 0.119 7.3 4.8 9.87
11/10/2020 7:00:00 PM 11.2 52.16 0.119 7.31 3.15 9.95
11/10/2020 7:15:00 PM 11.14 52.052 0.119 7.28 3.13 9.87
11/10/2020 7:30:00 PM 11.07 51.926 0.119 7.29 3.4 9.9
11/10/2020 7:45:00 PM 11.01 51.818 0.118 7.31 3.29 10.07
11/10/2020 8:00:00 PM 10.93 51.674 0.118 7.33 3.56 10.04
11/10/2020 8:15:00 PM 10.85 51.53 0.118 7.32 3.26 10.05
11/10/2020 8:30:00 PM 10.75 51.35 0.12 7.28 3.15 9.99
11/10/2020 8:45:00 PM 10.66 51.188 0.118 7.28 3.33 10.03
11/10/2020 9:00:00 PM 10.54 50.972 0.118 7.32 3.62 10.23
11/10/2020 9:15:00 PM 10.44 50.792 0.118 7.32 3.83 10.25
11/10/2020 9:30:00 PM 10.33 50.594 0.118 7.33 3.31 10.32
11/10/2020 9:45:00 PM 10.26 50.468 0.118 7.29 3.37 10.2
11/10/2020 10:00:00 PM 10.17 50.306 0.119 7.28 3.54 10.21
11/10/2020 10:15:00 PM 10.06 50.108 0.118 7.33 3.61 10.41
11/10/2020 10:30:00 PM 9.95 49.91 0.117 7.34 3.53 10.52
11/10/2020 10:45:00 PM 9.9 49.82 0.118 7.32 3.3 10.45
11/10/2020 11:00:00 PM 9.84 49.712 0.118 7.29 3.24 10.37
11/10/2020 11:15:00 PM 9.78 49.604 0.119 7.28 4.03 10.3
11/10/2020 11:30:00 PM 9.7 49.46 0.118 7.3 5.89 10.45
11/10/2020 11:45:00 PM 9.67 49.406 0.119 7.27 4.7 10.35
11/11/2020 12:00:00 AM 9.6 49.28 0.119 7.28 3.37 10.39
11/11/2020 12:15:00 AM 9.56 49.208 0.12 7.26 3.27 10.37
11/11/2020 12:30:00 AM 9.49 49.082 0.119 7.28 3.2 10.43
11/11/2020 12:45:00 AM 9.44 48.992 0.118 7.29 3.44 10.49
11/11/2020 1:00:00 AM 9.39 48.902 0.118 7.31 3.21 10.52
11/11/2020 1:15:00 AM 9.35 48.83 0.118 7.29 3.38 10.45
11/11/2020 1:30:00 AM 9.29 48.722 0.118 7.31 3.23 10.55
11/11/2020 1:45:00 AM 9.24 48.632 0.118 7.29 3.56 10.48
11/11/2020 2:00:00 AM 9.21 48.578 0.12 7.27 3.18 10.48
11/11/2020 2:15:00 AM 9.12 48.416 0.118 7.3 3.38 10.61
11/11/2020 2:30:00 AM 9.07 48.326 0.118 7.3 3.21 10.65
11/11/2020 2:45:00 AM 9.05 48.29 0.12 7.28 3.16 10.61
11/11/2020 3:00:00 AM 8.97 48.146 0.118 7.31 3.4 10.69
11/11/2020 3:15:00 AM 8.92 48.056 0.118 7.31 4.25 10.69
11/11/2020 3:30:00 AM 8.88 47.984 0.118 7.31 3.34 10.66
11/11/2020 3:45:00 AM 8.86 47.948 0.119 7.3 4.22 10.63
11/11/2020 4:00:00 AM 8.84 47.912 0.119 7.29 4.32 10.54
11/11/2020 4:15:00 AM 8.82 47.876 0.119 7.3 3.33 10.63
11/11/2020 4:30:00 AM 8.8 47.84 0.119 7.31 7.13 10.74
11/11/2020 4:45:00 AM 8.81 47.858 0.119 7.31 3.25 10.68
11/11/2020 5:00:00 AM 8.82 47.876 0.12 7.29 3.02 10.63
11/11/2020 5:15:00 AM 8.83 47.894 0.12 7.29 3.01 10.65
11/11/2020 5:30:00 AM 8.84 47.912 0.122 7.27 3.04 10.6
11/11/2020 5:45:00 AM 8.84 47.912 0.119 7.3 2.95 10.63
11/11/2020 6:00:00 AM 8.84 47.912 0.119 7.31 3.13 10.67
11/11/2020 6:15:00 AM 8.85 47.93 0.119 7.31 3.06 10.6
11/11/2020 6:30:00 AM 8.87 47.966 0.119 7.31 2.98 10.6
11/11/2020 6:45:00 AM 8.88 47.984 0.117 7.3 3.07 10.59
11/11/2020 7:00:00 AM 8.9 48.02 0.117 7.32 3.1 10.64
11/11/2020 7:15:00 AM 8.92 48.056 0.116 7.3 3.18 10.62
11/11/2020 7:30:00 AM 8.94 48.092 0.116 7.29 3.15 10.7
11/11/2020 7:45:00 AM 8.96 48.128 0.116 7.3 3.35 10.69
11/11/2020 8:00:00 AM 8.99 48.182 0.115 7.29 3.72 10.69
11/11/2020 8:15:00 AM 9.02 48.236 0.114 7.32 3.64 10.77
11/11/2020 8:30:00 AM 9.05 48.29 0.114 7.33 3.97 10.82
11/11/2020 8:45:00 AM 9.08 48.344 0.114 7.33 3.82 10.85
11/11/2020 9:00:00 AM 9.11 48.398 0.114 7.34 3.97 10.9
11/11/2020 9:15:00 AM 9.15 48.47 0.114 7.36 4.03 10.95
11/11/2020 9:30:00 AM 9.18 48.524 0.114 7.35 4.16 10.94
11/11/2020 9:45:00 AM 9.21 48.578 0.114 7.37 4.33 11.01
11/11/2020 10:00:00 AM 9.24 48.632 0.113 7.35 4.2 10.97
11/11/2020 10:15:00 AM 9.28 48.704 0.112 7.36 4.37 10.96
11/11/2020 10:30:00 AM 9.32 48.776 0.11 7.36 4.03 11.04
11/11/2020 10:45:00 AM 9.36 48.848 0.109 7.37 3.62 11.14
11/11/2020 11:00:00 AM 9.4 48.92 0.109 7.35 3.72 11.1
11/11/2020 11:15:00 AM 9.45 49.01 0.109 7.37 4.4 11.13
11/11/2020 11:30:00 AM 9.51 49.118 0.109 7.38 4.12 11.15
11/11/2020 11:45:00 AM 9.55 49.19 0.109 7.38 4.39 11.14
11/11/2020 12:00:00 PM 9.62 49.316 0.11 7.4 4.39 11.24
11/11/2020 12:15:00 PM 9.69 49.442 0.11 7.42 4.73 11.32
11/11/2020 12:30:00 PM 9.76 49.568 0.109 7.43 5.78 11.37
11/11/2020 12:45:00 PM 9.82 49.676 0.109 7.43 6.53 11.29
11/11/2020 1:00:00 PM 9.85 49.73 0.108 7.44 7.85 11.26
11/11/2020 1:15:00 PM 9.88 49.784 0.107 7.44 8.12 11.18
11/11/2020 1:30:00 PM 9.92 49.856 0.106 7.44 7.86 11.18
11/11/2020 1:45:00 PM 9.97 49.946 0.105 7.45 7.64 11.24
11/11/2020 2:00:00 PM 10.01 50.018 0.104 7.46 9.66 11.23
11/11/2020 2:15:00 PM 10.04 50.072 0.103 7.46 8.13 11.23
11/11/2020 2:30:00 PM 10.05 50.09 0.101 7.46 9.36 11.22
11/11/2020 2:45:00 PM 10.06 50.108 0.1 7.44 10.1 11.12
11/11/2020 3:00:00 PM 10.08 50.144 0.099 7.44 18.36 11.15
11/11/2020 3:15:00 PM 10.09 50.162 0.098 7.46 12.32 11.23
11/11/2020 3:30:00 PM 10.1 50.18 0.097 7.44 9.55 11.18
11/11/2020 3:45:00 PM 10.1 50.18 0.096 7.42 14.62 11.08
11/11/2020 4:00:00 PM 10.1 50.18 0.094 7.4 12.08 11.06
11/11/2020 4:15:00 PM 10.1 50.18 0.093 7.37 13.9 10.96
11/11/2020 4:30:00 PM 10.11 50.198 0.091 7.36 13.85 10.96
11/11/2020 4:45:00 PM 10.12 50.216 0.09 7.34 15.72 10.93
11/11/2020 5:00:00 PM 10.13 50.234 0.09 7.32 14.18 10.92
11/11/2020 5:15:00 PM 10.13 50.234 0.089 7.31 14.55 10.89
11/11/2020 5:30:00 PM 10.13 50.234 0.089 7.3 16.47 10.87
11/11/2020 5:45:00 PM 10.14 50.252 0.088 7.29 14.48 10.85
11/11/2020 6:00:00 PM 10.14 50.252 0.088 7.28 13.6 10.86
11/11/2020 6:15:00 PM 10.14 50.252 0.088 7.27 14.44 10.84
11/11/2020 6:30:00 PM 10.14 50.252 0.087 7.27 14.56 10.84
11/11/2020 6:45:00 PM 10.14 50.252 0.088 7.26 14.23 10.83
11/11/2020 7:00:00 PM 10.14 50.252 0.087 7.26 13.87 10.84
11/11/2020 7:15:00 PM 10.13 50.234 0.088 7.25 12.56 10.81
11/11/2020 7:30:00 PM 10.13 50.234 0.088 7.25 12.44 10.83
11/11/2020 7:45:00 PM 10.13 50.234 0.088 7.24 16.18 10.83
11/11/2020 8:00:00 PM 10.13 50.234 0.088 7.23 13.18 10.81
11/11/2020 8:15:00 PM 10.14 50.252 0.087 7.23 17.64 10.84
11/11/2020 8:30:00 PM 10.15 50.27 0.087 7.24 13.12 10.83
11/11/2020 8:45:00 PM 10.17 50.306 0.087 7.24 15.23 10.82
11/11/2020 9:00:00 PM 10.19 50.342 0.086 7.26 14.7 10.83
11/11/2020 9:15:00 PM 10.2 50.36 0.086 7.27 13.04 10.83
11/11/2020 9:30:00 PM 10.2 50.36 0.085 7.27 12.91 10.83
11/11/2020 9:45:00 PM 10.21 50.378 0.085 7.28 15.03 10.84
11/11/2020 10:00:00 PM 10.21 50.378 0.085 7.28 14.16 10.83
11/11/2020 10:15:00 PM 10.21 50.378 0.084 7.29 12.32 10.84
11/11/2020 10:30:00 PM 10.21 50.378 0.084 7.29 12.28 10.84
11/11/2020 10:45:00 PM 10.21 50.378 0.084 7.29 13.21 10.83
11/11/2020 11:00:00 PM 10.2 50.36 0.084 7.29 15.63 10.83
11/11/2020 11:15:00 PM 10.19 50.342 0.084 7.29 13.84 10.84
11/11/2020 11:30:00 PM 10.18 50.324 0.084 7.29 12 10.85
11/11/2020 11:45:00 PM 10.17 50.306 0.084 7.29 12.29 10.82
11/12/2020 12:00:00 AM 10.15 50.27 0.083 7.29 14.52 10.85
11/12/2020 12:15:00 AM 10.13 50.234 0.083 7.29 12.79 10.86
11/12/2020 12:30:00 AM 10.1 50.18 0.083 7.29 12.2 10.87
11/12/2020 12:45:00 AM 10.06 50.108 0.083 7.29 16.81 10.87
11/12/2020 1:00:00 AM 10.03 50.054 0.083 7.29 12.15 10.88
11/12/2020 1:15:00 AM 9.98 49.964 0.083 7.29 11.46 10.91
11/12/2020 1:30:00 AM 9.94 49.892 0.083 7.29 11.43 10.93
11/12/2020 1:45:00 AM 9.9 49.82 0.083 7.29 10.7 10.93
11/12/2020 2:00:00 AM 9.87 49.766 0.083 7.29 10.85 10.94
11/12/2020 2:15:00 AM 9.83 49.694 0.083 7.28 10.5 10.94
11/12/2020 2:30:00 AM 9.8 49.64 0.083 7.28 10.47 10.96
11/12/2020 2:45:00 AM 9.77 49.586 0.083 7.29 10.45 10.99
11/12/2020 3:00:00 AM 9.73 49.514 0.083 7.28 10.36 11
11/12/2020 3:15:00 AM 9.7 49.46 0.083 7.29 10.96 11.01
11/12/2020 3:30:00 AM 9.66 49.388 0.083 7.29 9.69 11.04
11/12/2020 3:45:00 AM 9.62 49.316 0.083 7.29 10.89 11.04
11/12/2020 4:00:00 AM 9.58 49.244 0.083 7.29 9.69 11.05
11/12/2020 4:15:00 AM 9.54 49.172 0.083 7.29 9.85 11.07
11/12/2020 4:30:00 AM 9.5 49.1 0.083 7.29 9.7 11.07
11/12/2020 4:45:00 AM 9.45 49.01 0.083 7.29 10.25 11.08
11/12/2020 5:00:00 AM 9.39 48.902 0.083 7.29 9.27 11.1
11/12/2020 5:15:00 AM 9.34 48.812 0.083 7.3 9.38 11.13
11/12/2020 5:30:00 AM 9.29 48.722 0.083 7.3 9.16 11.15
11/12/2020 5:45:00 AM 9.24 48.632 0.083 7.3 10.5 11.15
11/12/2020 6:00:00 AM 9.21 48.578 0.083 7.3 9.56 11.16
11/12/2020 6:15:00 AM 9.18 48.524 0.083 7.3 9.34 11.17
11/12/2020 6:30:00 AM 9.15 48.47 0.082 7.3 8.65 11.18
11/12/2020 6:45:00 AM 9.11 48.398 0.082 7.3 9.74 11.2
11/12/2020 7:00:00 AM 9.08 48.344 0.082 7.3 9.15 11.21
11/12/2020 7:15:00 AM 9.04 48.272 0.082 7.29 9.1 11.21
11/12/2020 7:30:00 AM 9.01 48.218 0.082 7.3 8.86 11.24
11/12/2020 7:45:00 AM 8.97 48.146 0.082 7.31 9.49 11.29
11/12/2020 8:00:00 AM 8.94 48.092 0.082 7.31 8.83 11.32
11/12/2020 8:15:00 AM 8.92 48.056 0.082 7.32 8.43 11.36
11/12/2020 8:30:00 AM 8.89 48.002 0.082 7.33 9.27 11.41
11/12/2020 8:45:00 AM 8.88 47.984 0.082 7.34 7.9 11.46
11/12/2020 9:00:00 AM 8.86 47.948 0.081 7.35 7.98 11.53
11/12/2020 9:15:00 AM 8.86 47.948 0.081 7.37 9.71 11.59
11/12/2020 9:30:00 AM 8.87 47.966 0.081 7.38 8.11 11.66
11/12/2020 9:45:00 AM 8.89 48.002 0.081 7.41 8.11 11.75
11/12/2020 10:00:00 AM 8.92 48.056 0.081 7.43 7.7 11.81
11/12/2020 10:15:00 AM 8.94 48.092 0.081 7.44 7.86 11.82
11/12/2020 10:30:00 AM 8.96 48.128 0.081 7.46 7.37 11.85
11/12/2020 10:45:00 AM 8.98 48.164 0.081 7.47 7.74 11.85
11/12/2020 11:00:00 AM 9.02 48.236 0.081 7.48 7.59 11.88
11/12/2020 11:15:00 AM 9.11 48.398 0.08 7.5 7.49 11.91
11/12/2020 11:30:00 AM 9.13 48.434 0.08 7.51 8.28 11.9
11/12/2020 11:45:00 AM 9.18 48.524 0.08 7.52 8.12 11.9
11/12/2020 12:00:00 PM 9.27 48.686 0.08 7.52 7.28 11.88
11/12/2020 12:15:00 PM 9.34 48.812 0.08 7.55 7.63 11.9
11/12/2020 12:30:00 PM 9.43 48.974 0.08 7.56 6.94 11.89
11/12/2020 12:45:00 PM 9.51 49.118 0.08 7.56 7.31 11.87
11/12/2020 1:00:00 PM 9.57 49.226 0.08 7.57 7.42 11.86
11/12/2020 1:15:00 PM 9.64 49.352 0.08 7.58 6.86 11.85
11/12/2020 1:30:00 PM 9.69 49.442 0.08 7.59 7.26 11.83
11/12/2020 1:45:00 PM 9.7 49.46 0.08 7.6 6.82 11.83
11/12/2020 2:00:00 PM 9.7 49.46 0.08 7.6 6.99 11.8
11/12/2020 2:15:00 PM 9.74 49.532 0.08 7.61 7.27 11.81
11/12/2020 2:30:00 PM 9.79 49.622 0.08 7.61 9.61 11.8
11/12/2020 2:45:00 PM 9.78 49.604 0.08 7.6 6.9 11.75
11/12/2020 3:00:00 PM 9.71 49.478 0.08 7.59 6.97 11.75
11/12/2020 3:15:00 PM 9.61 49.298 0.08 7.57 6.52 11.71
11/12/2020 3:30:00 PM 9.54 49.172 0.08 7.56 6.74 11.67
11/12/2020 3:45:00 PM 9.46 49.028 0.08 7.54 6.27 11.64
11/12/2020 4:00:00 PM 9.4 48.92 0.081 7.51 6.25 11.55
11/12/2020 4:15:00 PM 9.36 48.848 0.081 7.49 6.3 11.51
11/12/2020 4:30:00 PM 9.31 48.758 0.081 7.48 6.3 11.48
11/12/2020 4:45:00 PM 9.26 48.668 0.081 7.46 5.97 11.44
11/12/2020 5:00:00 PM 9.2 48.56 0.081 7.44 6.3 11.38
11/12/2020 5:15:00 PM 9.14 48.452 0.081 7.41 6.18 11.32
11/12/2020 5:30:00 PM 9.07 48.326 0.081 7.4 6.03 11.3
11/12/2020 5:45:00 PM 9 48.2 0.081 7.38 12.92 11.28
11/12/2020 6:00:00 PM 8.93 48.074 0.081 7.37 8.43 11.28
11/12/2020 6:15:00 PM 8.85 47.93 0.082 7.36 6.9 11.26
11/12/2020 6:30:00 PM 8.77 47.786 0.082 7.35 7.09 11.28
11/12/2020 6:45:00 PM 8.69 47.642 0.082 7.34 6.35 11.29
11/12/2020 7:00:00 PM 8.6 47.48 0.082 7.34 6.05 11.3
11/12/2020 7:15:00 PM 8.51 47.318 0.082 7.33 5.89 11.31
11/12/2020 7:30:00 PM 8.4 47.12 0.082 7.33 6.49 11.37
11/12/2020 7:45:00 PM 8.3 46.94 0.082 7.33 6.41 11.39
11/12/2020 8:00:00 PM 8.19 46.742 0.083 7.32 6.66 11.42
11/12/2020 8:15:00 PM 8.09 46.562 0.083 7.32 5.46 11.45
11/12/2020 8:30:00 PM 7.99 46.382 0.083 7.32 5.79 11.46
11/12/2020 8:45:00 PM 7.88 46.184 0.083 7.32 5.91 11.5
11/12/2020 9:00:00 PM 7.78 46.004 0.083 7.32 5.38 11.53
11/12/2020 9:15:00 PM 7.67 45.806 0.083 7.32 5.11 11.58
11/12/2020 9:30:00 PM 7.57 45.626 0.083 7.31 6.02 11.58
11/12/2020 9:45:00 PM 7.47 45.446 0.083 7.31 5.92 11.61
11/12/2020 10:00:00 PM 7.37 45.266 0.083 7.31 5.21 11.66
11/12/2020 10:15:00 PM 7.28 45.104 0.083 7.31 6.39 11.67
11/12/2020 10:30:00 PM 7.19 44.942 0.083 7.31 5.22 11.72
11/12/2020 10:45:00 PM 7.1 44.78 0.083 7.31 5.28 11.72
11/12/2020 11:00:00 PM 7.01 44.618 0.083 7.31 5.23 11.74
11/12/2020 11:15:00 PM 6.93 44.474 0.083 7.3 5.93 11.78
11/12/2020 11:30:00 PM 6.86 44.348 0.083 7.31 4.99 11.82
11/12/2020 11:45:00 PM 6.79 44.222 0.083 7.3 5.43 11.84
11/13/2020 12:00:00 AM 6.71 44.078 0.083 7.3 5.18 11.87
11/13/2020 12:15:00 AM 6.62 43.916 0.083 7.3 5.34 11.9
11/13/2020 12:30:00 AM 6.56 43.808 0.083 7.3 9.88 11.92
11/13/2020 12:45:00 AM 6.5 43.7 0.083 7.3 5.22 11.95
11/13/2020 1:00:00 AM 6.44 43.592 0.083 7.3 5.23 11.97
11/13/2020 1:15:00 AM 6.39 43.502 0.083 7.3 5.09 11.97
11/13/2020 1:30:00 AM 6.32 43.376 0.083 7.3 4.79 12
11/13/2020 1:45:00 AM 6.24 43.232 0.083 7.3 4.94 12.02
11/13/2020 2:00:00 AM 6.16 43.088 0.083 7.3 10.52 12.03
11/13/2020 2:15:00 AM 6.1 42.98 0.083 7.3 5.95 12.06
11/13/2020 2:30:00 AM 6.04 42.872 0.083 7.3 4.91 12.09
11/13/2020 2:45:00 AM 5.98 42.764 0.083 7.3 4.67 12.13
11/13/2020 3:00:00 AM 5.92 42.656 0.083 7.3 4.7 12.13
11/13/2020 3:15:00 AM 5.86 42.548 0.083 7.3 4.62 12.16
11/13/2020 3:30:00 AM 5.79 42.422 0.084 7.3 4.8 12.19
11/13/2020 3:45:00 AM 5.73 42.314 0.084 7.3 4.77 12.21
11/13/2020 4:00:00 AM 5.67 42.206 0.084 7.3 5.49 12.22
11/13/2020 4:15:00 AM 5.62 42.116 0.084 7.3 4.8 12.22
11/13/2020 4:30:00 AM 5.54 41.972 0.084 7.3 10.08 12.26
11/13/2020 4:45:00 AM 5.5 41.9 0.084 7.3 4.62 12.27
11/13/2020 5:00:00 AM 5.45 41.81 0.084 7.3 4.64 12.3
11/13/2020 5:15:00 AM 5.4 41.72 0.084 7.3 5.73 12.33
11/13/2020 5:30:00 AM 5.36 41.648 0.084 7.3 4.27 12.34
11/13/2020 5:45:00 AM 5.32 41.576 0.084 7.3 4.52 12.35
11/13/2020 6:00:00 AM 5.28 41.504 0.084 7.3 4.33 12.37
11/13/2020 6:15:00 AM 5.24 41.432 0.084 7.3 4.95 12.37
11/13/2020 6:30:00 AM 5.2 41.36 0.084 7.3 4.63 12.39
11/13/2020 6:45:00 AM 5.17 41.306 0.084 7.3 4.53 12.41
11/13/2020 7:00:00 AM 5.13 41.234 0.084 7.3 4.1 12.43
11/13/2020 7:15:00 AM 5.1 41.18 0.084 7.3 4.29 12.43
11/13/2020 7:30:00 AM 5.07 41.126 0.084 7.31 4.63 12.46
11/13/2020 7:45:00 AM 5.05 41.09 0.084 7.32 4.12 12.52
11/13/2020 8:00:00 AM 5.03 41.054 0.084 7.32 4.03 12.56
11/13/2020 8:15:00 AM 5.01 41.018 0.084 7.33 4.55 12.62
11/13/2020 8:30:00 AM 5.01 41.018 0.084 7.35 4.11 12.71
11/13/2020 8:45:00 AM 5.01 41.018 0.084 7.37 4.03 12.8
11/13/2020 9:00:00 AM 5.02 41.036 0.083 7.38 3.89 12.86
11/13/2020 9:15:00 AM 5.03 41.054 0.083 7.4 4.05 12.93
11/13/2020 9:30:00 AM 5.05 41.09